<?xml version="1.0" encoding="UTF-8" standalone="no" ?>
<gpx xmlns="http://www.topografix.com/GPX/1/1" xmlns:xsi="http://www.w3.org/2001/XMLSchema-instance" xsi:schemaLocation="http://www.topografix.com/GPX/1/1 http://www.topografix.com/GPX/1/1/gpx.xsd" version="1.1" creator="VisuGPX - https://www.visugpx.com">
  <metadata>
    <name>Mont Ventoux V2 </name>
    <desc><![CDATA[Mont Ventoux 2 eme sortie]]></desc>
  </metadata>
  <trk>
    <name><![CDATA[Move]]></name>
    <trkseg>
      <trkpt lat="44.18019" lon="5.25538">
        <ele>1441</ele>
        <time>2014-02-09T09:26:30.140Z</time>
      </trkpt>
      <trkpt lat="44.18014" lon="5.25534">
        <ele>1441</ele>
        <time>2014-02-09T09:26:34.790Z</time>
      </trkpt>
      <trkpt lat="44.18004" lon="5.25528">
        <ele>1441</ele>
        <time>2014-02-09T09:26:44.790Z</time>
      </trkpt>
      <trkpt lat="44.17995" lon="5.25521">
        <ele>1444</ele>
        <time>2014-02-09T09:26:53.790Z</time>
      </trkpt>
      <trkpt lat="44.17984" lon="5.25518">
        <ele>1444</ele>
        <time>2014-02-09T09:27:00.790Z</time>
      </trkpt>
      <trkpt lat="44.17975" lon="5.25511">
        <ele>1444</ele>
        <time>2014-02-09T09:27:07.790Z</time>
      </trkpt>
      <trkpt lat="44.17969" lon="5.25498">
        <ele>1445</ele>
        <time>2014-02-09T09:27:14.790Z</time>
      </trkpt>
      <trkpt lat="44.17964" lon="5.25487">
        <ele>1447</ele>
        <time>2014-02-09T09:27:21.730Z</time>
      </trkpt>
      <trkpt lat="44.1796" lon="5.25473">
        <ele>1447</ele>
        <time>2014-02-09T09:27:28.790Z</time>
      </trkpt>
      <trkpt lat="44.17955" lon="5.25459">
        <ele>1449</ele>
        <time>2014-02-09T09:27:36.790Z</time>
      </trkpt>
      <trkpt lat="44.17953" lon="5.25445">
        <ele>1451</ele>
        <time>2014-02-09T09:27:45.790Z</time>
      </trkpt>
      <trkpt lat="44.1795" lon="5.25431">
        <ele>1452</ele>
        <time>2014-02-09T09:27:53.790Z</time>
      </trkpt>
      <trkpt lat="44.17947" lon="5.25418">
        <ele>1454</ele>
        <time>2014-02-09T09:28:00.800Z</time>
      </trkpt>
      <trkpt lat="44.17941" lon="5.25404">
        <ele>1454</ele>
        <time>2014-02-09T09:28:08.790Z</time>
      </trkpt>
      <trkpt lat="44.17937" lon="5.25391">
        <ele>1454</ele>
        <time>2014-02-09T09:28:16.790Z</time>
      </trkpt>
      <trkpt lat="44.17932" lon="5.25379">
        <ele>1456</ele>
        <time>2014-02-09T09:28:24.740Z</time>
      </trkpt>
      <trkpt lat="44.17927" lon="5.25366">
        <ele>1457</ele>
        <time>2014-02-09T09:28:33.790Z</time>
      </trkpt>
      <trkpt lat="44.17925" lon="5.25352">
        <ele>1459</ele>
        <time>2014-02-09T09:28:40.790Z</time>
      </trkpt>
      <trkpt lat="44.17922" lon="5.25339">
        <ele>1459</ele>
        <time>2014-02-09T09:28:48.790Z</time>
      </trkpt>
      <trkpt lat="44.1792" lon="5.25327">
        <ele>1460</ele>
        <time>2014-02-09T09:28:55.790Z</time>
      </trkpt>
      <trkpt lat="44.17917" lon="5.25315">
        <ele>1461</ele>
        <time>2014-02-09T09:29:02.740Z</time>
      </trkpt>
      <trkpt lat="44.17914" lon="5.25302">
        <ele>1463</ele>
        <time>2014-02-09T09:29:10.790Z</time>
      </trkpt>
      <trkpt lat="44.17912" lon="5.25287">
        <ele>1463.8</ele>
        <time>2014-02-09T09:29:19.730Z</time>
      </trkpt>
      <trkpt lat="44.17908" lon="5.25272">
        <ele>1466</ele>
        <time>2014-02-09T09:29:32.670Z</time>
      </trkpt>
      <trkpt lat="44.17906" lon="5.25259">
        <ele>1466</ele>
        <time>2014-02-09T09:29:40.790Z</time>
      </trkpt>
      <trkpt lat="44.17903" lon="5.25245">
        <ele>1466</ele>
        <time>2014-02-09T09:29:47.790Z</time>
      </trkpt>
      <trkpt lat="44.17898" lon="5.25234">
        <ele>1469.3958266667</ele>
        <time>2014-02-09T09:29:54.730Z</time>
      </trkpt>
      <trkpt lat="44.17893" lon="5.25221">
        <ele>1470</ele>
        <time>2014-02-09T09:30:03.790Z</time>
      </trkpt>
      <trkpt lat="44.17888" lon="5.25209">
        <ele>1472</ele>
        <time>2014-02-09T09:30:11.730Z</time>
      </trkpt>
      <trkpt lat="44.17887" lon="5.25195">
        <ele>1472</ele>
        <time>2014-02-09T09:30:18.790Z</time>
      </trkpt>
      <trkpt lat="44.17889" lon="5.2518">
        <ele>1474</ele>
        <time>2014-02-09T09:30:27.740Z</time>
      </trkpt>
      <trkpt lat="44.17891" lon="5.25166">
        <ele>1475</ele>
        <time>2014-02-09T09:30:35.790Z</time>
      </trkpt>
      <trkpt lat="44.17895" lon="5.25153">
        <ele>1476</ele>
        <time>2014-02-09T09:30:43.790Z</time>
      </trkpt>
      <trkpt lat="44.17897" lon="5.25138">
        <ele>1477</ele>
        <time>2014-02-09T09:30:53.790Z</time>
      </trkpt>
      <trkpt lat="44.17895" lon="5.25125">
        <ele>1478</ele>
        <time>2014-02-09T09:31:45.690Z</time>
      </trkpt>
      <trkpt lat="44.17894" lon="5.2511">
        <ele>1479</ele>
        <time>2014-02-09T09:31:56.690Z</time>
      </trkpt>
      <trkpt lat="44.17894" lon="5.25095">
        <ele>1479</ele>
        <time>2014-02-09T09:32:05.680Z</time>
      </trkpt>
      <trkpt lat="44.17892" lon="5.2508">
        <ele>1481</ele>
        <time>2014-02-09T09:32:14.690Z</time>
      </trkpt>
      <trkpt lat="44.17887" lon="5.25067">
        <ele>1483</ele>
        <time>2014-02-09T09:32:23.640Z</time>
      </trkpt>
      <trkpt lat="44.17881" lon="5.25054">
        <ele>1485</ele>
        <time>2014-02-09T09:32:32.680Z</time>
      </trkpt>
      <trkpt lat="44.17875" lon="5.25043">
        <ele>1485</ele>
        <time>2014-02-09T09:32:41.690Z</time>
      </trkpt>
      <trkpt lat="44.17871" lon="5.2503">
        <ele>1487</ele>
        <time>2014-02-09T09:32:50.690Z</time>
      </trkpt>
      <trkpt lat="44.17865" lon="5.25018">
        <ele>1487</ele>
        <time>2014-02-09T09:32:58.690Z</time>
      </trkpt>
      <trkpt lat="44.1786" lon="5.25005">
        <ele>1488</ele>
        <time>2014-02-09T09:33:08.690Z</time>
      </trkpt>
      <trkpt lat="44.17855" lon="5.24992">
        <ele>1490</ele>
        <time>2014-02-09T09:33:18.630Z</time>
      </trkpt>
      <trkpt lat="44.1785" lon="5.24981">
        <ele>1491</ele>
        <time>2014-02-09T09:33:26.690Z</time>
      </trkpt>
      <trkpt lat="44.17847" lon="5.24968">
        <ele>1492</ele>
        <time>2014-02-09T09:33:33.790Z</time>
      </trkpt>
      <trkpt lat="44.17842" lon="5.24956">
        <ele>1494</ele>
        <time>2014-02-09T09:33:43.730Z</time>
      </trkpt>
      <trkpt lat="44.17837" lon="5.24944">
        <ele>1495</ele>
        <time>2014-02-09T09:33:53.690Z</time>
      </trkpt>
      <trkpt lat="44.17829" lon="5.24934">
        <ele>1495.3799936</ele>
        <time>2014-02-09T09:34:00.690Z</time>
      </trkpt>
      <trkpt lat="44.17823" lon="5.24922">
        <ele>1496</ele>
        <time>2014-02-09T09:34:09.560Z</time>
      </trkpt>
      <trkpt lat="44.17815" lon="5.24912">
        <ele>1498</ele>
        <time>2014-02-09T09:34:18.690Z</time>
      </trkpt>
      <trkpt lat="44.17808" lon="5.24902">
        <ele>1499</ele>
        <time>2014-02-09T09:34:27.690Z</time>
      </trkpt>
      <trkpt lat="44.178" lon="5.24891">
        <ele>1500</ele>
        <time>2014-02-09T09:34:34.690Z</time>
      </trkpt>
      <trkpt lat="44.17792" lon="5.24881">
        <ele>1502</ele>
        <time>2014-02-09T09:34:43.730Z</time>
      </trkpt>
      <trkpt lat="44.17785" lon="5.2487">
        <ele>1503</ele>
        <time>2014-02-09T09:34:52.780Z</time>
      </trkpt>
      <trkpt lat="44.17779" lon="5.24859">
        <ele>1505</ele>
        <time>2014-02-09T09:35:01.790Z</time>
      </trkpt>
      <trkpt lat="44.17774" lon="5.24847">
        <ele>1506</ele>
        <time>2014-02-09T09:35:11.790Z</time>
      </trkpt>
      <trkpt lat="44.17767" lon="5.24836">
        <ele>1506</ele>
        <time>2014-02-09T09:35:21.790Z</time>
      </trkpt>
      <trkpt lat="44.1776" lon="5.24824">
        <ele>1507</ele>
        <time>2014-02-09T09:35:31.790Z</time>
      </trkpt>
      <trkpt lat="44.17753" lon="5.24814">
        <ele>1507.48</ele>
        <time>2014-02-09T09:35:40.790Z</time>
      </trkpt>
      <trkpt lat="44.17748" lon="5.24805">
        <ele>1508</ele>
        <time>2014-02-09T09:35:47.730Z</time>
      </trkpt>
      <trkpt lat="44.17742" lon="5.24794">
        <ele>1510</ele>
        <time>2014-02-09T09:35:56.790Z</time>
      </trkpt>
      <trkpt lat="44.17735" lon="5.24784">
        <ele>1512</ele>
        <time>2014-02-09T09:36:05.790Z</time>
      </trkpt>
      <trkpt lat="44.17727" lon="5.24775">
        <ele>1513</ele>
        <time>2014-02-09T09:36:14.790Z</time>
      </trkpt>
      <trkpt lat="44.17719" lon="5.24764">
        <ele>1513</ele>
        <time>2014-02-09T09:36:23.790Z</time>
      </trkpt>
      <trkpt lat="44.17712" lon="5.24753">
        <ele>1515</ele>
        <time>2014-02-09T09:36:32.790Z</time>
      </trkpt>
      <trkpt lat="44.17704" lon="5.24743">
        <ele>1515.470591188</ele>
        <time>2014-02-09T09:36:40.790Z</time>
      </trkpt>
      <trkpt lat="44.17697" lon="5.24733">
        <ele>1516</ele>
        <time>2014-02-09T09:36:48.790Z</time>
      </trkpt>
      <trkpt lat="44.17691" lon="5.24722">
        <ele>1517</ele>
        <time>2014-02-09T09:36:56.790Z</time>
      </trkpt>
      <trkpt lat="44.17684" lon="5.2471">
        <ele>1518</ele>
        <time>2014-02-09T09:37:06.790Z</time>
      </trkpt>
      <trkpt lat="44.17679" lon="5.24697">
        <ele>1520</ele>
        <time>2014-02-09T09:37:15.730Z</time>
      </trkpt>
      <trkpt lat="44.17676" lon="5.24685">
        <ele>1521</ele>
        <time>2014-02-09T09:37:23.790Z</time>
      </trkpt>
      <trkpt lat="44.17671" lon="5.24671">
        <ele>1523</ele>
        <time>2014-02-09T09:37:32.730Z</time>
      </trkpt>
      <trkpt lat="44.17661" lon="5.24669">
        <ele>1524</ele>
        <time>2014-02-09T09:37:44.790Z</time>
      </trkpt>
      <trkpt lat="44.17659" lon="5.24679">
        <ele>1524</ele>
        <time>2014-02-09T09:37:51.790Z</time>
      </trkpt>
      <trkpt lat="44.17661" lon="5.24687">
        <ele>1524</ele>
        <time>2014-02-09T09:37:56.790Z</time>
      </trkpt>
      <trkpt lat="44.17665" lon="5.24695">
        <ele>1526</ele>
        <time>2014-02-09T09:38:01.790Z</time>
      </trkpt>
      <trkpt lat="44.17668" lon="5.24701">
        <ele>1526</ele>
        <time>2014-02-09T09:38:05.790Z</time>
      </trkpt>
      <trkpt lat="44.17672" lon="5.24709">
        <ele>1526</ele>
        <time>2014-02-09T09:38:11.790Z</time>
      </trkpt>
      <trkpt lat="44.17678" lon="5.24715">
        <ele>1526</ele>
        <time>2014-02-09T09:38:16.790Z</time>
      </trkpt>
      <trkpt lat="44.17682" lon="5.24721">
        <ele>1526</ele>
        <time>2014-02-09T09:38:21.790Z</time>
      </trkpt>
      <trkpt lat="44.17685" lon="5.24731">
        <ele>1526</ele>
        <time>2014-02-09T09:38:28.790Z</time>
      </trkpt>
      <trkpt lat="44.17689" lon="5.24743">
        <ele>1528</ele>
        <time>2014-02-09T09:38:36.790Z</time>
      </trkpt>
      <trkpt lat="44.17693" lon="5.24757">
        <ele>1529</ele>
        <time>2014-02-09T09:38:45.790Z</time>
      </trkpt>
      <trkpt lat="44.17695" lon="5.24768">
        <ele>1530</ele>
        <time>2014-02-09T09:38:52.790Z</time>
      </trkpt>
      <trkpt lat="44.17699" lon="5.24781">
        <ele>1532</ele>
        <time>2014-02-09T09:39:01.790Z</time>
      </trkpt>
      <trkpt lat="44.17704" lon="5.24795">
        <ele>1532.48</ele>
        <time>2014-02-09T09:39:10.790Z</time>
      </trkpt>
      <trkpt lat="44.17707" lon="5.24809">
        <ele>1533</ele>
        <time>2014-02-09T09:39:19.690Z</time>
      </trkpt>
      <trkpt lat="44.17711" lon="5.24823">
        <ele>1534</ele>
        <time>2014-02-09T09:39:28.640Z</time>
      </trkpt>
      <trkpt lat="44.17715" lon="5.24837">
        <ele>1534</ele>
        <time>2014-02-09T09:39:36.690Z</time>
      </trkpt>
      <trkpt lat="44.17718" lon="5.24851">
        <ele>1536</ele>
        <time>2014-02-09T09:39:44.690Z</time>
      </trkpt>
      <trkpt lat="44.17721" lon="5.24865">
        <ele>1537</ele>
        <time>2014-02-09T09:39:52.690Z</time>
      </trkpt>
      <trkpt lat="44.17726" lon="5.24879">
        <ele>1538</ele>
        <time>2014-02-09T09:40:01.690Z</time>
      </trkpt>
      <trkpt lat="44.17728" lon="5.24892">
        <ele>1538</ele>
        <time>2014-02-09T09:40:09.690Z</time>
      </trkpt>
      <trkpt lat="44.1773" lon="5.24907">
        <ele>1538</ele>
        <time>2014-02-09T09:40:16.690Z</time>
      </trkpt>
      <trkpt lat="44.17733" lon="5.24921">
        <ele>1539</ele>
        <time>2014-02-09T09:40:23.620Z</time>
      </trkpt>
      <trkpt lat="44.17737" lon="5.24934">
        <ele>1539.7599872</ele>
        <time>2014-02-09T09:40:30.690Z</time>
      </trkpt>
      <trkpt lat="44.1774" lon="5.24947">
        <ele>1541</ele>
        <time>2014-02-09T09:40:38.680Z</time>
      </trkpt>
      <trkpt lat="44.17742" lon="5.24962">
        <ele>1543</ele>
        <time>2014-02-09T09:40:45.690Z</time>
      </trkpt>
      <trkpt lat="44.17744" lon="5.24976">
        <ele>1544</ele>
        <time>2014-02-09T09:40:53.640Z</time>
      </trkpt>
      <trkpt lat="44.17746" lon="5.24991">
        <ele>1544</ele>
        <time>2014-02-09T09:41:01.690Z</time>
      </trkpt>
      <trkpt lat="44.17748" lon="5.25006">
        <ele>1544</ele>
        <time>2014-02-09T09:41:09.690Z</time>
      </trkpt>
      <trkpt lat="44.17751" lon="5.25021">
        <ele>1546</ele>
        <time>2014-02-09T09:41:17.690Z</time>
      </trkpt>
      <trkpt lat="44.17752" lon="5.25035">
        <ele>1547</ele>
        <time>2014-02-09T09:41:25.690Z</time>
      </trkpt>
      <trkpt lat="44.17755" lon="5.25049">
        <ele>1547</ele>
        <time>2014-02-09T09:41:33.690Z</time>
      </trkpt>
      <trkpt lat="44.17757" lon="5.25062">
        <ele>1548</ele>
        <time>2014-02-09T09:41:41.690Z</time>
      </trkpt>
      <trkpt lat="44.17758" lon="5.25077">
        <ele>1548</ele>
        <time>2014-02-09T09:41:49.790Z</time>
      </trkpt>
      <trkpt lat="44.17759" lon="5.25092">
        <ele>1548</ele>
        <time>2014-02-09T09:41:58.790Z</time>
      </trkpt>
      <trkpt lat="44.1776" lon="5.25108">
        <ele>1549</ele>
        <time>2014-02-09T09:42:06.790Z</time>
      </trkpt>
      <trkpt lat="44.1776" lon="5.25122">
        <ele>1550</ele>
        <time>2014-02-09T09:42:13.790Z</time>
      </trkpt>
      <trkpt lat="44.17761" lon="5.25138">
        <ele>1551</ele>
        <time>2014-02-09T09:42:21.730Z</time>
      </trkpt>
      <trkpt lat="44.17763" lon="5.25154">
        <ele>1551</ele>
        <time>2014-02-09T09:42:29.790Z</time>
      </trkpt>
      <trkpt lat="44.17764" lon="5.25168">
        <ele>1551</ele>
        <time>2014-02-09T09:42:36.790Z</time>
      </trkpt>
      <trkpt lat="44.17764" lon="5.25184">
        <ele>1552</ele>
        <time>2014-02-09T09:42:44.790Z</time>
      </trkpt>
      <trkpt lat="44.17764" lon="5.25199">
        <ele>1553</ele>
        <time>2014-02-09T09:42:52.730Z</time>
      </trkpt>
      <trkpt lat="44.17765" lon="5.25214">
        <ele>1553</ele>
        <time>2014-02-09T09:43:00.790Z</time>
      </trkpt>
      <trkpt lat="44.17767" lon="5.25229">
        <ele>1553</ele>
        <time>2014-02-09T09:43:08.790Z</time>
      </trkpt>
      <trkpt lat="44.17766" lon="5.25243">
        <ele>1555</ele>
        <time>2014-02-09T09:43:15.790Z</time>
      </trkpt>
      <trkpt lat="44.17768" lon="5.25258">
        <ele>1556</ele>
        <time>2014-02-09T09:43:23.790Z</time>
      </trkpt>
      <trkpt lat="44.1777" lon="5.25273">
        <ele>1556</ele>
        <time>2014-02-09T09:43:31.790Z</time>
      </trkpt>
      <trkpt lat="44.17772" lon="5.25287">
        <ele>1556</ele>
        <time>2014-02-09T09:43:39.790Z</time>
      </trkpt>
      <trkpt lat="44.17773" lon="5.25301">
        <ele>1556</ele>
        <time>2014-02-09T09:43:47.670Z</time>
      </trkpt>
      <trkpt lat="44.17775" lon="5.25315">
        <ele>1556</ele>
        <time>2014-02-09T09:43:55.790Z</time>
      </trkpt>
      <trkpt lat="44.17775" lon="5.25329">
        <ele>1556</ele>
        <time>2014-02-09T09:44:03.730Z</time>
      </trkpt>
      <trkpt lat="44.17775" lon="5.25339">
        <ele>1556</ele>
        <time>2014-02-09T09:44:09.790Z</time>
      </trkpt>
      <trkpt lat="44.17776" lon="5.25353">
        <ele>1557</ele>
        <time>2014-02-09T09:44:17.740Z</time>
      </trkpt>
      <trkpt lat="44.17778" lon="5.25368">
        <ele>1558</ele>
        <time>2014-02-09T09:44:25.790Z</time>
      </trkpt>
      <trkpt lat="44.17779" lon="5.25382">
        <ele>1559</ele>
        <time>2014-02-09T09:44:33.790Z</time>
      </trkpt>
      <trkpt lat="44.1778" lon="5.25397">
        <ele>1560</ele>
        <time>2014-02-09T09:44:41.790Z</time>
      </trkpt>
      <trkpt lat="44.17781" lon="5.25412">
        <ele>1560</ele>
        <time>2014-02-09T09:44:49.790Z</time>
      </trkpt>
      <trkpt lat="44.17782" lon="5.25426">
        <ele>1560</ele>
        <time>2014-02-09T09:44:56.790Z</time>
      </trkpt>
      <trkpt lat="44.17782" lon="5.25441">
        <ele>1561</ele>
        <time>2014-02-09T09:45:04.790Z</time>
      </trkpt>
      <trkpt lat="44.17784" lon="5.25456">
        <ele>1562</ele>
        <time>2014-02-09T09:45:13.790Z</time>
      </trkpt>
      <trkpt lat="44.17783" lon="5.25471">
        <ele>1564</ele>
        <time>2014-02-09T09:45:21.790Z</time>
      </trkpt>
      <trkpt lat="44.17781" lon="5.25487">
        <ele>1564</ele>
        <time>2014-02-09T09:45:29.730Z</time>
      </trkpt>
      <trkpt lat="44.17779" lon="5.25501">
        <ele>1564</ele>
        <time>2014-02-09T09:45:37.790Z</time>
      </trkpt>
      <trkpt lat="44.17775" lon="5.25514">
        <ele>1564</ele>
        <time>2014-02-09T09:45:45.730Z</time>
      </trkpt>
      <trkpt lat="44.17773" lon="5.25529">
        <ele>1565</ele>
        <time>2014-02-09T09:45:54.790Z</time>
      </trkpt>
      <trkpt lat="44.17771" lon="5.2554">
        <ele>1565.48</ele>
        <time>2014-02-09T09:46:00.790Z</time>
      </trkpt>
      <trkpt lat="44.17771" lon="5.25552">
        <ele>1566</ele>
        <time>2014-02-09T09:46:07.790Z</time>
      </trkpt>
      <trkpt lat="44.17773" lon="5.25564">
        <ele>1566</ele>
        <time>2014-02-09T09:46:14.790Z</time>
      </trkpt>
      <trkpt lat="44.17776" lon="5.25574">
        <ele>1566</ele>
        <time>2014-02-09T09:46:20.730Z</time>
      </trkpt>
      <trkpt lat="44.17781" lon="5.25585">
        <ele>1566</ele>
        <time>2014-02-09T09:46:27.790Z</time>
      </trkpt>
      <trkpt lat="44.17786" lon="5.25596">
        <ele>1566</ele>
        <time>2014-02-09T09:46:34.780Z</time>
      </trkpt>
      <trkpt lat="44.17789" lon="5.25609">
        <ele>1568</ele>
        <time>2014-02-09T09:46:42.790Z</time>
      </trkpt>
      <trkpt lat="44.17792" lon="5.25622">
        <ele>1568</ele>
        <time>2014-02-09T09:46:49.730Z</time>
      </trkpt>
      <trkpt lat="44.17795" lon="5.25637">
        <ele>1569</ele>
        <time>2014-02-09T09:46:57.790Z</time>
      </trkpt>
      <trkpt lat="44.17797" lon="5.25652">
        <ele>1569</ele>
        <time>2014-02-09T09:47:05.790Z</time>
      </trkpt>
      <trkpt lat="44.17797" lon="5.25668">
        <ele>1570</ele>
        <time>2014-02-09T09:47:13.790Z</time>
      </trkpt>
      <trkpt lat="44.17799" lon="5.25683">
        <ele>1571</ele>
        <time>2014-02-09T09:47:21.790Z</time>
      </trkpt>
      <trkpt lat="44.17801" lon="5.25698">
        <ele>1571</ele>
        <time>2014-02-09T09:47:28.730Z</time>
      </trkpt>
      <trkpt lat="44.17803" lon="5.25713">
        <ele>1572</ele>
        <time>2014-02-09T09:47:35.790Z</time>
      </trkpt>
      <trkpt lat="44.17802" lon="5.25728">
        <ele>1574</ele>
        <time>2014-02-09T09:47:42.780Z</time>
      </trkpt>
      <trkpt lat="44.17803" lon="5.25742">
        <ele>1574</ele>
        <time>2014-02-09T09:47:49.690Z</time>
      </trkpt>
      <trkpt lat="44.17803" lon="5.25757">
        <ele>1575</ele>
        <time>2014-02-09T09:47:56.680Z</time>
      </trkpt>
      <trkpt lat="44.17802" lon="5.25771">
        <ele>1576</ele>
        <time>2014-02-09T09:48:02.630Z</time>
      </trkpt>
      <trkpt lat="44.17802" lon="5.25787">
        <ele>1576</ele>
        <time>2014-02-09T09:48:09.690Z</time>
      </trkpt>
      <trkpt lat="44.178" lon="5.258">
        <ele>1577</ele>
        <time>2014-02-09T09:48:16.690Z</time>
      </trkpt>
      <trkpt lat="44.17799" lon="5.25816">
        <ele>1579</ele>
        <time>2014-02-09T09:48:23.690Z</time>
      </trkpt>
      <trkpt lat="44.17797" lon="5.25831">
        <ele>1579</ele>
        <time>2014-02-09T09:48:31.690Z</time>
      </trkpt>
      <trkpt lat="44.17794" lon="5.25844">
        <ele>1579</ele>
        <time>2014-02-09T09:48:38.690Z</time>
      </trkpt>
      <trkpt lat="44.17789" lon="5.25858">
        <ele>1581</ele>
        <time>2014-02-09T09:48:45.690Z</time>
      </trkpt>
      <trkpt lat="44.17785" lon="5.25871">
        <ele>1583</ele>
        <time>2014-02-09T09:48:52.630Z</time>
      </trkpt>
      <trkpt lat="44.1778" lon="5.25882">
        <ele>1583</ele>
        <time>2014-02-09T09:48:58.690Z</time>
      </trkpt>
      <trkpt lat="44.17778" lon="5.25886">
        <ele>1585</ele>
        <time>2014-02-09T09:49:01.690Z</time>
      </trkpt>
      <trkpt lat="44.17775" lon="5.25894">
        <ele>1585</ele>
        <time>2014-02-09T09:49:05.690Z</time>
      </trkpt>
      <trkpt lat="44.17774" lon="5.25904">
        <ele>1587</ele>
        <time>2014-02-09T09:49:24.690Z</time>
      </trkpt>
      <trkpt lat="44.17773" lon="5.25915">
        <ele>1587</ele>
        <time>2014-02-09T09:49:32.690Z</time>
      </trkpt>
      <trkpt lat="44.17774" lon="5.2592">
        <ele>1587</ele>
        <time>2014-02-09T09:49:37.690Z</time>
      </trkpt>
      <trkpt lat="44.17779" lon="5.25929">
        <ele>1586</ele>
        <time>2014-02-09T09:51:12.690Z</time>
      </trkpt>
      <trkpt lat="44.17783" lon="5.25938">
        <ele>1586</ele>
        <time>2014-02-09T09:51:17.690Z</time>
      </trkpt>
      <trkpt lat="44.17785" lon="5.25952">
        <ele>1587</ele>
        <time>2014-02-09T09:51:24.690Z</time>
      </trkpt>
      <trkpt lat="44.17787" lon="5.25965">
        <ele>1589</ele>
        <time>2014-02-09T09:51:31.550Z</time>
      </trkpt>
      <trkpt lat="44.17789" lon="5.2598">
        <ele>1589</ele>
        <time>2014-02-09T09:51:39.590Z</time>
      </trkpt>
      <trkpt lat="44.17789" lon="5.25995">
        <ele>1590</ele>
        <time>2014-02-09T09:51:46.690Z</time>
      </trkpt>
      <trkpt lat="44.1779" lon="5.26009">
        <ele>1593</ele>
        <time>2014-02-09T09:51:53.690Z</time>
      </trkpt>
      <trkpt lat="44.17791" lon="5.26023">
        <ele>1593</ele>
        <time>2014-02-09T09:52:05.690Z</time>
      </trkpt>
      <trkpt lat="44.17791" lon="5.26037">
        <ele>1595</ele>
        <time>2014-02-09T09:52:12.690Z</time>
      </trkpt>
      <trkpt lat="44.17792" lon="5.26051">
        <ele>1595.7599872</ele>
        <time>2014-02-09T09:52:20.690Z</time>
      </trkpt>
      <trkpt lat="44.17793" lon="5.26066">
        <ele>1597</ele>
        <time>2014-02-09T09:52:28.690Z</time>
      </trkpt>
      <trkpt lat="44.17793" lon="5.26081">
        <ele>1598</ele>
        <time>2014-02-09T09:52:35.690Z</time>
      </trkpt>
      <trkpt lat="44.17792" lon="5.26095">
        <ele>1600</ele>
        <time>2014-02-09T09:52:43.690Z</time>
      </trkpt>
      <trkpt lat="44.17792" lon="5.2611">
        <ele>1601</ele>
        <time>2014-02-09T09:52:51.630Z</time>
      </trkpt>
      <trkpt lat="44.17792" lon="5.26125">
        <ele>1601</ele>
        <time>2014-02-09T09:52:59.690Z</time>
      </trkpt>
      <trkpt lat="44.17791" lon="5.26139">
        <ele>1602</ele>
        <time>2014-02-09T09:53:07.530Z</time>
      </trkpt>
      <trkpt lat="44.1779" lon="5.26155">
        <ele>1603</ele>
        <time>2014-02-09T09:53:16.590Z</time>
      </trkpt>
      <trkpt lat="44.17788" lon="5.26168">
        <ele>1605</ele>
        <time>2014-02-09T09:53:24.530Z</time>
      </trkpt>
      <trkpt lat="44.17788" lon="5.26182">
        <ele>1605</ele>
        <time>2014-02-09T09:53:33.590Z</time>
      </trkpt>
      <trkpt lat="44.17787" lon="5.26194">
        <ele>1605.2745115263</ele>
        <time>2014-02-09T09:53:40.590Z</time>
      </trkpt>
      <trkpt lat="44.17785" lon="5.26209">
        <ele>1606</ele>
        <time>2014-02-09T09:53:49.590Z</time>
      </trkpt>
      <trkpt lat="44.17786" lon="5.26224">
        <ele>1608</ele>
        <time>2014-02-09T09:53:59.530Z</time>
      </trkpt>
      <trkpt lat="44.17785" lon="5.26239">
        <ele>1607</ele>
        <time>2014-02-09T09:54:09.590Z</time>
      </trkpt>
      <trkpt lat="44.17786" lon="5.26255">
        <ele>1609</ele>
        <time>2014-02-09T09:54:18.690Z</time>
      </trkpt>
      <trkpt lat="44.17786" lon="5.26269">
        <ele>1610</ele>
        <time>2014-02-09T09:54:27.690Z</time>
      </trkpt>
      <trkpt lat="44.17786" lon="5.26282">
        <ele>1612</ele>
        <time>2014-02-09T09:54:35.690Z</time>
      </trkpt>
      <trkpt lat="44.17788" lon="5.26296">
        <ele>1612</ele>
        <time>2014-02-09T09:54:43.690Z</time>
      </trkpt>
      <trkpt lat="44.17788" lon="5.26312">
        <ele>1614</ele>
        <time>2014-02-09T09:54:51.690Z</time>
      </trkpt>
      <trkpt lat="44.17789" lon="5.26326">
        <ele>1614</ele>
        <time>2014-02-09T09:54:59.640Z</time>
      </trkpt>
      <trkpt lat="44.1779" lon="5.2634">
        <ele>1617</ele>
        <time>2014-02-09T09:55:07.620Z</time>
      </trkpt>
      <trkpt lat="44.17791" lon="5.26354">
        <ele>1618</ele>
        <time>2014-02-09T09:55:15.690Z</time>
      </trkpt>
      <trkpt lat="44.17792" lon="5.26368">
        <ele>1618</ele>
        <time>2014-02-09T09:55:23.530Z</time>
      </trkpt>
      <trkpt lat="44.17791" lon="5.26383">
        <ele>1619</ele>
        <time>2014-02-09T09:55:31.590Z</time>
      </trkpt>
      <trkpt lat="44.17791" lon="5.26397">
        <ele>1619</ele>
        <time>2014-02-09T09:55:39.590Z</time>
      </trkpt>
      <trkpt lat="44.1779" lon="5.26411">
        <ele>1620</ele>
        <time>2014-02-09T09:55:48.590Z</time>
      </trkpt>
      <trkpt lat="44.1779" lon="5.26425">
        <ele>1621</ele>
        <time>2014-02-09T09:55:56.590Z</time>
      </trkpt>
      <trkpt lat="44.1779" lon="5.26439">
        <ele>1623</ele>
        <time>2014-02-09T09:56:06.590Z</time>
      </trkpt>
      <trkpt lat="44.17787" lon="5.26453">
        <ele>1624</ele>
        <time>2014-02-09T09:56:26.590Z</time>
      </trkpt>
      <trkpt lat="44.17782" lon="5.26464">
        <ele>1629</ele>
        <time>2014-02-09T09:57:23.570Z</time>
      </trkpt>
      <trkpt lat="44.17776" lon="5.26476">
        <ele>1631</ele>
        <time>2014-02-09T09:57:49.690Z</time>
      </trkpt>
      <trkpt lat="44.17769" lon="5.26488">
        <ele>1633</ele>
        <time>2014-02-09T09:57:59.690Z</time>
      </trkpt>
      <trkpt lat="44.17764" lon="5.26499">
        <ele>1639</ele>
        <time>2014-02-09T09:58:11.570Z</time>
      </trkpt>
      <trkpt lat="44.17761" lon="5.26513">
        <ele>1642</ele>
        <time>2014-02-09T09:58:24.690Z</time>
      </trkpt>
      <trkpt lat="44.17757" lon="5.26527">
        <ele>1645.3799936</ele>
        <time>2014-02-09T09:58:35.690Z</time>
      </trkpt>
      <trkpt lat="44.17753" lon="5.2654">
        <ele>1648.32</ele>
        <time>2014-02-09T09:58:45.630Z</time>
      </trkpt>
      <trkpt lat="44.17747" lon="5.26552">
        <ele>1652</ele>
        <time>2014-02-09T09:58:57.590Z</time>
      </trkpt>
      <trkpt lat="44.17743" lon="5.26564">
        <ele>1654</ele>
        <time>2014-02-09T09:59:06.590Z</time>
      </trkpt>
      <trkpt lat="44.1774" lon="5.2657">
        <ele>1656</ele>
        <time>2014-02-09T09:59:29.590Z</time>
      </trkpt>
      <trkpt lat="44.17733" lon="5.26582">
        <ele>1656</ele>
        <time>2014-02-09T09:59:46.590Z</time>
      </trkpt>
      <trkpt lat="44.1773" lon="5.26588">
        <ele>1657</ele>
        <time>2014-02-09T09:59:52.590Z</time>
      </trkpt>
      <trkpt lat="44.17728" lon="5.26595">
        <ele>1657</ele>
        <time>2014-02-09T09:59:58.590Z</time>
      </trkpt>
      <trkpt lat="44.17724" lon="5.26601">
        <ele>1659</ele>
        <time>2014-02-09T10:00:03.690Z</time>
      </trkpt>
      <trkpt lat="44.17723" lon="5.26612">
        <ele>1662</ele>
        <time>2014-02-09T10:00:14.690Z</time>
      </trkpt>
      <trkpt lat="44.17723" lon="5.26622">
        <ele>1664</ele>
        <time>2014-02-09T10:00:22.690Z</time>
      </trkpt>
      <trkpt lat="44.17724" lon="5.26633">
        <ele>1666</ele>
        <time>2014-02-09T10:00:34.690Z</time>
      </trkpt>
      <trkpt lat="44.17723" lon="5.26643">
        <ele>1668</ele>
        <time>2014-02-09T10:00:42.690Z</time>
      </trkpt>
      <trkpt lat="44.17723" lon="5.26652">
        <ele>1668</ele>
        <time>2014-02-09T10:00:49.690Z</time>
      </trkpt>
      <trkpt lat="44.17716" lon="5.26648">
        <ele>1670</ele>
        <time>2014-02-09T10:00:59.620Z</time>
      </trkpt>
      <trkpt lat="44.17712" lon="5.26656">
        <ele>1673</ele>
        <time>2014-02-09T10:01:15.690Z</time>
      </trkpt>
      <trkpt lat="44.17712" lon="5.26667">
        <ele>1675</ele>
        <time>2014-02-09T10:01:23.690Z</time>
      </trkpt>
      <trkpt lat="44.17711" lon="5.2668">
        <ele>1677</ele>
        <time>2014-02-09T10:01:34.690Z</time>
      </trkpt>
      <trkpt lat="44.17711" lon="5.26688">
        <ele>1681</ele>
        <time>2014-02-09T10:02:36.590Z</time>
      </trkpt>
      <trkpt lat="44.17708" lon="5.26697">
        <ele>1681</ele>
        <time>2014-02-09T10:02:49.590Z</time>
      </trkpt>
      <trkpt lat="44.17703" lon="5.26696">
        <ele>1686</ele>
        <time>2014-02-09T10:03:18.590Z</time>
      </trkpt>
      <trkpt lat="44.17699" lon="5.26703">
        <ele>1686.28</ele>
        <time>2014-02-09T10:03:30.590Z</time>
      </trkpt>
      <trkpt lat="44.17696" lon="5.26712">
        <ele>1687</ele>
        <time>2014-02-09T10:03:38.590Z</time>
      </trkpt>
      <trkpt lat="44.17689" lon="5.2672">
        <ele>1692</ele>
        <time>2014-02-09T10:03:49.580Z</time>
      </trkpt>
      <trkpt lat="44.17687" lon="5.26731">
        <ele>1696.28</ele>
        <time>2014-02-09T10:04:00.590Z</time>
      </trkpt>
      <trkpt lat="44.17683" lon="5.26742">
        <ele>1699</ele>
        <time>2014-02-09T10:04:15.590Z</time>
      </trkpt>
      <trkpt lat="44.17678" lon="5.26754">
        <ele>1702</ele>
        <time>2014-02-09T10:04:39.590Z</time>
      </trkpt>
      <trkpt lat="44.17672" lon="5.26762">
        <ele>1707</ele>
        <time>2014-02-09T10:04:52.590Z</time>
      </trkpt>
      <trkpt lat="44.17665" lon="5.26773">
        <ele>1708</ele>
        <time>2014-02-09T10:05:07.590Z</time>
      </trkpt>
      <trkpt lat="44.1766" lon="5.26786">
        <ele>1713</ele>
        <time>2014-02-09T10:05:23.590Z</time>
      </trkpt>
      <trkpt lat="44.17656" lon="5.26798">
        <ele>1715</ele>
        <time>2014-02-09T10:05:38.590Z</time>
      </trkpt>
      <trkpt lat="44.17651" lon="5.26809">
        <ele>1717.6363518825</ele>
        <time>2014-02-09T10:05:50.530Z</time>
      </trkpt>
      <trkpt lat="44.17647" lon="5.26817">
        <ele>1722</ele>
        <time>2014-02-09T10:06:02.590Z</time>
      </trkpt>
      <trkpt lat="44.17643" lon="5.26825">
        <ele>1724</ele>
        <time>2014-02-09T10:06:12.590Z</time>
      </trkpt>
      <trkpt lat="44.17638" lon="5.26834">
        <ele>1727.5490230527</ele>
        <time>2014-02-09T10:06:25.590Z</time>
      </trkpt>
      <trkpt lat="44.17633" lon="5.26845">
        <ele>1732</ele>
        <time>2014-02-09T10:06:41.690Z</time>
      </trkpt>
      <trkpt lat="44.17628" lon="5.26858">
        <ele>1733</ele>
        <time>2014-02-09T10:06:56.690Z</time>
      </trkpt>
      <trkpt lat="44.17622" lon="5.26869">
        <ele>1736.7599872</ele>
        <time>2014-02-09T10:07:10.690Z</time>
      </trkpt>
      <trkpt lat="44.17618" lon="5.2688">
        <ele>1740</ele>
        <time>2014-02-09T10:07:23.690Z</time>
      </trkpt>
      <trkpt lat="44.17611" lon="5.2689">
        <ele>1743.6122539608</ele>
        <time>2014-02-09T10:07:35.630Z</time>
      </trkpt>
      <trkpt lat="44.17604" lon="5.26901">
        <ele>1749</ele>
        <time>2014-02-09T10:07:47.690Z</time>
      </trkpt>
      <trkpt lat="44.17599" lon="5.26913">
        <ele>1749</ele>
        <time>2014-02-09T10:07:59.690Z</time>
      </trkpt>
      <trkpt lat="44.17594" lon="5.26925">
        <ele>1755</ele>
        <time>2014-02-09T10:08:11.690Z</time>
      </trkpt>
      <trkpt lat="44.17588" lon="5.26936">
        <ele>1757</ele>
        <time>2014-02-09T10:08:23.690Z</time>
      </trkpt>
      <trkpt lat="44.17582" lon="5.26948">
        <ele>1758</ele>
        <time>2014-02-09T10:08:37.690Z</time>
      </trkpt>
      <trkpt lat="44.17577" lon="5.26959">
        <ele>1760</ele>
        <time>2014-02-09T10:08:47.690Z</time>
      </trkpt>
      <trkpt lat="44.17573" lon="5.26971">
        <ele>1765</ele>
        <time>2014-02-09T10:09:00.570Z</time>
      </trkpt>
      <trkpt lat="44.17566" lon="5.26982">
        <ele>1767</ele>
        <time>2014-02-09T10:09:13.690Z</time>
      </trkpt>
      <trkpt lat="44.17558" lon="5.26992">
        <ele>1772</ele>
        <time>2014-02-09T10:09:34.630Z</time>
      </trkpt>
      <trkpt lat="44.17549" lon="5.27">
        <ele>1776</ele>
        <time>2014-02-09T10:09:47.690Z</time>
      </trkpt>
      <trkpt lat="44.1754" lon="5.27008">
        <ele>1780</ele>
        <time>2014-02-09T10:10:03.690Z</time>
      </trkpt>
      <trkpt lat="44.17533" lon="5.27018">
        <ele>1782</ele>
        <time>2014-02-09T10:10:23.630Z</time>
      </trkpt>
      <trkpt lat="44.17522" lon="5.27018">
        <ele>1789</ele>
        <time>2014-02-09T10:10:48.690Z</time>
      </trkpt>
      <trkpt lat="44.17512" lon="5.2702">
        <ele>1793</ele>
        <time>2014-02-09T10:11:01.690Z</time>
      </trkpt>
      <trkpt lat="44.17502" lon="5.27021">
        <ele>1796</ele>
        <time>2014-02-09T10:11:14.630Z</time>
      </trkpt>
      <trkpt lat="44.17493" lon="5.27027">
        <ele>1798.7599872</ele>
        <time>2014-02-09T10:11:30.690Z</time>
      </trkpt>
      <trkpt lat="44.17483" lon="5.27031">
        <ele>1800.0434782609</ele>
        <time>2014-02-09T10:11:50.630Z</time>
      </trkpt>
      <trkpt lat="44.17474" lon="5.27039">
        <ele>1806</ele>
        <time>2014-02-09T10:12:01.690Z</time>
      </trkpt>
      <trkpt lat="44.17466" lon="5.27045">
        <ele>1808</ele>
        <time>2014-02-09T10:12:12.690Z</time>
      </trkpt>
      <trkpt lat="44.17458" lon="5.27047">
        <ele>1810</ele>
        <time>2014-02-09T10:12:27.690Z</time>
      </trkpt>
      <trkpt lat="44.17449" lon="5.27051">
        <ele>1812</ele>
        <time>2014-02-09T10:12:39.630Z</time>
      </trkpt>
      <trkpt lat="44.17439" lon="5.27055">
        <ele>1818</ele>
        <time>2014-02-09T10:12:52.700Z</time>
      </trkpt>
      <trkpt lat="44.17432" lon="5.2706">
        <ele>1822</ele>
        <time>2014-02-09T10:13:02.690Z</time>
      </trkpt>
      <trkpt lat="44.17429" lon="5.27064">
        <ele>1827</ele>
        <time>2014-02-09T10:17:25.590Z</time>
      </trkpt>
      <trkpt lat="44.17427" lon="5.27078">
        <ele>1822</ele>
        <time>2014-02-09T10:20:02.530Z</time>
      </trkpt>
      <trkpt lat="44.17427" lon="5.27091">
        <ele>1822</ele>
        <time>2014-02-09T10:20:10.590Z</time>
      </trkpt>
      <trkpt lat="44.17428" lon="5.27101">
        <ele>1822</ele>
        <time>2014-02-09T10:20:17.590Z</time>
      </trkpt>
      <trkpt lat="44.17428" lon="5.2711">
        <ele>1821</ele>
        <time>2014-02-09T10:20:22.580Z</time>
      </trkpt>
      <trkpt lat="44.17429" lon="5.27117">
        <ele>1821</ele>
        <time>2014-02-09T10:20:27.590Z</time>
      </trkpt>
      <trkpt lat="44.1743" lon="5.27125">
        <ele>1821</ele>
        <time>2014-02-09T10:20:32.590Z</time>
      </trkpt>
      <trkpt lat="44.1743" lon="5.27133">
        <ele>1821</ele>
        <time>2014-02-09T10:20:37.530Z</time>
      </trkpt>
      <trkpt lat="44.17431" lon="5.2714">
        <ele>1822</ele>
        <time>2014-02-09T10:20:42.590Z</time>
      </trkpt>
      <trkpt lat="44.17431" lon="5.27147">
        <ele>1822</ele>
        <time>2014-02-09T10:20:47.590Z</time>
      </trkpt>
      <trkpt lat="44.17431" lon="5.27156">
        <ele>1822</ele>
        <time>2014-02-09T10:20:53.470Z</time>
      </trkpt>
      <trkpt lat="44.1743" lon="5.27164">
        <ele>1822</ele>
        <time>2014-02-09T10:20:58.590Z</time>
      </trkpt>
      <trkpt lat="44.17427" lon="5.27173">
        <ele>1823</ele>
        <time>2014-02-09T10:21:04.590Z</time>
      </trkpt>
      <trkpt lat="44.17425" lon="5.27182">
        <ele>1823</ele>
        <time>2014-02-09T10:21:09.530Z</time>
      </trkpt>
      <trkpt lat="44.1742" lon="5.27194">
        <ele>1823</ele>
        <time>2014-02-09T10:21:16.590Z</time>
      </trkpt>
      <trkpt lat="44.17415" lon="5.27207">
        <ele>1823</ele>
        <time>2014-02-09T10:21:25.590Z</time>
      </trkpt>
      <trkpt lat="44.17409" lon="5.27218">
        <ele>1822</ele>
        <time>2014-02-09T10:21:34.590Z</time>
      </trkpt>
      <trkpt lat="44.17404" lon="5.2723">
        <ele>1824</ele>
        <time>2014-02-09T10:21:43.530Z</time>
      </trkpt>
      <trkpt lat="44.17399" lon="5.27241">
        <ele>1824</ele>
        <time>2014-02-09T10:21:55.590Z</time>
      </trkpt>
      <trkpt lat="44.17396" lon="5.27247">
        <ele>1826</ele>
        <time>2014-02-09T10:24:46.590Z</time>
      </trkpt>
      <trkpt lat="44.17392" lon="5.27252">
        <ele>1825</ele>
        <time>2014-02-09T10:24:52.530Z</time>
      </trkpt>
      <trkpt lat="44.17386" lon="5.27254">
        <ele>1825</ele>
        <time>2014-02-09T10:24:58.590Z</time>
      </trkpt>
      <trkpt lat="44.17381" lon="5.27255">
        <ele>1826</ele>
        <time>2014-02-09T10:25:10.590Z</time>
      </trkpt>
      <trkpt lat="44.17376" lon="5.27257">
        <ele>1826</ele>
        <time>2014-02-09T10:25:50.590Z</time>
      </trkpt>
      <trkpt lat="44.17371" lon="5.27259">
        <ele>1826</ele>
        <time>2014-02-09T10:25:56.590Z</time>
      </trkpt>
      <trkpt lat="44.17367" lon="5.27262">
        <ele>1826</ele>
        <time>2014-02-09T10:26:04.590Z</time>
      </trkpt>
      <trkpt lat="44.17362" lon="5.27265">
        <ele>1827</ele>
        <time>2014-02-09T10:26:15.530Z</time>
      </trkpt>
      <trkpt lat="44.17358" lon="5.27269">
        <ele>1827</ele>
        <time>2014-02-09T10:26:19.580Z</time>
      </trkpt>
      <trkpt lat="44.17349" lon="5.27275">
        <ele>1828</ele>
        <time>2014-02-09T10:26:28.590Z</time>
      </trkpt>
      <trkpt lat="44.1734" lon="5.27282">
        <ele>1829</ele>
        <time>2014-02-09T10:26:38.590Z</time>
      </trkpt>
      <trkpt lat="44.17332" lon="5.27291">
        <ele>1834.2</ele>
        <time>2014-02-09T10:26:50.530Z</time>
      </trkpt>
      <trkpt lat="44.17325" lon="5.27302">
        <ele>1836</ele>
        <time>2014-02-09T10:27:06.590Z</time>
      </trkpt>
      <trkpt lat="44.1732" lon="5.27314">
        <ele>1842</ele>
        <time>2014-02-09T10:27:23.470Z</time>
      </trkpt>
      <trkpt lat="44.17317" lon="5.27322">
        <ele>1844</ele>
        <time>2014-02-09T10:27:33.590Z</time>
      </trkpt>
      <trkpt lat="44.17315" lon="5.27333">
        <ele>1847.28</ele>
        <time>2014-02-09T10:27:45.590Z</time>
      </trkpt>
      <trkpt lat="44.17313" lon="5.27342">
        <ele>1849</ele>
        <time>2014-02-09T10:27:53.590Z</time>
      </trkpt>
      <trkpt lat="44.17312" lon="5.2735">
        <ele>1850.5199744</ele>
        <time>2014-02-09T10:28:00.690Z</time>
      </trkpt>
      <trkpt lat="44.17311" lon="5.27359">
        <ele>1855</ele>
        <time>2014-02-09T10:28:08.690Z</time>
      </trkpt>
      <trkpt lat="44.1731" lon="5.27367">
        <ele>1855</ele>
        <time>2014-02-09T10:28:15.630Z</time>
      </trkpt>
      <trkpt lat="44.17309" lon="5.27373">
        <ele>1856</ele>
        <time>2014-02-09T10:28:21.690Z</time>
      </trkpt>
      <trkpt lat="44.17309" lon="5.27381">
        <ele>1856</ele>
        <time>2014-02-09T10:28:27.690Z</time>
      </trkpt>
      <trkpt lat="44.17308" lon="5.27389">
        <ele>1857</ele>
        <time>2014-02-09T10:28:34.690Z</time>
      </trkpt>
      <trkpt lat="44.17308" lon="5.27398">
        <ele>1859</ele>
        <time>2014-02-09T10:28:42.690Z</time>
      </trkpt>
      <trkpt lat="44.17308" lon="5.27407">
        <ele>1859</ele>
        <time>2014-02-09T10:28:49.630Z</time>
      </trkpt>
      <trkpt lat="44.17308" lon="5.27414">
        <ele>1861</ele>
        <time>2014-02-09T10:28:55.690Z</time>
      </trkpt>
      <trkpt lat="44.17308" lon="5.27424">
        <ele>1861</ele>
        <time>2014-02-09T10:29:02.690Z</time>
      </trkpt>
      <trkpt lat="44.17309" lon="5.27432">
        <ele>1861.7599872</ele>
        <time>2014-02-09T10:29:10.690Z</time>
      </trkpt>
      <trkpt lat="44.17311" lon="5.2744">
        <ele>1863</ele>
        <time>2014-02-09T10:29:16.690Z</time>
      </trkpt>
      <trkpt lat="44.17313" lon="5.27448">
        <ele>1865</ele>
        <time>2014-02-09T10:29:23.630Z</time>
      </trkpt>
      <trkpt lat="44.17314" lon="5.27457">
        <ele>1865</ele>
        <time>2014-02-09T10:29:29.690Z</time>
      </trkpt>
      <trkpt lat="44.17313" lon="5.27467">
        <ele>1870</ele>
        <time>2014-02-09T10:29:36.690Z</time>
      </trkpt>
      <trkpt lat="44.17313" lon="5.27475">
        <ele>1870</ele>
        <time>2014-02-09T10:29:42.690Z</time>
      </trkpt>
      <trkpt lat="44.17311" lon="5.27483">
        <ele>1870</ele>
        <time>2014-02-09T10:29:49.690Z</time>
      </trkpt>
      <trkpt lat="44.1731" lon="5.2749">
        <ele>1869</ele>
        <time>2014-02-09T10:29:55.690Z</time>
      </trkpt>
      <trkpt lat="44.17309" lon="5.27497">
        <ele>1864</ele>
        <time>2014-02-09T10:31:35.690Z</time>
      </trkpt>
      <trkpt lat="44.1731" lon="5.27505">
        <ele>1863</ele>
        <time>2014-02-09T10:31:43.690Z</time>
      </trkpt>
      <trkpt lat="44.1731" lon="5.27511">
        <ele>1862</ele>
        <time>2014-02-09T10:31:51.690Z</time>
      </trkpt>
      <trkpt lat="44.17311" lon="5.27516">
        <ele>1862</ele>
        <time>2014-02-09T10:32:04.690Z</time>
      </trkpt>
      <trkpt lat="44.17312" lon="5.27525">
        <ele>1862</ele>
        <time>2014-02-09T10:32:12.630Z</time>
      </trkpt>
      <trkpt lat="44.17311" lon="5.27535">
        <ele>1862</ele>
        <time>2014-02-09T10:32:20.690Z</time>
      </trkpt>
      <trkpt lat="44.1731" lon="5.27542">
        <ele>1863</ele>
        <time>2014-02-09T10:32:49.590Z</time>
      </trkpt>
      <trkpt lat="44.1731" lon="5.27551">
        <ele>1866</ele>
        <time>2014-02-09T10:33:23.590Z</time>
      </trkpt>
      <trkpt lat="44.17308" lon="5.27541">
        <ele>1864</ele>
        <time>2014-02-09T10:34:12.630Z</time>
      </trkpt>
      <trkpt lat="44.17315" lon="5.27543">
        <ele>1862</ele>
        <time>2014-02-09T10:35:16.690Z</time>
      </trkpt>
      <trkpt lat="44.17319" lon="5.27553">
        <ele>1862</ele>
        <time>2014-02-09T10:35:26.690Z</time>
      </trkpt>
      <trkpt lat="44.17321" lon="5.27562">
        <ele>1864</ele>
        <time>2014-02-09T10:35:32.690Z</time>
      </trkpt>
      <trkpt lat="44.17325" lon="5.27573">
        <ele>1869</ele>
        <time>2014-02-09T10:35:43.690Z</time>
      </trkpt>
      <trkpt lat="44.17326" lon="5.27587">
        <ele>1874</ele>
        <time>2014-02-09T10:35:51.690Z</time>
      </trkpt>
      <trkpt lat="44.17327" lon="5.27599">
        <ele>1874.32</ele>
        <time>2014-02-09T10:36:00.630Z</time>
      </trkpt>
      <trkpt lat="44.1733" lon="5.27611">
        <ele>1875</ele>
        <time>2014-02-09T10:36:09.690Z</time>
      </trkpt>
      <trkpt lat="44.1733" lon="5.27623">
        <ele>1877</ele>
        <time>2014-02-09T10:36:19.690Z</time>
      </trkpt>
      <trkpt lat="44.17332" lon="5.27635">
        <ele>1877</ele>
        <time>2014-02-09T10:36:29.630Z</time>
      </trkpt>
      <trkpt lat="44.17335" lon="5.27646">
        <ele>1878</ele>
        <time>2014-02-09T10:36:38.690Z</time>
      </trkpt>
      <trkpt lat="44.17336" lon="5.27655">
        <ele>1880</ele>
        <time>2014-02-09T10:36:46.630Z</time>
      </trkpt>
      <trkpt lat="44.17339" lon="5.27666">
        <ele>1884</ele>
        <time>2014-02-09T10:36:56.700Z</time>
      </trkpt>
      <trkpt lat="44.17341" lon="5.27677">
        <ele>1885</ele>
        <time>2014-02-09T10:37:05.690Z</time>
      </trkpt>
      <trkpt lat="44.17343" lon="5.2769">
        <ele>1886</ele>
        <time>2014-02-09T10:37:15.690Z</time>
      </trkpt>
      <trkpt lat="44.17346" lon="5.27699">
        <ele>1888</ele>
        <time>2014-02-09T10:37:25.680Z</time>
      </trkpt>
      <trkpt lat="44.17352" lon="5.27707">
        <ele>1889</ele>
        <time>2014-02-09T10:37:41.690Z</time>
      </trkpt>
      <trkpt lat="44.17355" lon="5.27718">
        <ele>1889.3799936</ele>
        <time>2014-02-09T10:37:50.690Z</time>
      </trkpt>
      <trkpt lat="44.17355" lon="5.27727">
        <ele>1890</ele>
        <time>2014-02-09T10:37:57.690Z</time>
      </trkpt>
      <trkpt lat="44.17353" lon="5.27737">
        <ele>1892</ele>
        <time>2014-02-09T10:38:06.690Z</time>
      </trkpt>
      <trkpt lat="44.17353" lon="5.27752">
        <ele>1892</ele>
        <time>2014-02-09T10:38:17.690Z</time>
      </trkpt>
      <trkpt lat="44.17352" lon="5.27766">
        <ele>1894</ele>
        <time>2014-02-09T10:38:27.570Z</time>
      </trkpt>
      <trkpt lat="44.17353" lon="5.27777">
        <ele>1894</ele>
        <time>2014-02-09T10:38:36.690Z</time>
      </trkpt>
      <trkpt lat="44.17354" lon="5.27789">
        <ele>1895</ele>
        <time>2014-02-09T10:38:45.630Z</time>
      </trkpt>
      <trkpt lat="44.17354" lon="5.27799">
        <ele>1896</ele>
        <time>2014-02-09T10:38:53.690Z</time>
      </trkpt>
      <trkpt lat="44.17353" lon="5.27809">
        <ele>1896.6274549174</ele>
        <time>2014-02-09T10:39:00.630Z</time>
      </trkpt>
      <trkpt lat="44.17353" lon="5.27819">
        <ele>1898</ele>
        <time>2014-02-09T10:39:09.690Z</time>
      </trkpt>
      <trkpt lat="44.17353" lon="5.27828">
        <ele>1900</ele>
        <time>2014-02-09T10:39:15.690Z</time>
      </trkpt>
      <trkpt lat="44.17354" lon="5.27838">
        <ele>1901</ele>
        <time>2014-02-09T10:39:22.690Z</time>
      </trkpt>
      <trkpt lat="44.17354" lon="5.27846">
        <ele>1901</ele>
        <time>2014-02-09T10:39:28.690Z</time>
      </trkpt>
      <trkpt lat="44.1735" lon="5.27852">
        <ele>1902</ele>
        <time>2014-02-09T10:45:22.580Z</time>
      </trkpt>
      <trkpt lat="44.17347" lon="5.27845">
        <ele>1906</ele>
        <time>2014-02-09T10:53:00.590Z</time>
      </trkpt>
      <trkpt lat="44.17354" lon="5.27845">
        <ele>1906</ele>
        <time>2014-02-09T10:54:17.690Z</time>
      </trkpt>
      <trkpt lat="44.17351" lon="5.27851">
        <ele>1906</ele>
        <time>2014-02-09T10:54:44.690Z</time>
      </trkpt>
      <trkpt lat="44.1734" lon="5.27849">
        <ele>1906</ele>
        <time>2014-02-09T10:54:53.630Z</time>
      </trkpt>
      <trkpt lat="44.17332" lon="5.27844">
        <ele>1906</ele>
        <time>2014-02-09T10:54:55.690Z</time>
      </trkpt>
      <trkpt lat="44.17319" lon="5.27847">
        <ele>1906</ele>
        <time>2014-02-09T10:54:58.690Z</time>
      </trkpt>
      <trkpt lat="44.17306" lon="5.27846">
        <ele>1891.3899904</ele>
        <time>2014-02-09T10:55:01.700Z</time>
      </trkpt>
      <trkpt lat="44.17305" lon="5.27856">
        <ele>1890.6100096</ele>
        <time>2014-02-09T10:55:03.700Z</time>
      </trkpt>
      <trkpt lat="44.17299" lon="5.27868">
        <ele>1887.8299904</ele>
        <time>2014-02-09T10:55:06.700Z</time>
      </trkpt>
      <trkpt lat="44.1729" lon="5.27863">
        <ele>1882</ele>
        <time>2014-02-09T10:55:08.700Z</time>
      </trkpt>
      <trkpt lat="44.17283" lon="5.27861">
        <ele>1881.6999936</ele>
        <time>2014-02-09T10:55:10.630Z</time>
      </trkpt>
      <trkpt lat="44.17273" lon="5.27869">
        <ele>1878.2200192</ele>
        <time>2014-02-09T10:55:13.700Z</time>
      </trkpt>
      <trkpt lat="44.17264" lon="5.27876">
        <ele>1875.6100096</ele>
        <time>2014-02-09T10:55:15.700Z</time>
      </trkpt>
      <trkpt lat="44.17254" lon="5.27887">
        <ele>1869.050048</ele>
        <time>2014-02-09T10:55:17.700Z</time>
      </trkpt>
      <trkpt lat="44.17242" lon="5.27893">
        <ele>1864</ele>
        <time>2014-02-09T10:55:19.700Z</time>
      </trkpt>
      <trkpt lat="44.1723" lon="5.27904">
        <ele>1858.050048</ele>
        <time>2014-02-09T10:55:21.700Z</time>
      </trkpt>
      <trkpt lat="44.17215" lon="5.27915">
        <ele>1851.2200192</ele>
        <time>2014-02-09T10:55:23.700Z</time>
      </trkpt>
      <trkpt lat="44.17198" lon="5.27912">
        <ele>1845.6100096</ele>
        <time>2014-02-09T10:55:25.700Z</time>
      </trkpt>
      <trkpt lat="44.17182" lon="5.27915">
        <ele>1844.1509304095</ele>
        <time>2014-02-09T10:55:27.630Z</time>
      </trkpt>
      <trkpt lat="44.17167" lon="5.27924">
        <ele>1835.6600576</ele>
        <time>2014-02-09T10:55:29.700Z</time>
      </trkpt>
      <trkpt lat="44.17153" lon="5.27923">
        <ele>1828.3899904</ele>
        <time>2014-02-09T10:55:31.700Z</time>
      </trkpt>
      <trkpt lat="44.17146" lon="5.27925">
        <ele>1828.6099968</ele>
        <time>2014-02-09T10:55:32.700Z</time>
      </trkpt>
      <trkpt lat="44.17131" lon="5.27937">
        <ele>1821.2699776</ele>
        <time>2014-02-09T10:55:34.700Z</time>
      </trkpt>
      <trkpt lat="44.17115" lon="5.2794">
        <ele>1812.3900032</ele>
        <time>2014-02-09T10:55:36.700Z</time>
      </trkpt>
      <trkpt lat="44.17109" lon="5.27946">
        <ele>1811.8300288</ele>
        <time>2014-02-09T10:55:37.700Z</time>
      </trkpt>
      <trkpt lat="44.17099" lon="5.27963">
        <ele>1803.8300288</ele>
        <time>2014-02-09T10:55:39.700Z</time>
      </trkpt>
      <trkpt lat="44.17084" lon="5.27966">
        <ele>1797.2200192</ele>
        <time>2014-02-09T10:55:41.700Z</time>
      </trkpt>
      <trkpt lat="44.17069" lon="5.27973">
        <ele>1793.4313627066</ele>
        <time>2014-02-09T10:55:43.630Z</time>
      </trkpt>
      <trkpt lat="44.17066" lon="5.27981">
        <ele>1788.8</ele>
        <time>2014-02-09T10:55:44.570Z</time>
      </trkpt>
      <trkpt lat="44.17055" lon="5.27993">
        <ele>1780.4399872</ele>
        <time>2014-02-09T10:55:46.700Z</time>
      </trkpt>
      <trkpt lat="44.17048" lon="5.27992">
        <ele>1776.8300288</ele>
        <time>2014-02-09T10:55:47.700Z</time>
      </trkpt>
      <trkpt lat="44.17041" lon="5.2799">
        <ele>1775</ele>
        <time>2014-02-09T10:55:48.700Z</time>
      </trkpt>
      <trkpt lat="44.17032" lon="5.27991">
        <ele>1774.2200192</ele>
        <time>2014-02-09T10:55:49.700Z</time>
      </trkpt>
      <trkpt lat="44.17026" lon="5.27995">
        <ele>1771.049984</ele>
        <time>2014-02-09T10:55:50.700Z</time>
      </trkpt>
      <trkpt lat="44.17022" lon="5.28">
        <ele>1766.4400384</ele>
        <time>2014-02-09T10:55:51.700Z</time>
      </trkpt>
      <trkpt lat="44.1702" lon="5.28005">
        <ele>1762.8299904</ele>
        <time>2014-02-09T10:55:52.700Z</time>
      </trkpt>
      <trkpt lat="44.17019" lon="5.2801">
        <ele>1760.2200192</ele>
        <time>2014-02-09T10:55:53.700Z</time>
      </trkpt>
      <trkpt lat="44.17016" lon="5.28015">
        <ele>1757.8299904</ele>
        <time>2014-02-09T10:55:54.700Z</time>
      </trkpt>
      <trkpt lat="44.1701" lon="5.28018">
        <ele>1755.2200192</ele>
        <time>2014-02-09T10:55:55.700Z</time>
      </trkpt>
      <trkpt lat="44.17004" lon="5.28019">
        <ele>1753.6099968</ele>
        <time>2014-02-09T10:55:56.700Z</time>
      </trkpt>
      <trkpt lat="44.16999" lon="5.28023">
        <ele>1752.2200192</ele>
        <time>2014-02-09T10:55:57.700Z</time>
      </trkpt>
      <trkpt lat="44.16997" lon="5.28029">
        <ele>1749.4399872</ele>
        <time>2014-02-09T10:55:58.700Z</time>
      </trkpt>
      <trkpt lat="44.17" lon="5.28033">
        <ele>1743</ele>
        <time>2014-02-09T10:56:23.620Z</time>
      </trkpt>
      <trkpt lat="44.16988" lon="5.28044">
        <ele>1743</ele>
        <time>2014-02-09T10:56:27.690Z</time>
      </trkpt>
      <trkpt lat="44.16976" lon="5.28057">
        <ele>1743</ele>
        <time>2014-02-09T10:56:29.690Z</time>
      </trkpt>
      <trkpt lat="44.16967" lon="5.28073">
        <ele>1728.4900864</ele>
        <time>2014-02-09T10:56:31.700Z</time>
      </trkpt>
      <trkpt lat="44.16956" lon="5.2809">
        <ele>1716.8300288</ele>
        <time>2014-02-09T10:56:33.700Z</time>
      </trkpt>
      <trkpt lat="44.16949" lon="5.28096">
        <ele>1714.6862725413</ele>
        <time>2014-02-09T10:56:34.630Z</time>
      </trkpt>
      <trkpt lat="44.16944" lon="5.28104">
        <ele>1713.0999808</ele>
        <time>2014-02-09T10:56:35.630Z</time>
      </trkpt>
      <trkpt lat="44.16941" lon="5.28114">
        <ele>1709.7754920784</ele>
        <time>2014-02-09T10:56:36.630Z</time>
      </trkpt>
      <trkpt lat="44.16945" lon="5.28129">
        <ele>1702.8299904</ele>
        <time>2014-02-09T10:56:38.700Z</time>
      </trkpt>
      <trkpt lat="44.16952" lon="5.28132">
        <ele>1698</ele>
        <time>2014-02-09T10:56:41.700Z</time>
      </trkpt>
      <trkpt lat="44.1694" lon="5.28137">
        <ele>1697</ele>
        <time>2014-02-09T10:57:06.690Z</time>
      </trkpt>
      <trkpt lat="44.16929" lon="5.28139">
        <ele>1697</ele>
        <time>2014-02-09T10:57:08.630Z</time>
      </trkpt>
      <trkpt lat="44.16924" lon="5.28145">
        <ele>1697</ele>
        <time>2014-02-09T10:57:09.630Z</time>
      </trkpt>
      <trkpt lat="44.16922" lon="5.28154">
        <ele>1693.9387301961</ele>
        <time>2014-02-09T10:57:10.630Z</time>
      </trkpt>
      <trkpt lat="44.16921" lon="5.28165">
        <ele>1683.8800768</ele>
        <time>2014-02-09T10:57:11.700Z</time>
      </trkpt>
      <trkpt lat="44.16921" lon="5.28176">
        <ele>1678.2199936</ele>
        <time>2014-02-09T10:57:12.700Z</time>
      </trkpt>
      <trkpt lat="44.16921" lon="5.28184">
        <ele>1677</ele>
        <time>2014-02-09T10:57:13.700Z</time>
      </trkpt>
      <trkpt lat="44.16915" lon="5.28178">
        <ele>1676</ele>
        <time>2014-02-09T10:57:36.690Z</time>
      </trkpt>
      <trkpt lat="44.1691" lon="5.28164">
        <ele>1676</ele>
        <time>2014-02-09T10:57:38.690Z</time>
      </trkpt>
      <trkpt lat="44.16898" lon="5.28156">
        <ele>1673.6599808</ele>
        <time>2014-02-09T10:57:40.700Z</time>
      </trkpt>
      <trkpt lat="44.16885" lon="5.28148">
        <ele>1666</ele>
        <time>2014-02-09T10:57:42.570Z</time>
      </trkpt>
      <trkpt lat="44.16869" lon="5.28144">
        <ele>1662.5714379008</ele>
        <time>2014-02-09T10:57:44.610Z</time>
      </trkpt>
      <trkpt lat="44.16853" lon="5.28141">
        <ele>1656.2199936</ele>
        <time>2014-02-09T10:57:46.700Z</time>
      </trkpt>
      <trkpt lat="44.16836" lon="5.28139">
        <ele>1650.2199936</ele>
        <time>2014-02-09T10:57:48.700Z</time>
      </trkpt>
      <trkpt lat="44.1682" lon="5.28139">
        <ele>1644.4399872</ele>
        <time>2014-02-09T10:57:50.700Z</time>
      </trkpt>
      <trkpt lat="44.168" lon="5.28141">
        <ele>1641.8299904</ele>
        <time>2014-02-09T10:57:52.700Z</time>
      </trkpt>
      <trkpt lat="44.16781" lon="5.28139">
        <ele>1632.3900032</ele>
        <time>2014-02-09T10:57:54.700Z</time>
      </trkpt>
      <trkpt lat="44.16763" lon="5.28143">
        <ele>1627.4100224</ele>
        <time>2014-02-09T10:57:56.680Z</time>
      </trkpt>
      <trkpt lat="44.16743" lon="5.28142">
        <ele>1620</ele>
        <time>2014-02-09T10:57:58.700Z</time>
      </trkpt>
      <trkpt lat="44.16734" lon="5.28145">
        <ele>1619.3725450826</ele>
        <time>2014-02-09T10:57:59.630Z</time>
      </trkpt>
      <trkpt lat="44.16727" lon="5.28154">
        <ele>1616.1999616</ele>
        <time>2014-02-09T10:58:00.630Z</time>
      </trkpt>
      <trkpt lat="44.16721" lon="5.28166">
        <ele>1611.3877460392</ele>
        <time>2014-02-09T10:58:01.630Z</time>
      </trkpt>
      <trkpt lat="44.16716" lon="5.28175">
        <ele>1609.6099968</ele>
        <time>2014-02-09T10:58:02.700Z</time>
      </trkpt>
      <trkpt lat="44.16711" lon="5.28184">
        <ele>1608.2200192</ele>
        <time>2014-02-09T10:58:03.700Z</time>
      </trkpt>
      <trkpt lat="44.16708" lon="5.28191">
        <ele>1606.6099968</ele>
        <time>2014-02-09T10:58:04.700Z</time>
      </trkpt>
      <trkpt lat="44.16714" lon="5.28192">
        <ele>1604</ele>
        <time>2014-02-09T10:58:21.690Z</time>
      </trkpt>
      <trkpt lat="44.16708" lon="5.28183">
        <ele>1604</ele>
        <time>2014-02-09T10:58:46.690Z</time>
      </trkpt>
      <trkpt lat="44.16696" lon="5.28171">
        <ele>1604</ele>
        <time>2014-02-09T10:58:48.690Z</time>
      </trkpt>
      <trkpt lat="44.16683" lon="5.28154">
        <ele>1600.8627254132</ele>
        <time>2014-02-09T10:58:50.630Z</time>
      </trkpt>
      <trkpt lat="44.16678" lon="5.28143">
        <ele>1592.499968</ele>
        <time>2014-02-09T10:58:51.630Z</time>
      </trkpt>
      <trkpt lat="44.16672" lon="5.28134">
        <ele>1589.2448963599</ele>
        <time>2014-02-09T10:58:52.570Z</time>
      </trkpt>
      <trkpt lat="44.16654" lon="5.28141">
        <ele>1586.4399872</ele>
        <time>2014-02-09T10:58:54.700Z</time>
      </trkpt>
      <trkpt lat="44.16644" lon="5.28145">
        <ele>1582.4400384</ele>
        <time>2014-02-09T10:58:55.700Z</time>
      </trkpt>
      <trkpt lat="44.16635" lon="5.28149">
        <ele>1578.4399872</ele>
        <time>2014-02-09T10:58:56.700Z</time>
      </trkpt>
      <trkpt lat="44.16624" lon="5.2815">
        <ele>1574.8300288</ele>
        <time>2014-02-09T10:58:57.700Z</time>
      </trkpt>
      <trkpt lat="44.16614" lon="5.28149">
        <ele>1571.4399872</ele>
        <time>2014-02-09T10:58:58.700Z</time>
      </trkpt>
      <trkpt lat="44.16604" lon="5.28148">
        <ele>1567.4400384</ele>
        <time>2014-02-09T10:58:59.700Z</time>
      </trkpt>
      <trkpt lat="44.16593" lon="5.28143">
        <ele>1562.2699776</ele>
        <time>2014-02-09T10:59:00.700Z</time>
      </trkpt>
      <trkpt lat="44.16584" lon="5.28135">
        <ele>1558.7799808</ele>
        <time>2014-02-09T10:59:01.700Z</time>
      </trkpt>
      <trkpt lat="44.16577" lon="5.28112">
        <ele>1556.6100096</ele>
        <time>2014-02-09T10:59:03.700Z</time>
      </trkpt>
      <trkpt lat="44.16578" lon="5.28106">
        <ele>1558</ele>
        <time>2014-02-09T10:59:17.690Z</time>
      </trkpt>
      <trkpt lat="44.16575" lon="5.28109">
        <ele>1558</ele>
        <time>2014-02-09T10:59:28.690Z</time>
      </trkpt>
      <trkpt lat="44.16567" lon="5.28117">
        <ele>1557.2400128</ele>
        <time>2014-02-09T10:59:30.690Z</time>
      </trkpt>
      <trkpt lat="44.16549" lon="5.28125">
        <ele>1556</ele>
        <time>2014-02-09T10:59:32.690Z</time>
      </trkpt>
      <trkpt lat="44.16539" lon="5.28126">
        <ele>1556</ele>
        <time>2014-02-09T10:59:33.690Z</time>
      </trkpt>
      <trkpt lat="44.16529" lon="5.28128">
        <ele>1556</ele>
        <time>2014-02-09T10:59:34.690Z</time>
      </trkpt>
      <trkpt lat="44.16519" lon="5.28129">
        <ele>1556</ele>
        <time>2014-02-09T10:59:35.690Z</time>
      </trkpt>
      <trkpt lat="44.16509" lon="5.28126">
        <ele>1556</ele>
        <time>2014-02-09T10:59:36.690Z</time>
      </trkpt>
      <trkpt lat="44.16499" lon="5.28119">
        <ele>1556</ele>
        <time>2014-02-09T10:59:37.690Z</time>
      </trkpt>
      <trkpt lat="44.1649" lon="5.28114">
        <ele>1556</ele>
        <time>2014-02-09T10:59:38.690Z</time>
      </trkpt>
      <trkpt lat="44.1648" lon="5.28111">
        <ele>1556</ele>
        <time>2014-02-09T10:59:39.700Z</time>
      </trkpt>
      <trkpt lat="44.16471" lon="5.28113">
        <ele>1545.4699136</ele>
        <time>2014-02-09T10:59:40.700Z</time>
      </trkpt>
      <trkpt lat="44.16463" lon="5.28116">
        <ele>1525.6863352868</ele>
        <time>2014-02-09T10:59:41.570Z</time>
      </trkpt>
      <trkpt lat="44.16455" lon="5.28121">
        <ele>1516.6000128</ele>
        <time>2014-02-09T10:59:42.630Z</time>
      </trkpt>
      <trkpt lat="44.16448" lon="5.28123">
        <ele>1518</ele>
        <time>2014-02-09T10:59:43.630Z</time>
      </trkpt>
      <trkpt lat="44.16436" lon="5.28126">
        <ele>1517</ele>
        <time>2014-02-09T10:59:45.700Z</time>
      </trkpt>
      <trkpt lat="44.16427" lon="5.28127">
        <ele>1517</ele>
        <time>2014-02-09T10:59:47.700Z</time>
      </trkpt>
      <trkpt lat="44.16417" lon="5.28132">
        <ele>1516.6200064</ele>
        <time>2014-02-09T10:59:50.690Z</time>
      </trkpt>
      <trkpt lat="44.16412" lon="5.28135">
        <ele>1516</ele>
        <time>2014-02-09T10:59:53.700Z</time>
      </trkpt>
      <trkpt lat="44.16408" lon="5.2814">
        <ele>1515</ele>
        <time>2014-02-09T10:59:57.690Z</time>
      </trkpt>
      <trkpt lat="44.16411" lon="5.28143">
        <ele>1516</ele>
        <time>2014-02-09T11:06:22.590Z</time>
      </trkpt>
      <trkpt lat="44.16408" lon="5.28147">
        <ele>1517</ele>
        <time>2014-02-09T11:10:25.590Z</time>
      </trkpt>
      <trkpt lat="44.16405" lon="5.28153">
        <ele>1518</ele>
        <time>2014-02-09T11:10:31.590Z</time>
      </trkpt>
      <trkpt lat="44.16403" lon="5.2816">
        <ele>1518</ele>
        <time>2014-02-09T11:10:39.590Z</time>
      </trkpt>
      <trkpt lat="44.16401" lon="5.28166">
        <ele>1517</ele>
        <time>2014-02-09T11:11:05.580Z</time>
      </trkpt>
      <trkpt lat="44.164" lon="5.28174">
        <ele>1518</ele>
        <time>2014-02-09T11:11:25.590Z</time>
      </trkpt>
      <trkpt lat="44.16396" lon="5.28183">
        <ele>1518</ele>
        <time>2014-02-09T11:11:33.590Z</time>
      </trkpt>
      <trkpt lat="44.16395" lon="5.28189">
        <ele>1519</ele>
        <time>2014-02-09T11:11:46.590Z</time>
      </trkpt>
      <trkpt lat="44.16394" lon="5.28196">
        <ele>1520</ele>
        <time>2014-02-09T11:11:52.530Z</time>
      </trkpt>
      <trkpt lat="44.16393" lon="5.28204">
        <ele>1520</ele>
        <time>2014-02-09T11:11:58.590Z</time>
      </trkpt>
      <trkpt lat="44.16393" lon="5.28207">
        <ele>1517</ele>
        <time>2014-02-09T11:12:04.590Z</time>
      </trkpt>
      <trkpt lat="44.16393" lon="5.28213">
        <ele>1518</ele>
        <time>2014-02-09T11:12:17.590Z</time>
      </trkpt>
      <trkpt lat="44.16393" lon="5.2822">
        <ele>1519</ele>
        <time>2014-02-09T11:12:21.590Z</time>
      </trkpt>
      <trkpt lat="44.16394" lon="5.28228">
        <ele>1519</ele>
        <time>2014-02-09T11:12:26.530Z</time>
      </trkpt>
      <trkpt lat="44.16397" lon="5.28235">
        <ele>1521</ele>
        <time>2014-02-09T11:12:35.690Z</time>
      </trkpt>
      <trkpt lat="44.164" lon="5.28242">
        <ele>1524.6122539608</ele>
        <time>2014-02-09T11:12:45.630Z</time>
      </trkpt>
      <trkpt lat="44.16402" lon="5.28251">
        <ele>1526</ele>
        <time>2014-02-09T11:12:59.680Z</time>
      </trkpt>
      <trkpt lat="44.16403" lon="5.28259">
        <ele>1531</ele>
        <time>2014-02-09T11:13:09.690Z</time>
      </trkpt>
      <trkpt lat="44.16403" lon="5.28267">
        <ele>1533</ele>
        <time>2014-02-09T11:13:19.630Z</time>
      </trkpt>
      <trkpt lat="44.16404" lon="5.28271">
        <ele>1535</ele>
        <time>2014-02-09T11:13:50.690Z</time>
      </trkpt>
      <trkpt lat="44.16404" lon="5.28277">
        <ele>1535</ele>
        <time>2014-02-09T11:14:05.690Z</time>
      </trkpt>
      <trkpt lat="44.16406" lon="5.28285">
        <ele>1537.7599872</ele>
        <time>2014-02-09T11:14:20.690Z</time>
      </trkpt>
      <trkpt lat="44.16409" lon="5.28292">
        <ele>1539</ele>
        <time>2014-02-09T11:14:27.570Z</time>
      </trkpt>
      <trkpt lat="44.16412" lon="5.28301">
        <ele>1541</ele>
        <time>2014-02-09T11:14:36.690Z</time>
      </trkpt>
      <trkpt lat="44.16416" lon="5.2831">
        <ele>1543</ele>
        <time>2014-02-09T11:14:47.690Z</time>
      </trkpt>
      <trkpt lat="44.1642" lon="5.28315">
        <ele>1544</ele>
        <time>2014-02-09T11:14:56.690Z</time>
      </trkpt>
      <trkpt lat="44.16424" lon="5.28319">
        <ele>1546</ele>
        <time>2014-02-09T11:15:05.690Z</time>
      </trkpt>
      <trkpt lat="44.1643" lon="5.28325">
        <ele>1548</ele>
        <time>2014-02-09T11:15:13.690Z</time>
      </trkpt>
      <trkpt lat="44.16435" lon="5.28331">
        <ele>1550</ele>
        <time>2014-02-09T11:15:21.690Z</time>
      </trkpt>
      <trkpt lat="44.1644" lon="5.28338">
        <ele>1553</ele>
        <time>2014-02-09T11:15:31.690Z</time>
      </trkpt>
      <trkpt lat="44.16444" lon="5.28343">
        <ele>1556</ele>
        <time>2014-02-09T11:15:37.690Z</time>
      </trkpt>
      <trkpt lat="44.1645" lon="5.28346">
        <ele>1558</ele>
        <time>2014-02-09T11:15:46.690Z</time>
      </trkpt>
      <trkpt lat="44.16455" lon="5.28351">
        <ele>1558</ele>
        <time>2014-02-09T11:15:53.590Z</time>
      </trkpt>
      <trkpt lat="44.16458" lon="5.28358">
        <ele>1560</ele>
        <time>2014-02-09T11:16:03.590Z</time>
      </trkpt>
      <trkpt lat="44.1646" lon="5.28366">
        <ele>1562</ele>
        <time>2014-02-09T11:16:12.590Z</time>
      </trkpt>
      <trkpt lat="44.16465" lon="5.28373">
        <ele>1565</ele>
        <time>2014-02-09T11:16:22.590Z</time>
      </trkpt>
      <trkpt lat="44.1647" lon="5.2838">
        <ele>1567</ele>
        <time>2014-02-09T11:16:32.590Z</time>
      </trkpt>
      <trkpt lat="44.16474" lon="5.28387">
        <ele>1567.5544572022</ele>
        <time>2014-02-09T11:16:40.590Z</time>
      </trkpt>
      <trkpt lat="44.16476" lon="5.28393">
        <ele>1569</ele>
        <time>2014-02-09T11:16:47.590Z</time>
      </trkpt>
      <trkpt lat="44.1648" lon="5.28397">
        <ele>1572</ele>
        <time>2014-02-09T11:16:54.590Z</time>
      </trkpt>
      <trkpt lat="44.16481" lon="5.28402">
        <ele>1573</ele>
        <time>2014-02-09T11:16:59.530Z</time>
      </trkpt>
      <trkpt lat="44.16482" lon="5.28406">
        <ele>1575.28</ele>
        <time>2014-02-09T11:17:05.590Z</time>
      </trkpt>
      <trkpt lat="44.16486" lon="5.28411">
        <ele>1577</ele>
        <time>2014-02-09T11:17:13.690Z</time>
      </trkpt>
      <trkpt lat="44.16489" lon="5.28415">
        <ele>1579</ele>
        <time>2014-02-09T11:17:21.690Z</time>
      </trkpt>
      <trkpt lat="44.16492" lon="5.28419">
        <ele>1579</ele>
        <time>2014-02-09T11:17:28.690Z</time>
      </trkpt>
      <trkpt lat="44.16495" lon="5.28422">
        <ele>1581</ele>
        <time>2014-02-09T11:17:33.630Z</time>
      </trkpt>
      <trkpt lat="44.16498" lon="5.28423">
        <ele>1581</ele>
        <time>2014-02-09T11:17:38.690Z</time>
      </trkpt>
      <trkpt lat="44.16502" lon="5.28426">
        <ele>1584</ele>
        <time>2014-02-09T11:17:43.690Z</time>
      </trkpt>
      <trkpt lat="44.16505" lon="5.28429">
        <ele>1585</ele>
        <time>2014-02-09T11:17:49.690Z</time>
      </trkpt>
      <trkpt lat="44.16508" lon="5.28431">
        <ele>1586</ele>
        <time>2014-02-09T11:17:55.690Z</time>
      </trkpt>
      <trkpt lat="44.16511" lon="5.28434">
        <ele>1589</ele>
        <time>2014-02-09T11:18:01.690Z</time>
      </trkpt>
      <trkpt lat="44.16515" lon="5.28438">
        <ele>1590</ele>
        <time>2014-02-09T11:18:08.630Z</time>
      </trkpt>
      <trkpt lat="44.16518" lon="5.28442">
        <ele>1592</ele>
        <time>2014-02-09T11:18:17.690Z</time>
      </trkpt>
      <trkpt lat="44.16521" lon="5.28445">
        <ele>1593</ele>
        <time>2014-02-09T11:18:24.570Z</time>
      </trkpt>
      <trkpt lat="44.16524" lon="5.28449">
        <ele>1593.7599872</ele>
        <time>2014-02-09T11:18:30.690Z</time>
      </trkpt>
      <trkpt lat="44.16527" lon="5.28452">
        <ele>1595</ele>
        <time>2014-02-09T11:18:38.690Z</time>
      </trkpt>
      <trkpt lat="44.16532" lon="5.28461">
        <ele>1596.7599872</ele>
        <time>2014-02-09T11:18:50.690Z</time>
      </trkpt>
      <trkpt lat="44.16537" lon="5.28469">
        <ele>1601</ele>
        <time>2014-02-09T11:19:04.680Z</time>
      </trkpt>
      <trkpt lat="44.16541" lon="5.28476">
        <ele>1603</ele>
        <time>2014-02-09T11:19:46.690Z</time>
      </trkpt>
      <trkpt lat="44.16544" lon="5.28482">
        <ele>1605</ele>
        <time>2014-02-09T11:19:55.690Z</time>
      </trkpt>
      <trkpt lat="44.16548" lon="5.28487">
        <ele>1609</ele>
        <time>2014-02-09T11:20:02.690Z</time>
      </trkpt>
      <trkpt lat="44.16553" lon="5.28493">
        <ele>1610</ele>
        <time>2014-02-09T11:20:12.690Z</time>
      </trkpt>
      <trkpt lat="44.16558" lon="5.28498">
        <ele>1612</ele>
        <time>2014-02-09T11:20:22.690Z</time>
      </trkpt>
      <trkpt lat="44.16564" lon="5.28502">
        <ele>1616</ele>
        <time>2014-02-09T11:20:34.690Z</time>
      </trkpt>
      <trkpt lat="44.16564" lon="5.28509">
        <ele>1620</ele>
        <time>2014-02-09T11:20:58.560Z</time>
      </trkpt>
      <trkpt lat="44.16566" lon="5.28515">
        <ele>1621</ele>
        <time>2014-02-09T11:21:33.690Z</time>
      </trkpt>
      <trkpt lat="44.16568" lon="5.28522">
        <ele>1627</ele>
        <time>2014-02-09T11:21:46.690Z</time>
      </trkpt>
      <trkpt lat="44.16569" lon="5.28529">
        <ele>1629</ele>
        <time>2014-02-09T11:21:58.690Z</time>
      </trkpt>
      <trkpt lat="44.1657" lon="5.28537">
        <ele>1632.3799936</ele>
        <time>2014-02-09T11:22:15.690Z</time>
      </trkpt>
      <trkpt lat="44.16572" lon="5.28546">
        <ele>1633</ele>
        <time>2014-02-09T11:22:32.690Z</time>
      </trkpt>
      <trkpt lat="44.16576" lon="5.28558">
        <ele>1638</ele>
        <time>2014-02-09T11:22:46.690Z</time>
      </trkpt>
      <trkpt lat="44.16578" lon="5.28567">
        <ele>1642</ele>
        <time>2014-02-09T11:22:58.690Z</time>
      </trkpt>
      <trkpt lat="44.1658" lon="5.28577">
        <ele>1644</ele>
        <time>2014-02-09T11:23:11.690Z</time>
      </trkpt>
      <trkpt lat="44.16582" lon="5.28588">
        <ele>1647</ele>
        <time>2014-02-09T11:23:24.690Z</time>
      </trkpt>
      <trkpt lat="44.16585" lon="5.28597">
        <ele>1651</ele>
        <time>2014-02-09T11:23:38.690Z</time>
      </trkpt>
      <trkpt lat="44.16589" lon="5.28604">
        <ele>1651</ele>
        <time>2014-02-09T11:23:48.620Z</time>
      </trkpt>
      <trkpt lat="44.16594" lon="5.28608">
        <ele>1652</ele>
        <time>2014-02-09T11:23:57.690Z</time>
      </trkpt>
      <trkpt lat="44.16598" lon="5.28612">
        <ele>1656</ele>
        <time>2014-02-09T11:24:06.690Z</time>
      </trkpt>
      <trkpt lat="44.16601" lon="5.28617">
        <ele>1658</ele>
        <time>2014-02-09T11:24:14.690Z</time>
      </trkpt>
      <trkpt lat="44.16604" lon="5.2862">
        <ele>1661</ele>
        <time>2014-02-09T11:24:21.630Z</time>
      </trkpt>
      <trkpt lat="44.16607" lon="5.28624">
        <ele>1662</ele>
        <time>2014-02-09T11:24:28.690Z</time>
      </trkpt>
      <trkpt lat="44.16611" lon="5.28629">
        <ele>1663</ele>
        <time>2014-02-09T11:24:37.690Z</time>
      </trkpt>
      <trkpt lat="44.16615" lon="5.28634">
        <ele>1665</ele>
        <time>2014-02-09T11:24:46.690Z</time>
      </trkpt>
      <trkpt lat="44.16618" lon="5.28638">
        <ele>1666</ele>
        <time>2014-02-09T11:24:55.570Z</time>
      </trkpt>
      <trkpt lat="44.16622" lon="5.28644">
        <ele>1668</ele>
        <time>2014-02-09T11:25:03.690Z</time>
      </trkpt>
      <trkpt lat="44.16626" lon="5.28649">
        <ele>1670</ele>
        <time>2014-02-09T11:25:11.690Z</time>
      </trkpt>
      <trkpt lat="44.16631" lon="5.28654">
        <ele>1673</ele>
        <time>2014-02-09T11:25:22.690Z</time>
      </trkpt>
      <trkpt lat="44.16636" lon="5.28658">
        <ele>1675</ele>
        <time>2014-02-09T11:25:29.570Z</time>
      </trkpt>
      <trkpt lat="44.1664" lon="5.2866">
        <ele>1675</ele>
        <time>2014-02-09T11:25:36.690Z</time>
      </trkpt>
      <trkpt lat="44.16645" lon="5.28664">
        <ele>1678</ele>
        <time>2014-02-09T11:25:44.690Z</time>
      </trkpt>
      <trkpt lat="44.16649" lon="5.28667">
        <ele>1681</ele>
        <time>2014-02-09T11:25:52.690Z</time>
      </trkpt>
      <trkpt lat="44.16653" lon="5.2867">
        <ele>1680.3799936</ele>
        <time>2014-02-09T11:26:00.690Z</time>
      </trkpt>
      <trkpt lat="44.16658" lon="5.28673">
        <ele>1681</ele>
        <time>2014-02-09T11:26:07.690Z</time>
      </trkpt>
      <trkpt lat="44.16662" lon="5.28675">
        <ele>1683</ele>
        <time>2014-02-09T11:26:13.690Z</time>
      </trkpt>
      <trkpt lat="44.16666" lon="5.28676">
        <ele>1685</ele>
        <time>2014-02-09T11:26:21.620Z</time>
      </trkpt>
      <trkpt lat="44.1667" lon="5.28677">
        <ele>1685</ele>
        <time>2014-02-09T11:26:27.690Z</time>
      </trkpt>
      <trkpt lat="44.16675" lon="5.28677">
        <ele>1688</ele>
        <time>2014-02-09T11:26:33.690Z</time>
      </trkpt>
      <trkpt lat="44.16679" lon="5.28678">
        <ele>1690</ele>
        <time>2014-02-09T11:26:39.690Z</time>
      </trkpt>
      <trkpt lat="44.16683" lon="5.2868">
        <ele>1692</ele>
        <time>2014-02-09T11:26:46.690Z</time>
      </trkpt>
      <trkpt lat="44.16688" lon="5.2868">
        <ele>1693</ele>
        <time>2014-02-09T11:26:52.690Z</time>
      </trkpt>
      <trkpt lat="44.16692" lon="5.28681">
        <ele>1693</ele>
        <time>2014-02-09T11:26:59.690Z</time>
      </trkpt>
      <trkpt lat="44.16697" lon="5.28682">
        <ele>1697</ele>
        <time>2014-02-09T11:27:06.690Z</time>
      </trkpt>
      <trkpt lat="44.16704" lon="5.28683">
        <ele>1699.3799936</ele>
        <time>2014-02-09T11:27:15.690Z</time>
      </trkpt>
      <trkpt lat="44.1671" lon="5.28684">
        <ele>1701</ele>
        <time>2014-02-09T11:27:24.690Z</time>
      </trkpt>
      <trkpt lat="44.16715" lon="5.28685">
        <ele>1703</ele>
        <time>2014-02-09T11:27:32.700Z</time>
      </trkpt>
      <trkpt lat="44.1672" lon="5.28686">
        <ele>1703</ele>
        <time>2014-02-09T11:27:39.690Z</time>
      </trkpt>
      <trkpt lat="44.16725" lon="5.28688">
        <ele>1704</ele>
        <time>2014-02-09T11:27:45.630Z</time>
      </trkpt>
      <trkpt lat="44.16729" lon="5.28688">
        <ele>1707</ele>
        <time>2014-02-09T11:27:52.690Z</time>
      </trkpt>
      <trkpt lat="44.16735" lon="5.2869">
        <ele>1708.3799936</ele>
        <time>2014-02-09T11:28:00.690Z</time>
      </trkpt>
      <trkpt lat="44.1674" lon="5.28691">
        <ele>1709</ele>
        <time>2014-02-09T11:28:07.690Z</time>
      </trkpt>
      <trkpt lat="44.16745" lon="5.28692">
        <ele>1711</ele>
        <time>2014-02-09T11:28:15.690Z</time>
      </trkpt>
      <trkpt lat="44.16751" lon="5.28694">
        <ele>1714</ele>
        <time>2014-02-09T11:28:23.690Z</time>
      </trkpt>
      <trkpt lat="44.16756" lon="5.28695">
        <ele>1715.3799936</ele>
        <time>2014-02-09T11:28:30.690Z</time>
      </trkpt>
      <trkpt lat="44.1676" lon="5.28696">
        <ele>1716</ele>
        <time>2014-02-09T11:28:36.630Z</time>
      </trkpt>
      <trkpt lat="44.16765" lon="5.28697">
        <ele>1719</ele>
        <time>2014-02-09T11:28:43.690Z</time>
      </trkpt>
      <trkpt lat="44.1677" lon="5.28698">
        <ele>1721</ele>
        <time>2014-02-09T11:28:50.690Z</time>
      </trkpt>
      <trkpt lat="44.16775" lon="5.28699">
        <ele>1721</ele>
        <time>2014-02-09T11:28:59.690Z</time>
      </trkpt>
      <trkpt lat="44.16781" lon="5.287">
        <ele>1725</ele>
        <time>2014-02-09T11:29:08.690Z</time>
      </trkpt>
      <trkpt lat="44.16787" lon="5.28702">
        <ele>1726</ele>
        <time>2014-02-09T11:29:17.690Z</time>
      </trkpt>
      <trkpt lat="44.16794" lon="5.28702">
        <ele>1728</ele>
        <time>2014-02-09T11:29:27.570Z</time>
      </trkpt>
      <trkpt lat="44.168" lon="5.28703">
        <ele>1730</ele>
        <time>2014-02-09T11:29:35.690Z</time>
      </trkpt>
      <trkpt lat="44.16805" lon="5.28703">
        <ele>1733</ele>
        <time>2014-02-09T11:29:43.690Z</time>
      </trkpt>
      <trkpt lat="44.16812" lon="5.28703">
        <ele>1736</ele>
        <time>2014-02-09T11:29:52.690Z</time>
      </trkpt>
      <trkpt lat="44.16818" lon="5.28704">
        <ele>1738</ele>
        <time>2014-02-09T11:30:02.560Z</time>
      </trkpt>
      <trkpt lat="44.16823" lon="5.28705">
        <ele>1738.7599872</ele>
        <time>2014-02-09T11:30:10.690Z</time>
      </trkpt>
      <trkpt lat="44.16828" lon="5.28705">
        <ele>1740</ele>
        <time>2014-02-09T11:30:17.690Z</time>
      </trkpt>
      <trkpt lat="44.16833" lon="5.28704">
        <ele>1743.3799936</ele>
        <time>2014-02-09T11:30:25.690Z</time>
      </trkpt>
      <trkpt lat="44.16838" lon="5.28704">
        <ele>1745</ele>
        <time>2014-02-09T11:30:32.690Z</time>
      </trkpt>
      <trkpt lat="44.16842" lon="5.28703">
        <ele>1745</ele>
        <time>2014-02-09T11:30:39.690Z</time>
      </trkpt>
      <trkpt lat="44.16847" lon="5.28703">
        <ele>1747</ele>
        <time>2014-02-09T11:30:46.690Z</time>
      </trkpt>
      <trkpt lat="44.16852" lon="5.28704">
        <ele>1748</ele>
        <time>2014-02-09T11:30:53.620Z</time>
      </trkpt>
      <trkpt lat="44.16857" lon="5.28703">
        <ele>1751</ele>
        <time>2014-02-09T11:31:01.690Z</time>
      </trkpt>
      <trkpt lat="44.16863" lon="5.28704">
        <ele>1752</ele>
        <time>2014-02-09T11:31:09.630Z</time>
      </trkpt>
      <trkpt lat="44.16867" lon="5.28703">
        <ele>1753</ele>
        <time>2014-02-09T11:31:16.690Z</time>
      </trkpt>
      <trkpt lat="44.16873" lon="5.28702">
        <ele>1755</ele>
        <time>2014-02-09T11:31:25.690Z</time>
      </trkpt>
      <trkpt lat="44.16878" lon="5.287">
        <ele>1757</ele>
        <time>2014-02-09T11:31:33.690Z</time>
      </trkpt>
      <trkpt lat="44.16883" lon="5.28699">
        <ele>1757.7599872</ele>
        <time>2014-02-09T11:31:40.690Z</time>
      </trkpt>
      <trkpt lat="44.16889" lon="5.28697">
        <ele>1759.7599872</ele>
        <time>2014-02-09T11:31:50.690Z</time>
      </trkpt>
      <trkpt lat="44.16894" lon="5.28696">
        <ele>1761</ele>
        <time>2014-02-09T11:31:58.690Z</time>
      </trkpt>
      <trkpt lat="44.16899" lon="5.28695">
        <ele>1763.3799936</ele>
        <time>2014-02-09T11:32:05.690Z</time>
      </trkpt>
      <trkpt lat="44.16903" lon="5.28692">
        <ele>1765</ele>
        <time>2014-02-09T11:32:13.690Z</time>
      </trkpt>
      <trkpt lat="44.16908" lon="5.2869">
        <ele>1765.3799936</ele>
        <time>2014-02-09T11:32:20.690Z</time>
      </trkpt>
      <trkpt lat="44.16911" lon="5.28689">
        <ele>1767</ele>
        <time>2014-02-09T11:37:47.590Z</time>
      </trkpt>
      <trkpt lat="44.16914" lon="5.28685">
        <ele>1768</ele>
        <time>2014-02-09T11:38:36.690Z</time>
      </trkpt>
      <trkpt lat="44.16917" lon="5.2868">
        <ele>1768</ele>
        <time>2014-02-09T11:38:46.690Z</time>
      </trkpt>
      <trkpt lat="44.16921" lon="5.28677">
        <ele>1769</ele>
        <time>2014-02-09T11:38:53.690Z</time>
      </trkpt>
      <trkpt lat="44.16925" lon="5.28674">
        <ele>1770</ele>
        <time>2014-02-09T11:39:01.690Z</time>
      </trkpt>
      <trkpt lat="44.16929" lon="5.28672">
        <ele>1770.7599872</ele>
        <time>2014-02-09T11:39:10.690Z</time>
      </trkpt>
      <trkpt lat="44.16933" lon="5.28672">
        <ele>1772</ele>
        <time>2014-02-09T11:39:22.630Z</time>
      </trkpt>
      <trkpt lat="44.16937" lon="5.28671">
        <ele>1772.7599872</ele>
        <time>2014-02-09T11:39:30.690Z</time>
      </trkpt>
      <trkpt lat="44.16942" lon="5.2867">
        <ele>1773</ele>
        <time>2014-02-09T11:39:39.630Z</time>
      </trkpt>
      <trkpt lat="44.16946" lon="5.28669">
        <ele>1775</ele>
        <time>2014-02-09T11:39:47.690Z</time>
      </trkpt>
      <trkpt lat="44.16951" lon="5.28668">
        <ele>1776</ele>
        <time>2014-02-09T11:39:54.690Z</time>
      </trkpt>
      <trkpt lat="44.16955" lon="5.28668">
        <ele>1779</ele>
        <time>2014-02-09T11:40:01.690Z</time>
      </trkpt>
      <trkpt lat="44.1696" lon="5.28667">
        <ele>1779</ele>
        <time>2014-02-09T11:40:09.690Z</time>
      </trkpt>
      <trkpt lat="44.16966" lon="5.28667">
        <ele>1779</ele>
        <time>2014-02-09T11:40:18.690Z</time>
      </trkpt>
      <trkpt lat="44.16972" lon="5.28668">
        <ele>1780</ele>
        <time>2014-02-09T11:40:28.690Z</time>
      </trkpt>
      <trkpt lat="44.16977" lon="5.28669">
        <ele>1782</ele>
        <time>2014-02-09T11:40:37.690Z</time>
      </trkpt>
      <trkpt lat="44.16982" lon="5.28669">
        <ele>1783</ele>
        <time>2014-02-09T11:40:44.690Z</time>
      </trkpt>
      <trkpt lat="44.16987" lon="5.2867">
        <ele>1785</ele>
        <time>2014-02-09T11:40:51.690Z</time>
      </trkpt>
      <trkpt lat="44.16992" lon="5.28671">
        <ele>1787</ele>
        <time>2014-02-09T11:41:03.690Z</time>
      </trkpt>
      <trkpt lat="44.16998" lon="5.28671">
        <ele>1788</ele>
        <time>2014-02-09T11:41:16.690Z</time>
      </trkpt>
      <trkpt lat="44.17005" lon="5.28673">
        <ele>1790</ele>
        <time>2014-02-09T11:41:25.690Z</time>
      </trkpt>
      <trkpt lat="44.1701" lon="5.28673">
        <ele>1793</ele>
        <time>2014-02-09T11:41:35.690Z</time>
      </trkpt>
      <trkpt lat="44.17016" lon="5.28674">
        <ele>1794</ele>
        <time>2014-02-09T11:41:46.590Z</time>
      </trkpt>
      <trkpt lat="44.17021" lon="5.28674">
        <ele>1795</ele>
        <time>2014-02-09T11:41:55.510Z</time>
      </trkpt>
      <trkpt lat="44.17025" lon="5.28676">
        <ele>1795</ele>
        <time>2014-02-09T11:42:02.590Z</time>
      </trkpt>
      <trkpt lat="44.1703" lon="5.28676">
        <ele>1795</ele>
        <time>2014-02-09T11:42:10.590Z</time>
      </trkpt>
      <trkpt lat="44.17035" lon="5.28677">
        <ele>1795</ele>
        <time>2014-02-09T11:42:18.590Z</time>
      </trkpt>
      <trkpt lat="44.1704" lon="5.28678">
        <ele>1797</ele>
        <time>2014-02-09T11:42:29.470Z</time>
      </trkpt>
      <trkpt lat="44.17045" lon="5.28679">
        <ele>1799</ele>
        <time>2014-02-09T11:42:37.590Z</time>
      </trkpt>
      <trkpt lat="44.17049" lon="5.2868">
        <ele>1802</ele>
        <time>2014-02-09T11:42:43.590Z</time>
      </trkpt>
      <trkpt lat="44.17055" lon="5.28681">
        <ele>1802.72</ele>
        <time>2014-02-09T11:42:50.590Z</time>
      </trkpt>
      <trkpt lat="44.1706" lon="5.28681">
        <ele>1802</ele>
        <time>2014-02-09T11:42:57.590Z</time>
      </trkpt>
      <trkpt lat="44.17065" lon="5.28681">
        <ele>1804</ele>
        <time>2014-02-09T11:43:05.590Z</time>
      </trkpt>
      <trkpt lat="44.17071" lon="5.28682">
        <ele>1807</ele>
        <time>2014-02-09T11:43:14.590Z</time>
      </trkpt>
      <trkpt lat="44.17079" lon="5.28682">
        <ele>1808</ele>
        <time>2014-02-09T11:43:26.690Z</time>
      </trkpt>
      <trkpt lat="44.17083" lon="5.28682">
        <ele>1809</ele>
        <time>2014-02-09T11:43:33.690Z</time>
      </trkpt>
      <trkpt lat="44.17087" lon="5.28682">
        <ele>1811</ele>
        <time>2014-02-09T11:43:41.690Z</time>
      </trkpt>
      <trkpt lat="44.17091" lon="5.28683">
        <ele>1811</ele>
        <time>2014-02-09T11:43:48.690Z</time>
      </trkpt>
      <trkpt lat="44.17096" lon="5.28685">
        <ele>1813</ele>
        <time>2014-02-09T11:43:57.690Z</time>
      </trkpt>
      <trkpt lat="44.17101" lon="5.28685">
        <ele>1814</ele>
        <time>2014-02-09T11:44:05.690Z</time>
      </trkpt>
      <trkpt lat="44.17106" lon="5.28686">
        <ele>1816</ele>
        <time>2014-02-09T11:44:14.590Z</time>
      </trkpt>
      <trkpt lat="44.17111" lon="5.28686">
        <ele>1818</ele>
        <time>2014-02-09T11:44:22.590Z</time>
      </trkpt>
      <trkpt lat="44.17115" lon="5.28686">
        <ele>1818</ele>
        <time>2014-02-09T11:44:27.580Z</time>
      </trkpt>
      <trkpt lat="44.17119" lon="5.28686">
        <ele>1819</ele>
        <time>2014-02-09T11:44:33.590Z</time>
      </trkpt>
      <trkpt lat="44.17123" lon="5.28686">
        <ele>1819</ele>
        <time>2014-02-09T11:44:39.590Z</time>
      </trkpt>
      <trkpt lat="44.17127" lon="5.28686">
        <ele>1820</ele>
        <time>2014-02-09T11:44:45.530Z</time>
      </trkpt>
      <trkpt lat="44.17131" lon="5.28686">
        <ele>1822</ele>
        <time>2014-02-09T11:44:51.590Z</time>
      </trkpt>
      <trkpt lat="44.17136" lon="5.28686">
        <ele>1822</ele>
        <time>2014-02-09T11:44:57.580Z</time>
      </trkpt>
      <trkpt lat="44.1714" lon="5.28685">
        <ele>1824</ele>
        <time>2014-02-09T11:45:03.460Z</time>
      </trkpt>
      <trkpt lat="44.17144" lon="5.28683">
        <ele>1824</ele>
        <time>2014-02-09T11:45:09.590Z</time>
      </trkpt>
      <trkpt lat="44.17148" lon="5.28682">
        <ele>1824</ele>
        <time>2014-02-09T11:45:14.590Z</time>
      </trkpt>
      <trkpt lat="44.17152" lon="5.2868">
        <ele>1824</ele>
        <time>2014-02-09T11:45:19.530Z</time>
      </trkpt>
      <trkpt lat="44.17156" lon="5.28679">
        <ele>1826</ele>
        <time>2014-02-09T11:45:25.590Z</time>
      </trkpt>
      <trkpt lat="44.1716" lon="5.28678">
        <ele>1829</ele>
        <time>2014-02-09T11:45:45.690Z</time>
      </trkpt>
      <trkpt lat="44.17164" lon="5.28677">
        <ele>1829</ele>
        <time>2014-02-09T11:45:49.690Z</time>
      </trkpt>
      <trkpt lat="44.17167" lon="5.28676">
        <ele>1828</ele>
        <time>2014-02-09T11:45:53.620Z</time>
      </trkpt>
      <trkpt lat="44.17172" lon="5.28674">
        <ele>1828</ele>
        <time>2014-02-09T11:45:58.690Z</time>
      </trkpt>
      <trkpt lat="44.17176" lon="5.28674">
        <ele>1829</ele>
        <time>2014-02-09T11:46:03.690Z</time>
      </trkpt>
      <trkpt lat="44.17181" lon="5.28672">
        <ele>1829</ele>
        <time>2014-02-09T11:46:08.690Z</time>
      </trkpt>
      <trkpt lat="44.17185" lon="5.28671">
        <ele>1829</ele>
        <time>2014-02-09T11:46:13.690Z</time>
      </trkpt>
      <trkpt lat="44.17189" lon="5.2867">
        <ele>1829</ele>
        <time>2014-02-09T11:46:18.690Z</time>
      </trkpt>
      <trkpt lat="44.17194" lon="5.28669">
        <ele>1830</ele>
        <time>2014-02-09T11:46:23.690Z</time>
      </trkpt>
      <trkpt lat="44.17199" lon="5.28667">
        <ele>1830</ele>
        <time>2014-02-09T11:46:28.620Z</time>
      </trkpt>
      <trkpt lat="44.17204" lon="5.28666">
        <ele>1830</ele>
        <time>2014-02-09T11:46:33.690Z</time>
      </trkpt>
      <trkpt lat="44.17208" lon="5.28663">
        <ele>1830</ele>
        <time>2014-02-09T11:46:38.690Z</time>
      </trkpt>
      <trkpt lat="44.17212" lon="5.28661">
        <ele>1831</ele>
        <time>2014-02-09T11:46:42.690Z</time>
      </trkpt>
      <trkpt lat="44.17216" lon="5.28657">
        <ele>1831</ele>
        <time>2014-02-09T11:46:47.690Z</time>
      </trkpt>
      <trkpt lat="44.1722" lon="5.28654">
        <ele>1831</ele>
        <time>2014-02-09T11:46:52.690Z</time>
      </trkpt>
      <trkpt lat="44.17225" lon="5.28651">
        <ele>1831</ele>
        <time>2014-02-09T11:46:58.690Z</time>
      </trkpt>
      <trkpt lat="44.17229" lon="5.28646">
        <ele>1832</ele>
        <time>2014-02-09T11:47:05.690Z</time>
      </trkpt>
      <trkpt lat="44.17231" lon="5.2864">
        <ele>1832.3799936</ele>
        <time>2014-02-09T11:47:10.690Z</time>
      </trkpt>
      <trkpt lat="44.17234" lon="5.28632">
        <ele>1833</ele>
        <time>2014-02-09T11:47:16.690Z</time>
      </trkpt>
      <trkpt lat="44.17237" lon="5.28625">
        <ele>1833</ele>
        <time>2014-02-09T11:47:21.690Z</time>
      </trkpt>
      <trkpt lat="44.17239" lon="5.28618">
        <ele>1833</ele>
        <time>2014-02-09T11:47:26.690Z</time>
      </trkpt>
      <trkpt lat="44.17241" lon="5.28611">
        <ele>1834</ele>
        <time>2014-02-09T11:47:31.690Z</time>
      </trkpt>
      <trkpt lat="44.17244" lon="5.28604">
        <ele>1834</ele>
        <time>2014-02-09T11:47:36.570Z</time>
      </trkpt>
      <trkpt lat="44.17246" lon="5.28597">
        <ele>1834</ele>
        <time>2014-02-09T11:47:41.680Z</time>
      </trkpt>
      <trkpt lat="44.17249" lon="5.2859">
        <ele>1834</ele>
        <time>2014-02-09T11:47:46.690Z</time>
      </trkpt>
      <trkpt lat="44.17252" lon="5.28582">
        <ele>1834</ele>
        <time>2014-02-09T11:47:52.630Z</time>
      </trkpt>
      <trkpt lat="44.17254" lon="5.28575">
        <ele>1834</ele>
        <time>2014-02-09T11:47:57.690Z</time>
      </trkpt>
      <trkpt lat="44.17258" lon="5.28567">
        <ele>1834</ele>
        <time>2014-02-09T11:48:02.690Z</time>
      </trkpt>
      <trkpt lat="44.1726" lon="5.28561">
        <ele>1834</ele>
        <time>2014-02-09T11:48:07.680Z</time>
      </trkpt>
      <trkpt lat="44.17263" lon="5.28554">
        <ele>1834</ele>
        <time>2014-02-09T11:48:12.690Z</time>
      </trkpt>
      <trkpt lat="44.17266" lon="5.28547">
        <ele>1834</ele>
        <time>2014-02-09T11:48:18.690Z</time>
      </trkpt>
      <trkpt lat="44.17268" lon="5.2854">
        <ele>1834</ele>
        <time>2014-02-09T11:48:23.690Z</time>
      </trkpt>
      <trkpt lat="44.17271" lon="5.28533">
        <ele>1834</ele>
        <time>2014-02-09T11:48:28.690Z</time>
      </trkpt>
      <trkpt lat="44.17274" lon="5.28525">
        <ele>1834</ele>
        <time>2014-02-09T11:48:34.690Z</time>
      </trkpt>
      <trkpt lat="44.17277" lon="5.28519">
        <ele>1834</ele>
        <time>2014-02-09T11:48:39.690Z</time>
      </trkpt>
      <trkpt lat="44.17281" lon="5.28512">
        <ele>1836</ele>
        <time>2014-02-09T11:48:44.620Z</time>
      </trkpt>
      <trkpt lat="44.17284" lon="5.28506">
        <ele>1836</ele>
        <time>2014-02-09T11:48:49.690Z</time>
      </trkpt>
      <trkpt lat="44.17288" lon="5.28499">
        <ele>1836</ele>
        <time>2014-02-09T11:48:54.690Z</time>
      </trkpt>
      <trkpt lat="44.17292" lon="5.28494">
        <ele>1836</ele>
        <time>2014-02-09T11:48:58.690Z</time>
      </trkpt>
      <trkpt lat="44.17295" lon="5.28489">
        <ele>1835</ele>
        <time>2014-02-09T11:49:03.690Z</time>
      </trkpt>
      <trkpt lat="44.17299" lon="5.28483">
        <ele>1835</ele>
        <time>2014-02-09T11:49:07.690Z</time>
      </trkpt>
      <trkpt lat="44.17303" lon="5.28476">
        <ele>1835</ele>
        <time>2014-02-09T11:49:13.690Z</time>
      </trkpt>
      <trkpt lat="44.1731" lon="5.28469">
        <ele>1834</ele>
        <time>2014-02-09T11:49:21.690Z</time>
      </trkpt>
      <trkpt lat="44.17316" lon="5.28465">
        <ele>1834</ele>
        <time>2014-02-09T11:49:27.690Z</time>
      </trkpt>
      <trkpt lat="44.1732" lon="5.28463">
        <ele>1834</ele>
        <time>2014-02-09T11:49:31.690Z</time>
      </trkpt>
      <trkpt lat="44.17324" lon="5.28459">
        <ele>1834</ele>
        <time>2014-02-09T11:49:35.570Z</time>
      </trkpt>
      <trkpt lat="44.17328" lon="5.28456">
        <ele>1834</ele>
        <time>2014-02-09T11:49:39.690Z</time>
      </trkpt>
      <trkpt lat="44.17333" lon="5.28454">
        <ele>1832</ele>
        <time>2014-02-09T11:49:43.690Z</time>
      </trkpt>
      <trkpt lat="44.17337" lon="5.2845">
        <ele>1832</ele>
        <time>2014-02-09T11:49:47.690Z</time>
      </trkpt>
      <trkpt lat="44.17342" lon="5.28447">
        <ele>1831</ele>
        <time>2014-02-09T11:49:51.630Z</time>
      </trkpt>
      <trkpt lat="44.17346" lon="5.28443">
        <ele>1831</ele>
        <time>2014-02-09T11:49:55.690Z</time>
      </trkpt>
      <trkpt lat="44.1735" lon="5.2844">
        <ele>1831</ele>
        <time>2014-02-09T11:49:58.690Z</time>
      </trkpt>
      <trkpt lat="44.17354" lon="5.28438">
        <ele>1830</ele>
        <time>2014-02-09T11:50:01.690Z</time>
      </trkpt>
      <trkpt lat="44.17357" lon="5.28436">
        <ele>1830</ele>
        <time>2014-02-09T11:50:04.690Z</time>
      </trkpt>
      <trkpt lat="44.1736" lon="5.28434">
        <ele>1830</ele>
        <time>2014-02-09T11:50:07.690Z</time>
      </trkpt>
      <trkpt lat="44.17366" lon="5.28431">
        <ele>1830</ele>
        <time>2014-02-09T11:50:12.610Z</time>
      </trkpt>
      <trkpt lat="44.17372" lon="5.28427">
        <ele>1830</ele>
        <time>2014-02-09T11:50:17.690Z</time>
      </trkpt>
      <trkpt lat="44.17378" lon="5.28425">
        <ele>1829</ele>
        <time>2014-02-09T11:50:22.690Z</time>
      </trkpt>
      <trkpt lat="44.17383" lon="5.28424">
        <ele>1829</ele>
        <time>2014-02-09T11:50:27.690Z</time>
      </trkpt>
      <trkpt lat="44.17385" lon="5.28423">
        <ele>1829</ele>
        <time>2014-02-09T11:50:29.690Z</time>
      </trkpt>
      <trkpt lat="44.17387" lon="5.28423">
        <ele>1830</ele>
        <time>2014-02-09T11:50:31.690Z</time>
      </trkpt>
      <trkpt lat="44.1739" lon="5.28424">
        <ele>1830</ele>
        <time>2014-02-09T11:50:34.690Z</time>
      </trkpt>
      <trkpt lat="44.17393" lon="5.28423">
        <ele>1830</ele>
        <time>2014-02-09T11:50:37.690Z</time>
      </trkpt>
      <trkpt lat="44.17397" lon="5.28416">
        <ele>1830</ele>
        <time>2014-02-09T11:50:47.690Z</time>
      </trkpt>
      <trkpt lat="44.17399" lon="5.28409">
        <ele>1828</ele>
        <time>2014-02-09T11:50:54.690Z</time>
      </trkpt>
      <trkpt lat="44.17402" lon="5.28402">
        <ele>1829</ele>
        <time>2014-02-09T11:51:02.690Z</time>
      </trkpt>
      <trkpt lat="44.17404" lon="5.28396">
        <ele>1829</ele>
        <time>2014-02-09T11:51:08.690Z</time>
      </trkpt>
      <trkpt lat="44.17407" lon="5.2839">
        <ele>1829</ele>
        <time>2014-02-09T11:51:14.690Z</time>
      </trkpt>
      <trkpt lat="44.17411" lon="5.28383">
        <ele>1828</ele>
        <time>2014-02-09T11:51:21.690Z</time>
      </trkpt>
      <trkpt lat="44.17415" lon="5.28377">
        <ele>1828</ele>
        <time>2014-02-09T11:51:27.690Z</time>
      </trkpt>
      <trkpt lat="44.17418" lon="5.28371">
        <ele>1828</ele>
        <time>2014-02-09T11:51:34.560Z</time>
      </trkpt>
      <trkpt lat="44.17421" lon="5.28363">
        <ele>1828</ele>
        <time>2014-02-09T11:51:41.690Z</time>
      </trkpt>
      <trkpt lat="44.17424" lon="5.28356">
        <ele>1828</ele>
        <time>2014-02-09T11:51:48.690Z</time>
      </trkpt>
      <trkpt lat="44.17426" lon="5.28349">
        <ele>1830</ele>
        <time>2014-02-09T11:51:55.690Z</time>
      </trkpt>
      <trkpt lat="44.17427" lon="5.28341">
        <ele>1832</ele>
        <time>2014-02-09T11:52:01.690Z</time>
      </trkpt>
      <trkpt lat="44.17428" lon="5.28335">
        <ele>1832</ele>
        <time>2014-02-09T11:52:06.690Z</time>
      </trkpt>
      <trkpt lat="44.1743" lon="5.28326">
        <ele>1832</ele>
        <time>2014-02-09T11:52:14.690Z</time>
      </trkpt>
      <trkpt lat="44.17431" lon="5.28317">
        <ele>1833</ele>
        <time>2014-02-09T11:52:21.690Z</time>
      </trkpt>
      <trkpt lat="44.17433" lon="5.28308">
        <ele>1834</ele>
        <time>2014-02-09T11:52:36.690Z</time>
      </trkpt>
      <trkpt lat="44.17435" lon="5.28299">
        <ele>1835</ele>
        <time>2014-02-09T11:52:45.690Z</time>
      </trkpt>
      <trkpt lat="44.17436" lon="5.28291">
        <ele>1837</ele>
        <time>2014-02-09T11:52:52.690Z</time>
      </trkpt>
      <trkpt lat="44.17436" lon="5.28282">
        <ele>1839</ele>
        <time>2014-02-09T11:53:01.690Z</time>
      </trkpt>
      <trkpt lat="44.17437" lon="5.28274">
        <ele>1839</ele>
        <time>2014-02-09T11:53:09.690Z</time>
      </trkpt>
      <trkpt lat="44.17439" lon="5.28265">
        <ele>1842.3799936</ele>
        <time>2014-02-09T11:53:20.690Z</time>
      </trkpt>
      <trkpt lat="44.17441" lon="5.28256">
        <ele>1845</ele>
        <time>2014-02-09T11:53:31.690Z</time>
      </trkpt>
      <trkpt lat="44.17443" lon="5.28247">
        <ele>1845.3799936</ele>
        <time>2014-02-09T11:53:40.690Z</time>
      </trkpt>
      <trkpt lat="44.17443" lon="5.28239">
        <ele>1846</ele>
        <time>2014-02-09T11:53:49.620Z</time>
      </trkpt>
      <trkpt lat="44.17445" lon="5.2823">
        <ele>1848</ele>
        <time>2014-02-09T11:53:59.690Z</time>
      </trkpt>
      <trkpt lat="44.17446" lon="5.28222">
        <ele>1851</ele>
        <time>2014-02-09T11:54:09.680Z</time>
      </trkpt>
      <trkpt lat="44.17448" lon="5.28213">
        <ele>1852</ele>
        <time>2014-02-09T11:54:19.690Z</time>
      </trkpt>
      <trkpt lat="44.17449" lon="5.28204">
        <ele>1853</ele>
        <time>2014-02-09T11:54:28.690Z</time>
      </trkpt>
      <trkpt lat="44.17451" lon="5.28195">
        <ele>1856</ele>
        <time>2014-02-09T11:54:44.690Z</time>
      </trkpt>
      <trkpt lat="44.17453" lon="5.28186">
        <ele>1856.3799936</ele>
        <time>2014-02-09T11:54:50.690Z</time>
      </trkpt>
      <trkpt lat="44.17455" lon="5.28177">
        <ele>1857</ele>
        <time>2014-02-09T11:54:59.690Z</time>
      </trkpt>
      <trkpt lat="44.17456" lon="5.28168">
        <ele>1861</ele>
        <time>2014-02-09T11:55:08.690Z</time>
      </trkpt>
      <trkpt lat="44.17457" lon="5.2816">
        <ele>1862</ele>
        <time>2014-02-09T11:55:17.690Z</time>
      </trkpt>
      <trkpt lat="44.17458" lon="5.28151">
        <ele>1863</ele>
        <time>2014-02-09T11:55:26.690Z</time>
      </trkpt>
      <trkpt lat="44.17459" lon="5.28142">
        <ele>1864</ele>
        <time>2014-02-09T11:55:35.690Z</time>
      </trkpt>
      <trkpt lat="44.17461" lon="5.28134">
        <ele>1866</ele>
        <time>2014-02-09T11:55:43.690Z</time>
      </trkpt>
      <trkpt lat="44.17461" lon="5.28126">
        <ele>1867</ele>
        <time>2014-02-09T11:55:53.690Z</time>
      </trkpt>
      <trkpt lat="44.17462" lon="5.28117">
        <ele>1868</ele>
        <time>2014-02-09T11:56:04.690Z</time>
      </trkpt>
      <trkpt lat="44.17462" lon="5.28109">
        <ele>1871</ele>
        <time>2014-02-09T11:56:13.690Z</time>
      </trkpt>
      <trkpt lat="44.17463" lon="5.28101">
        <ele>1871</ele>
        <time>2014-02-09T11:56:23.620Z</time>
      </trkpt>
      <trkpt lat="44.17466" lon="5.28097">
        <ele>1871</ele>
        <time>2014-02-09T11:56:28.690Z</time>
      </trkpt>
      <trkpt lat="44.1747" lon="5.28092">
        <ele>1873.2346956102</ele>
        <time>2014-02-09T11:56:40.560Z</time>
      </trkpt>
      <trkpt lat="44.17474" lon="5.2809">
        <ele>1874</ele>
        <time>2014-02-09T11:56:48.690Z</time>
      </trkpt>
      <trkpt lat="44.17479" lon="5.28088">
        <ele>1874</ele>
        <time>2014-02-09T11:56:56.620Z</time>
      </trkpt>
      <trkpt lat="44.17483" lon="5.28085">
        <ele>1877</ele>
        <time>2014-02-09T11:57:05.690Z</time>
      </trkpt>
      <trkpt lat="44.17488" lon="5.28083">
        <ele>1877</ele>
        <time>2014-02-09T11:57:14.620Z</time>
      </trkpt>
      <trkpt lat="44.17493" lon="5.28081">
        <ele>1878</ele>
        <time>2014-02-09T11:57:21.690Z</time>
      </trkpt>
      <trkpt lat="44.17498" lon="5.28079">
        <ele>1878</ele>
        <time>2014-02-09T11:57:29.690Z</time>
      </trkpt>
      <trkpt lat="44.17505" lon="5.28078">
        <ele>1877.6200064</ele>
        <time>2014-02-09T11:57:40.690Z</time>
      </trkpt>
      <trkpt lat="44.17509" lon="5.28075">
        <ele>1877</ele>
        <time>2014-02-09T11:57:47.620Z</time>
      </trkpt>
      <trkpt lat="44.17511" lon="5.28069">
        <ele>1877</ele>
        <time>2014-02-09T11:58:07.690Z</time>
      </trkpt>
      <trkpt lat="44.17515" lon="5.2807">
        <ele>1876</ele>
        <time>2014-02-09T12:09:51.690Z</time>
      </trkpt>
      <trkpt lat="44.17519" lon="5.28066">
        <ele>1876</ele>
        <time>2014-02-09T12:09:59.620Z</time>
      </trkpt>
      <trkpt lat="44.17523" lon="5.28055">
        <ele>1875</ele>
        <time>2014-02-09T12:10:10.560Z</time>
      </trkpt>
      <trkpt lat="44.17526" lon="5.28049">
        <ele>1875</ele>
        <time>2014-02-09T12:10:12.690Z</time>
      </trkpt>
      <trkpt lat="44.1753" lon="5.28048">
        <ele>1875</ele>
        <time>2014-02-09T12:10:14.690Z</time>
      </trkpt>
      <trkpt lat="44.17536" lon="5.28041">
        <ele>1875</ele>
        <time>2014-02-09T12:10:16.620Z</time>
      </trkpt>
      <trkpt lat="44.17544" lon="5.28036">
        <ele>1875</ele>
        <time>2014-02-09T12:10:18.690Z</time>
      </trkpt>
      <trkpt lat="44.17552" lon="5.28027">
        <ele>1871.2799616</ele>
        <time>2014-02-09T12:10:20.620Z</time>
      </trkpt>
      <trkpt lat="44.17562" lon="5.28031">
        <ele>1856.6200064</ele>
        <time>2014-02-09T12:10:22.690Z</time>
      </trkpt>
      <trkpt lat="44.17572" lon="5.28026">
        <ele>1853.0699904</ele>
        <time>2014-02-09T12:10:24.620Z</time>
      </trkpt>
      <trkpt lat="44.17581" lon="5.28023">
        <ele>1847.6200064</ele>
        <time>2014-02-09T12:10:26.690Z</time>
      </trkpt>
      <trkpt lat="44.17588" lon="5.28019">
        <ele>1845.2400128</ele>
        <time>2014-02-09T12:10:28.690Z</time>
      </trkpt>
      <trkpt lat="44.17596" lon="5.28025">
        <ele>1841</ele>
        <time>2014-02-09T12:10:30.690Z</time>
      </trkpt>
      <trkpt lat="44.17605" lon="5.2802">
        <ele>1839.2659422362</ele>
        <time>2014-02-09T12:10:32.620Z</time>
      </trkpt>
      <trkpt lat="44.17614" lon="5.28028">
        <ele>1831.6200064</ele>
        <time>2014-02-09T12:10:35.690Z</time>
      </trkpt>
      <trkpt lat="44.17617" lon="5.28041">
        <ele>1830</ele>
        <time>2014-02-09T12:10:38.690Z</time>
      </trkpt>
      <trkpt lat="44.17627" lon="5.28043">
        <ele>1825.8600192</ele>
        <time>2014-02-09T12:10:41.690Z</time>
      </trkpt>
      <trkpt lat="44.17636" lon="5.28053">
        <ele>1819.6200064</ele>
        <time>2014-02-09T12:10:44.690Z</time>
      </trkpt>
      <trkpt lat="44.17638" lon="5.28065">
        <ele>1817.6200064</ele>
        <time>2014-02-09T12:10:46.690Z</time>
      </trkpt>
      <trkpt lat="44.17649" lon="5.28063">
        <ele>1811.4081475386</ele>
        <time>2014-02-09T12:10:50.620Z</time>
      </trkpt>
      <trkpt lat="44.17661" lon="5.28056">
        <ele>1804.6200064</ele>
        <time>2014-02-09T12:10:53.690Z</time>
      </trkpt>
      <trkpt lat="44.17676" lon="5.28055">
        <ele>1799.8600192</ele>
        <time>2014-02-09T12:10:56.690Z</time>
      </trkpt>
      <trkpt lat="44.17681" lon="5.28072">
        <ele>1793.2400128</ele>
        <time>2014-02-09T12:10:58.690Z</time>
      </trkpt>
      <trkpt lat="44.17683" lon="5.28088">
        <ele>1791.2400128</ele>
        <time>2014-02-09T12:11:00.690Z</time>
      </trkpt>
      <trkpt lat="44.17683" lon="5.28102">
        <ele>1789</ele>
        <time>2014-02-09T12:11:03.690Z</time>
      </trkpt>
      <trkpt lat="44.1769" lon="5.28114">
        <ele>1786.2400128</ele>
        <time>2014-02-09T12:11:10.690Z</time>
      </trkpt>
      <trkpt lat="44.17691" lon="5.28129">
        <ele>1785</ele>
        <time>2014-02-09T12:11:13.690Z</time>
      </trkpt>
      <trkpt lat="44.17699" lon="5.2813">
        <ele>1782</ele>
        <time>2014-02-09T12:11:29.690Z</time>
      </trkpt>
      <trkpt lat="44.17711" lon="5.2813">
        <ele>1769.8600192</ele>
        <time>2014-02-09T12:11:32.690Z</time>
      </trkpt>
      <trkpt lat="44.1772" lon="5.28119">
        <ele>1765.2400128</ele>
        <time>2014-02-09T12:11:34.690Z</time>
      </trkpt>
      <trkpt lat="44.17727" lon="5.28108">
        <ele>1759.8600192</ele>
        <time>2014-02-09T12:11:36.690Z</time>
      </trkpt>
      <trkpt lat="44.17739" lon="5.28107">
        <ele>1753.2549098347</ele>
        <time>2014-02-09T12:11:39.690Z</time>
      </trkpt>
      <trkpt lat="44.17745" lon="5.28119">
        <ele>1746.6200064</ele>
        <time>2014-02-09T12:11:42.690Z</time>
      </trkpt>
      <trkpt lat="44.17754" lon="5.28116">
        <ele>1742.2400128</ele>
        <time>2014-02-09T12:11:45.690Z</time>
      </trkpt>
      <trkpt lat="44.17764" lon="5.2813">
        <ele>1734.8600192</ele>
        <time>2014-02-09T12:11:48.690Z</time>
      </trkpt>
      <trkpt lat="44.17766" lon="5.28149">
        <ele>1726.4800256</ele>
        <time>2014-02-09T12:11:50.690Z</time>
      </trkpt>
      <trkpt lat="44.17769" lon="5.28163">
        <ele>1721.6200064</ele>
        <time>2014-02-09T12:11:52.690Z</time>
      </trkpt>
      <trkpt lat="44.17783" lon="5.28164">
        <ele>1712.100032</ele>
        <time>2014-02-09T12:11:55.690Z</time>
      </trkpt>
      <trkpt lat="44.17792" lon="5.28175">
        <ele>1702.8400128</ele>
        <time>2014-02-09T12:11:57.620Z</time>
      </trkpt>
      <trkpt lat="44.17803" lon="5.28181">
        <ele>1696.4800256</ele>
        <time>2014-02-09T12:11:59.690Z</time>
      </trkpt>
      <trkpt lat="44.17809" lon="5.28174">
        <ele>1687.2400128</ele>
        <time>2014-02-09T12:12:01.690Z</time>
      </trkpt>
      <trkpt lat="44.17821" lon="5.28175">
        <ele>1684</ele>
        <time>2014-02-09T12:12:27.680Z</time>
      </trkpt>
      <trkpt lat="44.17834" lon="5.28176">
        <ele>1679.7778488889</ele>
        <time>2014-02-09T12:12:30.690Z</time>
      </trkpt>
      <trkpt lat="44.17842" lon="5.28174">
        <ele>1659</ele>
        <time>2014-02-09T12:12:35.690Z</time>
      </trkpt>
      <trkpt lat="44.17851" lon="5.28169">
        <ele>1657.6200064</ele>
        <time>2014-02-09T12:12:38.690Z</time>
      </trkpt>
      <trkpt lat="44.17862" lon="5.2817">
        <ele>1651.8600192</ele>
        <time>2014-02-09T12:12:40.690Z</time>
      </trkpt>
      <trkpt lat="44.17871" lon="5.28179">
        <ele>1644.6200064</ele>
        <time>2014-02-09T12:12:42.690Z</time>
      </trkpt>
      <trkpt lat="44.17882" lon="5.2818">
        <ele>1640.4800256</ele>
        <time>2014-02-09T12:12:45.690Z</time>
      </trkpt>
      <trkpt lat="44.17891" lon="5.28183">
        <ele>1632.4528153792</ele>
        <time>2014-02-09T12:12:48.620Z</time>
      </trkpt>
      <trkpt lat="44.179" lon="5.28192">
        <ele>1626.2400128</ele>
        <time>2014-02-09T12:12:51.690Z</time>
      </trkpt>
      <trkpt lat="44.17911" lon="5.28194">
        <ele>1619.5200128</ele>
        <time>2014-02-09T12:12:54.680Z</time>
      </trkpt>
      <trkpt lat="44.1792" lon="5.28204">
        <ele>1611.8600192</ele>
        <time>2014-02-09T12:12:57.690Z</time>
      </trkpt>
      <trkpt lat="44.1793" lon="5.28209">
        <ele>1603.2400128</ele>
        <time>2014-02-09T12:13:01.690Z</time>
      </trkpt>
      <trkpt lat="44.17937" lon="5.28219">
        <ele>1598</ele>
        <time>2014-02-09T12:13:04.690Z</time>
      </trkpt>
      <trkpt lat="44.17944" lon="5.28215">
        <ele>1590.3899904</ele>
        <time>2014-02-09T12:13:11.700Z</time>
      </trkpt>
      <trkpt lat="44.17956" lon="5.28214">
        <ele>1589</ele>
        <time>2014-02-09T12:14:14.560Z</time>
      </trkpt>
      <trkpt lat="44.17967" lon="5.2822">
        <ele>1589</ele>
        <time>2014-02-09T12:14:17.690Z</time>
      </trkpt>
      <trkpt lat="44.17974" lon="5.28222">
        <ele>1570</ele>
        <time>2014-02-09T12:14:28.690Z</time>
      </trkpt>
      <trkpt lat="44.17983" lon="5.28228">
        <ele>1565.3099904</ele>
        <time>2014-02-09T12:14:35.620Z</time>
      </trkpt>
      <trkpt lat="44.17994" lon="5.28231">
        <ele>1561</ele>
        <time>2014-02-09T12:14:46.700Z</time>
      </trkpt>
      <trkpt lat="44.18005" lon="5.28231">
        <ele>1550.6100096</ele>
        <time>2014-02-09T12:14:57.700Z</time>
      </trkpt>
      <trkpt lat="44.18015" lon="5.28228">
        <ele>1546</ele>
        <time>2014-02-09T12:15:28.690Z</time>
      </trkpt>
      <trkpt lat="44.18022" lon="5.28219">
        <ele>1544</ele>
        <time>2014-02-09T12:15:31.700Z</time>
      </trkpt>
      <trkpt lat="44.1803" lon="5.28207">
        <ele>1544</ele>
        <time>2014-02-09T12:15:34.690Z</time>
      </trkpt>
      <trkpt lat="44.18036" lon="5.28196">
        <ele>1544</ele>
        <time>2014-02-09T12:15:36.690Z</time>
      </trkpt>
      <trkpt lat="44.18043" lon="5.28184">
        <ele>1544</ele>
        <time>2014-02-09T12:15:39.620Z</time>
      </trkpt>
      <trkpt lat="44.1805" lon="5.28171">
        <ele>1541</ele>
        <time>2014-02-09T12:15:42.690Z</time>
      </trkpt>
      <trkpt lat="44.18059" lon="5.28156">
        <ele>1539.8600192</ele>
        <time>2014-02-09T12:15:45.690Z</time>
      </trkpt>
      <trkpt lat="44.18066" lon="5.2814">
        <ele>1538</ele>
        <time>2014-02-09T12:15:48.690Z</time>
      </trkpt>
      <trkpt lat="44.18072" lon="5.28124">
        <ele>1536</ele>
        <time>2014-02-09T12:15:51.700Z</time>
      </trkpt>
      <trkpt lat="44.18076" lon="5.28106">
        <ele>1536</ele>
        <time>2014-02-09T12:15:54.690Z</time>
      </trkpt>
      <trkpt lat="44.18079" lon="5.28086">
        <ele>1534</ele>
        <time>2014-02-09T12:15:57.690Z</time>
      </trkpt>
      <trkpt lat="44.18083" lon="5.28072">
        <ele>1534</ele>
        <time>2014-02-09T12:15:59.680Z</time>
      </trkpt>
      <trkpt lat="44.18085" lon="5.28061">
        <ele>1527.6200064</ele>
        <time>2014-02-09T12:16:07.690Z</time>
      </trkpt>
      <trkpt lat="44.18086" lon="5.28046">
        <ele>1528</ele>
        <time>2014-02-09T12:17:34.690Z</time>
      </trkpt>
      <trkpt lat="44.18086" lon="5.28037">
        <ele>1527</ele>
        <time>2014-02-09T12:17:46.690Z</time>
      </trkpt>
      <trkpt lat="44.1809" lon="5.28023">
        <ele>1525.8600192</ele>
        <time>2014-02-09T12:17:50.690Z</time>
      </trkpt>
      <trkpt lat="44.18092" lon="5.2801">
        <ele>1524</ele>
        <time>2014-02-09T12:17:54.620Z</time>
      </trkpt>
      <trkpt lat="44.18093" lon="5.27996">
        <ele>1521</ele>
        <time>2014-02-09T12:17:57.690Z</time>
      </trkpt>
      <trkpt lat="44.18095" lon="5.2798">
        <ele>1519.049984</ele>
        <time>2014-02-09T12:18:00.700Z</time>
      </trkpt>
      <trkpt lat="44.18097" lon="5.27964">
        <ele>1515</ele>
        <time>2014-02-09T12:18:03.700Z</time>
      </trkpt>
      <trkpt lat="44.18096" lon="5.27948">
        <ele>1514</ele>
        <time>2014-02-09T12:18:06.690Z</time>
      </trkpt>
      <trkpt lat="44.181" lon="5.27935">
        <ele>1511.6176415225</ele>
        <time>2014-02-09T12:18:10.700Z</time>
      </trkpt>
      <trkpt lat="44.18098" lon="5.27926">
        <ele>1511</ele>
        <time>2014-02-09T12:18:42.690Z</time>
      </trkpt>
      <trkpt lat="44.18102" lon="5.27913">
        <ele>1511</ele>
        <time>2014-02-09T12:18:48.690Z</time>
      </trkpt>
      <trkpt lat="44.18108" lon="5.279">
        <ele>1510</ele>
        <time>2014-02-09T12:18:53.690Z</time>
      </trkpt>
      <trkpt lat="44.18112" lon="5.27888">
        <ele>1510</ele>
        <time>2014-02-09T12:18:57.690Z</time>
      </trkpt>
      <trkpt lat="44.18116" lon="5.27873">
        <ele>1506</ele>
        <time>2014-02-09T12:19:02.620Z</time>
      </trkpt>
      <trkpt lat="44.18125" lon="5.27859">
        <ele>1504</ele>
        <time>2014-02-09T12:19:06.700Z</time>
      </trkpt>
      <trkpt lat="44.18129" lon="5.27844">
        <ele>1502.8600192</ele>
        <time>2014-02-09T12:19:10.690Z</time>
      </trkpt>
      <trkpt lat="44.18134" lon="5.2783">
        <ele>1500</ele>
        <time>2014-02-09T12:19:16.700Z</time>
      </trkpt>
      <trkpt lat="44.18141" lon="5.27812">
        <ele>1500</ele>
        <time>2014-02-09T12:19:19.620Z</time>
      </trkpt>
      <trkpt lat="44.18146" lon="5.27798">
        <ele>1498</ele>
        <time>2014-02-09T12:19:22.690Z</time>
      </trkpt>
      <trkpt lat="44.18152" lon="5.27783">
        <ele>1496</ele>
        <time>2014-02-09T12:19:26.700Z</time>
      </trkpt>
      <trkpt lat="44.18155" lon="5.27774">
        <ele>1496</ele>
        <time>2014-02-09T12:19:28.690Z</time>
      </trkpt>
      <trkpt lat="44.18157" lon="5.27766">
        <ele>1495.6200064</ele>
        <time>2014-02-09T12:19:30.690Z</time>
      </trkpt>
      <trkpt lat="44.18158" lon="5.27753">
        <ele>1495</ele>
        <time>2014-02-09T12:19:33.690Z</time>
      </trkpt>
      <trkpt lat="44.18157" lon="5.27744">
        <ele>1493</ele>
        <time>2014-02-09T12:19:43.690Z</time>
      </trkpt>
      <trkpt lat="44.18156" lon="5.27731">
        <ele>1493</ele>
        <time>2014-02-09T12:19:48.690Z</time>
      </trkpt>
      <trkpt lat="44.18157" lon="5.27719">
        <ele>1492.2400128</ele>
        <time>2014-02-09T12:19:50.690Z</time>
      </trkpt>
      <trkpt lat="44.18158" lon="5.27706">
        <ele>1491</ele>
        <time>2014-02-09T12:19:52.690Z</time>
      </trkpt>
      <trkpt lat="44.18155" lon="5.27693">
        <ele>1491</ele>
        <time>2014-02-09T12:19:55.690Z</time>
      </trkpt>
      <trkpt lat="44.18155" lon="5.2768">
        <ele>1491</ele>
        <time>2014-02-09T12:19:58.690Z</time>
      </trkpt>
      <trkpt lat="44.18155" lon="5.27669">
        <ele>1487</ele>
        <time>2014-02-09T12:20:01.690Z</time>
      </trkpt>
      <trkpt lat="44.18156" lon="5.27658">
        <ele>1487</ele>
        <time>2014-02-09T12:20:03.690Z</time>
      </trkpt>
      <trkpt lat="44.18156" lon="5.27648">
        <ele>1485</ele>
        <time>2014-02-09T12:20:06.700Z</time>
      </trkpt>
      <trkpt lat="44.18154" lon="5.2764">
        <ele>1484</ele>
        <time>2014-02-09T12:20:16.680Z</time>
      </trkpt>
      <trkpt lat="44.18154" lon="5.27631">
        <ele>1484</ele>
        <time>2014-02-09T12:20:18.690Z</time>
      </trkpt>
      <trkpt lat="44.18154" lon="5.27623">
        <ele>1484</ele>
        <time>2014-02-09T12:20:20.690Z</time>
      </trkpt>
      <trkpt lat="44.18155" lon="5.27613">
        <ele>1484</ele>
        <time>2014-02-09T12:20:23.690Z</time>
      </trkpt>
      <trkpt lat="44.18156" lon="5.27606">
        <ele>1484</ele>
        <time>2014-02-09T12:20:29.690Z</time>
      </trkpt>
      <trkpt lat="44.18155" lon="5.27597">
        <ele>1482</ele>
        <time>2014-02-09T12:20:33.690Z</time>
      </trkpt>
      <trkpt lat="44.18158" lon="5.27585">
        <ele>1482</ele>
        <time>2014-02-09T12:20:35.690Z</time>
      </trkpt>
      <trkpt lat="44.1816" lon="5.27567">
        <ele>1482</ele>
        <time>2014-02-09T12:20:37.690Z</time>
      </trkpt>
      <trkpt lat="44.18163" lon="5.27551">
        <ele>1482</ele>
        <time>2014-02-09T12:20:39.690Z</time>
      </trkpt>
      <trkpt lat="44.18165" lon="5.27538">
        <ele>1477</ele>
        <time>2014-02-09T12:20:41.700Z</time>
      </trkpt>
      <trkpt lat="44.18166" lon="5.27528">
        <ele>1477</ele>
        <time>2014-02-09T12:20:43.690Z</time>
      </trkpt>
      <trkpt lat="44.18167" lon="5.27521">
        <ele>1476.4081736609</ele>
        <time>2014-02-09T12:20:45.620Z</time>
      </trkpt>
      <trkpt lat="44.18166" lon="5.27513">
        <ele>1475</ele>
        <time>2014-02-09T12:20:48.690Z</time>
      </trkpt>
      <trkpt lat="44.18166" lon="5.27503">
        <ele>1475</ele>
        <time>2014-02-09T12:20:51.690Z</time>
      </trkpt>
      <trkpt lat="44.18165" lon="5.27496">
        <ele>1475</ele>
        <time>2014-02-09T12:20:55.690Z</time>
      </trkpt>
      <trkpt lat="44.1816" lon="5.27489">
        <ele>1474.2647106805</ele>
        <time>2014-02-09T12:21:00.560Z</time>
      </trkpt>
      <trkpt lat="44.18156" lon="5.2748">
        <ele>1472</ele>
        <time>2014-02-09T12:21:04.690Z</time>
      </trkpt>
      <trkpt lat="44.18159" lon="5.27467">
        <ele>1472</ele>
        <time>2014-02-09T12:21:06.690Z</time>
      </trkpt>
      <trkpt lat="44.18161" lon="5.27459">
        <ele>1472</ele>
        <time>2014-02-09T12:21:07.690Z</time>
      </trkpt>
      <trkpt lat="44.18167" lon="5.27452">
        <ele>1472</ele>
        <time>2014-02-09T12:21:08.680Z</time>
      </trkpt>
      <trkpt lat="44.18177" lon="5.27446">
        <ele>1471.2400128</ele>
        <time>2014-02-09T12:21:10.690Z</time>
      </trkpt>
      <trkpt lat="44.18186" lon="5.27445">
        <ele>1470</ele>
        <time>2014-02-09T12:21:12.690Z</time>
      </trkpt>
      <trkpt lat="44.18193" lon="5.27446">
        <ele>1470</ele>
        <time>2014-02-09T12:21:14.690Z</time>
      </trkpt>
      <trkpt lat="44.18199" lon="5.27445">
        <ele>1470</ele>
        <time>2014-02-09T12:21:17.690Z</time>
      </trkpt>
      <trkpt lat="44.18204" lon="5.27442">
        <ele>1466</ele>
        <time>2014-02-09T12:21:22.680Z</time>
      </trkpt>
      <trkpt lat="44.18211" lon="5.2744">
        <ele>1466</ele>
        <time>2014-02-09T12:21:24.690Z</time>
      </trkpt>
      <trkpt lat="44.1822" lon="5.27443">
        <ele>1466</ele>
        <time>2014-02-09T12:21:26.690Z</time>
      </trkpt>
      <trkpt lat="44.18228" lon="5.27454">
        <ele>1466</ele>
        <time>2014-02-09T12:21:28.690Z</time>
      </trkpt>
      <trkpt lat="44.18237" lon="5.27455">
        <ele>1464.8600192</ele>
        <time>2014-02-09T12:21:30.690Z</time>
      </trkpt>
      <trkpt lat="44.18243" lon="5.27448">
        <ele>1463</ele>
        <time>2014-02-09T12:21:33.690Z</time>
      </trkpt>
      <trkpt lat="44.18248" lon="5.27442">
        <ele>1460</ele>
        <time>2014-02-09T12:21:36.620Z</time>
      </trkpt>
      <trkpt lat="44.18253" lon="5.27438">
        <ele>1460</ele>
        <time>2014-02-09T12:21:38.690Z</time>
      </trkpt>
      <trkpt lat="44.18261" lon="5.27433">
        <ele>1459.2400128</ele>
        <time>2014-02-09T12:21:40.690Z</time>
      </trkpt>
      <trkpt lat="44.18265" lon="5.27424">
        <ele>1458</ele>
        <time>2014-02-09T12:21:42.690Z</time>
      </trkpt>
      <trkpt lat="44.18268" lon="5.27418">
        <ele>1455</ele>
        <time>2014-02-09T12:21:53.620Z</time>
      </trkpt>
      <trkpt lat="44.18273" lon="5.27411">
        <ele>1454.6200064</ele>
        <time>2014-02-09T12:21:55.690Z</time>
      </trkpt>
      <trkpt lat="44.1828" lon="5.27408">
        <ele>1454</ele>
        <time>2014-02-09T12:21:57.690Z</time>
      </trkpt>
      <trkpt lat="44.1829" lon="5.27411">
        <ele>1454</ele>
        <time>2014-02-09T12:21:59.700Z</time>
      </trkpt>
      <trkpt lat="44.18296" lon="5.27408">
        <ele>1452.4800256</ele>
        <time>2014-02-09T12:22:00.690Z</time>
      </trkpt>
      <trkpt lat="44.18302" lon="5.27404">
        <ele>1450</ele>
        <time>2014-02-09T12:22:01.700Z</time>
      </trkpt>
      <trkpt lat="44.18308" lon="5.274">
        <ele>1450</ele>
        <time>2014-02-09T12:22:02.680Z</time>
      </trkpt>
      <trkpt lat="44.18323" lon="5.274">
        <ele>1450</ele>
        <time>2014-02-09T12:22:04.700Z</time>
      </trkpt>
      <trkpt lat="44.1834" lon="5.27395">
        <ele>1442</ele>
        <time>2014-02-09T12:22:06.700Z</time>
      </trkpt>
      <trkpt lat="44.1835" lon="5.27394">
        <ele>1442</ele>
        <time>2014-02-09T12:22:07.690Z</time>
      </trkpt>
      <trkpt lat="44.1836" lon="5.27396">
        <ele>1442</ele>
        <time>2014-02-09T12:22:08.690Z</time>
      </trkpt>
      <trkpt lat="44.18371" lon="5.27398">
        <ele>1442</ele>
        <time>2014-02-09T12:22:09.560Z</time>
      </trkpt>
      <trkpt lat="44.18381" lon="5.27397">
        <ele>1439.3366639238</ele>
        <time>2014-02-09T12:22:10.620Z</time>
      </trkpt>
      <trkpt lat="44.18392" lon="5.27394">
        <ele>1431.050048</ele>
        <time>2014-02-09T12:22:11.700Z</time>
      </trkpt>
      <trkpt lat="44.18402" lon="5.27392">
        <ele>1425.2699776</ele>
        <time>2014-02-09T12:22:12.700Z</time>
      </trkpt>
      <trkpt lat="44.18412" lon="5.27392">
        <ele>1421.3099904</ele>
        <time>2014-02-09T12:22:13.620Z</time>
      </trkpt>
      <trkpt lat="44.18421" lon="5.27391">
        <ele>1422</ele>
        <time>2014-02-09T12:22:14.700Z</time>
      </trkpt>
      <trkpt lat="44.1843" lon="5.2739">
        <ele>1420.8300288</ele>
        <time>2014-02-09T12:22:15.700Z</time>
      </trkpt>
      <trkpt lat="44.18438" lon="5.27394">
        <ele>1417.8299904</ele>
        <time>2014-02-09T12:22:16.700Z</time>
      </trkpt>
      <trkpt lat="44.18448" lon="5.27407">
        <ele>1413.6099968</ele>
        <time>2014-02-09T12:22:18.700Z</time>
      </trkpt>
      <trkpt lat="44.18453" lon="5.27421">
        <ele>1413</ele>
        <time>2014-02-09T12:22:20.690Z</time>
      </trkpt>
      <trkpt lat="44.18459" lon="5.27434">
        <ele>1412</ele>
        <time>2014-02-09T12:22:22.700Z</time>
      </trkpt>
      <trkpt lat="44.18463" lon="5.27446">
        <ele>1412</ele>
        <time>2014-02-09T12:22:24.700Z</time>
      </trkpt>
      <trkpt lat="44.18466" lon="5.27458">
        <ele>1411.72</ele>
        <time>2014-02-09T12:22:26.610Z</time>
      </trkpt>
      <trkpt lat="44.1847" lon="5.27467">
        <ele>1410.6099968</ele>
        <time>2014-02-09T12:22:28.700Z</time>
      </trkpt>
      <trkpt lat="44.18474" lon="5.27477">
        <ele>1409.6200064</ele>
        <time>2014-02-09T12:22:30.690Z</time>
      </trkpt>
      <trkpt lat="44.18476" lon="5.27487">
        <ele>1409</ele>
        <time>2014-02-09T12:22:32.690Z</time>
      </trkpt>
      <trkpt lat="44.18476" lon="5.27495">
        <ele>1408</ele>
        <time>2014-02-09T12:22:36.700Z</time>
      </trkpt>
      <trkpt lat="44.18477" lon="5.27487">
        <ele>1408</ele>
        <time>2014-02-09T12:22:48.690Z</time>
      </trkpt>
      <trkpt lat="44.18477" lon="5.27481">
        <ele>1408</ele>
        <time>2014-02-09T12:22:50.690Z</time>
      </trkpt>
      <trkpt lat="44.18476" lon="5.27473">
        <ele>1408</ele>
        <time>2014-02-09T12:22:53.690Z</time>
      </trkpt>
      <trkpt lat="44.18481" lon="5.27477">
        <ele>1408</ele>
        <time>2014-02-09T12:22:59.690Z</time>
      </trkpt>
      <trkpt lat="44.1848" lon="5.27487">
        <ele>1406</ele>
        <time>2014-02-09T12:23:01.620Z</time>
      </trkpt>
      <trkpt lat="44.18477" lon="5.27494">
        <ele>1406</ele>
        <time>2014-02-09T12:23:03.690Z</time>
      </trkpt>
      <trkpt lat="44.18474" lon="5.27504">
        <ele>1406</ele>
        <time>2014-02-09T12:23:07.690Z</time>
      </trkpt>
      <trkpt lat="44.18477" lon="5.2751">
        <ele>1406</ele>
        <time>2014-02-09T12:23:11.690Z</time>
      </trkpt>
      <trkpt lat="44.18481" lon="5.27512">
        <ele>1406</ele>
        <time>2014-02-09T12:23:13.690Z</time>
      </trkpt>
      <trkpt lat="44.18485" lon="5.27518">
        <ele>1406</ele>
        <time>2014-02-09T12:23:17.620Z</time>
      </trkpt>
      <trkpt lat="44.18485" lon="5.27524">
        <ele>1405.72</ele>
        <time>2014-02-09T12:23:20.590Z</time>
      </trkpt>
      <trkpt lat="44.18483" lon="5.2753">
        <ele>1404</ele>
        <time>2014-02-09T12:24:03.590Z</time>
      </trkpt>
      <trkpt lat="44.18478" lon="5.27544">
        <ele>1405</ele>
        <time>2014-02-09T12:28:09.600Z</time>
      </trkpt>
      <trkpt lat="44.18477" lon="5.27558">
        <ele>1405</ele>
        <time>2014-02-09T12:28:15.600Z</time>
      </trkpt>
      <trkpt lat="44.18479" lon="5.27544">
        <ele>1405</ele>
        <time>2014-02-09T12:28:34.600Z</time>
      </trkpt>
      <trkpt lat="44.18485" lon="5.27533">
        <ele>1405</ele>
        <time>2014-02-09T12:28:42.600Z</time>
      </trkpt>
      <trkpt lat="44.18477" lon="5.2753">
        <ele>1405</ele>
        <time>2014-02-09T12:29:24.590Z</time>
      </trkpt>
      <trkpt lat="44.18471" lon="5.27524">
        <ele>1405</ele>
        <time>2014-02-09T12:29:34.590Z</time>
      </trkpt>
      <trkpt lat="44.18471" lon="5.27518">
        <ele>1407</ele>
        <time>2014-02-09T12:31:55.620Z</time>
      </trkpt>
      <trkpt lat="44.18481" lon="5.27503">
        <ele>1408</ele>
        <time>2014-02-09T13:15:34.500Z</time>
      </trkpt>
      <trkpt lat="44.18481" lon="5.27503">
        <ele>1408</ele>
        <time>2014-02-09T13:15:42.490Z</time>
      </trkpt>
      <trkpt lat="44.18481" lon="5.27489">
        <ele>1408</ele>
        <time>2014-02-09T13:15:58.490Z</time>
      </trkpt>
      <trkpt lat="44.18482" lon="5.27479">
        <ele>1408</ele>
        <time>2014-02-09T13:16:05.490Z</time>
      </trkpt>
      <trkpt lat="44.18473" lon="5.27472">
        <ele>1409</ele>
        <time>2014-02-09T13:16:23.490Z</time>
      </trkpt>
      <trkpt lat="44.18467" lon="5.27461">
        <ele>1412</ele>
        <time>2014-02-09T13:23:08.590Z</time>
      </trkpt>
      <trkpt lat="44.18468" lon="5.27446">
        <ele>1414</ele>
        <time>2014-02-09T13:23:16.590Z</time>
      </trkpt>
      <trkpt lat="44.1846" lon="5.27437">
        <ele>1414</ele>
        <time>2014-02-09T13:23:27.590Z</time>
      </trkpt>
      <trkpt lat="44.18451" lon="5.2743">
        <ele>1414</ele>
        <time>2014-02-09T13:23:36.490Z</time>
      </trkpt>
      <trkpt lat="44.18445" lon="5.27418">
        <ele>1416</ele>
        <time>2014-02-09T13:23:48.420Z</time>
      </trkpt>
      <trkpt lat="44.18438" lon="5.27408">
        <ele>1419</ele>
        <time>2014-02-09T13:24:01.430Z</time>
      </trkpt>
      <trkpt lat="44.18428" lon="5.27402">
        <ele>1419</ele>
        <time>2014-02-09T13:24:13.490Z</time>
      </trkpt>
      <trkpt lat="44.18419" lon="5.27397">
        <ele>1421.1099904</ele>
        <time>2014-02-09T13:24:24.420Z</time>
      </trkpt>
      <trkpt lat="44.18409" lon="5.27392">
        <ele>1424</ele>
        <time>2014-02-09T13:24:36.490Z</time>
      </trkpt>
      <trkpt lat="44.18398" lon="5.27388">
        <ele>1426</ele>
        <time>2014-02-09T13:24:47.490Z</time>
      </trkpt>
      <trkpt lat="44.18387" lon="5.27387">
        <ele>1428</ele>
        <time>2014-02-09T13:24:59.490Z</time>
      </trkpt>
      <trkpt lat="44.18377" lon="5.27384">
        <ele>1430</ele>
        <time>2014-02-09T13:25:14.490Z</time>
      </trkpt>
      <trkpt lat="44.18367" lon="5.27381">
        <ele>1434</ele>
        <time>2014-02-09T13:25:27.490Z</time>
      </trkpt>
      <trkpt lat="44.18357" lon="5.27377">
        <ele>1436</ele>
        <time>2014-02-09T13:25:43.590Z</time>
      </trkpt>
      <trkpt lat="44.18347" lon="5.27376">
        <ele>1438</ele>
        <time>2014-02-09T13:25:57.490Z</time>
      </trkpt>
      <trkpt lat="44.18337" lon="5.27373">
        <ele>1441</ele>
        <time>2014-02-09T13:26:18.490Z</time>
      </trkpt>
      <trkpt lat="44.18327" lon="5.27371">
        <ele>1443</ele>
        <time>2014-02-09T13:26:29.690Z</time>
      </trkpt>
      <trkpt lat="44.18317" lon="5.27368">
        <ele>1445.5399808</ele>
        <time>2014-02-09T13:26:40.490Z</time>
      </trkpt>
      <trkpt lat="44.18307" lon="5.27365">
        <ele>1449.3599872</ele>
        <time>2014-02-09T13:26:50.490Z</time>
      </trkpt>
      <trkpt lat="44.18298" lon="5.2736">
        <ele>1451</ele>
        <time>2014-02-09T13:27:05.490Z</time>
      </trkpt>
      <trkpt lat="44.18287" lon="5.27358">
        <ele>1453</ele>
        <time>2014-02-09T13:27:19.590Z</time>
      </trkpt>
      <trkpt lat="44.18277" lon="5.27356">
        <ele>1459</ele>
        <time>2014-02-09T13:27:32.590Z</time>
      </trkpt>
      <trkpt lat="44.18267" lon="5.27353">
        <ele>1462</ele>
        <time>2014-02-09T13:27:46.520Z</time>
      </trkpt>
      <trkpt lat="44.18257" lon="5.2735">
        <ele>1463</ele>
        <time>2014-02-09T13:28:01.590Z</time>
      </trkpt>
      <trkpt lat="44.18247" lon="5.27347">
        <ele>1467</ele>
        <time>2014-02-09T13:28:23.590Z</time>
      </trkpt>
      <trkpt lat="44.18237" lon="5.27344">
        <ele>1469</ele>
        <time>2014-02-09T13:28:35.590Z</time>
      </trkpt>
      <trkpt lat="44.18227" lon="5.2734">
        <ele>1472</ele>
        <time>2014-02-09T13:28:47.590Z</time>
      </trkpt>
      <trkpt lat="44.18218" lon="5.27333">
        <ele>1474</ele>
        <time>2014-02-09T13:28:59.590Z</time>
      </trkpt>
      <trkpt lat="44.18208" lon="5.27328">
        <ele>1477</ele>
        <time>2014-02-09T13:29:12.590Z</time>
      </trkpt>
      <trkpt lat="44.18199" lon="5.27322">
        <ele>1478</ele>
        <time>2014-02-09T13:29:26.590Z</time>
      </trkpt>
      <trkpt lat="44.18189" lon="5.27318">
        <ele>1480.5399808</ele>
        <time>2014-02-09T13:29:40.490Z</time>
      </trkpt>
      <trkpt lat="44.1818" lon="5.27313">
        <ele>1485</ele>
        <time>2014-02-09T13:29:56.490Z</time>
      </trkpt>
      <trkpt lat="44.1817" lon="5.2731">
        <ele>1490.1799936</ele>
        <time>2014-02-09T13:30:10.490Z</time>
      </trkpt>
      <trkpt lat="44.1816" lon="5.27307">
        <ele>1493</ele>
        <time>2014-02-09T13:30:24.490Z</time>
      </trkpt>
      <trkpt lat="44.1815" lon="5.27303">
        <ele>1495</ele>
        <time>2014-02-09T13:30:39.490Z</time>
      </trkpt>
      <trkpt lat="44.18141" lon="5.27296">
        <ele>1499</ele>
        <time>2014-02-09T13:30:54.490Z</time>
      </trkpt>
      <trkpt lat="44.18131" lon="5.27291">
        <ele>1503.0729066667</ele>
        <time>2014-02-09T13:31:10.420Z</time>
      </trkpt>
      <trkpt lat="44.18121" lon="5.27289">
        <ele>1506</ele>
        <time>2014-02-09T13:31:24.490Z</time>
      </trkpt>
      <trkpt lat="44.18111" lon="5.27284">
        <ele>1511</ele>
        <time>2014-02-09T13:31:41.490Z</time>
      </trkpt>
      <trkpt lat="44.18106" lon="5.2728">
        <ele>1513</ele>
        <time>2014-02-09T13:31:52.490Z</time>
      </trkpt>
      <trkpt lat="44.18101" lon="5.27276">
        <ele>1516</ele>
        <time>2014-02-09T13:32:01.430Z</time>
      </trkpt>
      <trkpt lat="44.18095" lon="5.27273">
        <ele>1519</ele>
        <time>2014-02-09T13:32:12.490Z</time>
      </trkpt>
      <trkpt lat="44.1809" lon="5.27268">
        <ele>1521</ele>
        <time>2014-02-09T13:32:23.490Z</time>
      </trkpt>
      <trkpt lat="44.18085" lon="5.27263">
        <ele>1522</ele>
        <time>2014-02-09T13:32:32.490Z</time>
      </trkpt>
      <trkpt lat="44.18079" lon="5.2726">
        <ele>1524</ele>
        <time>2014-02-09T13:32:41.590Z</time>
      </trkpt>
      <trkpt lat="44.18076" lon="5.27259">
        <ele>1525</ele>
        <time>2014-02-09T13:32:59.590Z</time>
      </trkpt>
      <trkpt lat="44.1807" lon="5.27258">
        <ele>1525</ele>
        <time>2014-02-09T13:33:09.520Z</time>
      </trkpt>
      <trkpt lat="44.18064" lon="5.27258">
        <ele>1527</ele>
        <time>2014-02-09T13:33:18.460Z</time>
      </trkpt>
      <trkpt lat="44.18057" lon="5.27258">
        <ele>1529</ele>
        <time>2014-02-09T13:33:26.520Z</time>
      </trkpt>
      <trkpt lat="44.18047" lon="5.27257">
        <ele>1534</ele>
        <time>2014-02-09T13:33:39.590Z</time>
      </trkpt>
      <trkpt lat="44.18037" lon="5.27257">
        <ele>1537</ele>
        <time>2014-02-09T13:33:52.520Z</time>
      </trkpt>
      <trkpt lat="44.18028" lon="5.2725">
        <ele>1539</ele>
        <time>2014-02-09T13:34:05.590Z</time>
      </trkpt>
      <trkpt lat="44.18022" lon="5.27244">
        <ele>1540</ele>
        <time>2014-02-09T13:34:14.580Z</time>
      </trkpt>
      <trkpt lat="44.18012" lon="5.27241">
        <ele>1541</ele>
        <time>2014-02-09T13:34:27.590Z</time>
      </trkpt>
      <trkpt lat="44.18002" lon="5.27242">
        <ele>1546</ele>
        <time>2014-02-09T13:34:54.590Z</time>
      </trkpt>
      <trkpt lat="44.17992" lon="5.27247">
        <ele>1550</ele>
        <time>2014-02-09T13:35:06.590Z</time>
      </trkpt>
      <trkpt lat="44.17983" lon="5.27251">
        <ele>1552.84</ele>
        <time>2014-02-09T13:35:20.590Z</time>
      </trkpt>
      <trkpt lat="44.17973" lon="5.27254">
        <ele>1557</ele>
        <time>2014-02-09T13:35:34.520Z</time>
      </trkpt>
      <trkpt lat="44.17965" lon="5.27255">
        <ele>1558</ele>
        <time>2014-02-09T13:35:47.590Z</time>
      </trkpt>
      <trkpt lat="44.17955" lon="5.27258">
        <ele>1562</ele>
        <time>2014-02-09T13:36:01.490Z</time>
      </trkpt>
      <trkpt lat="44.17946" lon="5.27261">
        <ele>1564</ele>
        <time>2014-02-09T13:36:15.490Z</time>
      </trkpt>
      <trkpt lat="44.17937" lon="5.27266">
        <ele>1568</ele>
        <time>2014-02-09T13:36:31.490Z</time>
      </trkpt>
      <trkpt lat="44.1793" lon="5.27271">
        <ele>1570</ele>
        <time>2014-02-09T13:36:45.490Z</time>
      </trkpt>
      <trkpt lat="44.17924" lon="5.27273">
        <ele>1573</ele>
        <time>2014-02-09T13:36:57.490Z</time>
      </trkpt>
      <trkpt lat="44.17918" lon="5.27278">
        <ele>1575</ele>
        <time>2014-02-09T13:37:08.490Z</time>
      </trkpt>
      <trkpt lat="44.17912" lon="5.27282">
        <ele>1576</ele>
        <time>2014-02-09T13:37:19.490Z</time>
      </trkpt>
      <trkpt lat="44.17906" lon="5.27286">
        <ele>1582</ele>
        <time>2014-02-09T13:37:33.480Z</time>
      </trkpt>
      <trkpt lat="44.17899" lon="5.2729">
        <ele>1584</ele>
        <time>2014-02-09T13:37:45.490Z</time>
      </trkpt>
      <trkpt lat="44.17891" lon="5.27294">
        <ele>1588</ele>
        <time>2014-02-09T13:38:01.590Z</time>
      </trkpt>
      <trkpt lat="44.17885" lon="5.27299">
        <ele>1590</ele>
        <time>2014-02-09T13:38:13.590Z</time>
      </trkpt>
      <trkpt lat="44.17879" lon="5.273">
        <ele>1592.56</ele>
        <time>2014-02-09T13:38:40.590Z</time>
      </trkpt>
      <trkpt lat="44.17872" lon="5.27304">
        <ele>1594.56</ele>
        <time>2014-02-09T13:38:50.590Z</time>
      </trkpt>
      <trkpt lat="44.17865" lon="5.27307">
        <ele>1599</ele>
        <time>2014-02-09T13:39:02.590Z</time>
      </trkpt>
      <trkpt lat="44.17857" lon="5.27308">
        <ele>1601</ele>
        <time>2014-02-09T13:39:12.490Z</time>
      </trkpt>
      <trkpt lat="44.17852" lon="5.27313">
        <ele>1603</ele>
        <time>2014-02-09T13:39:24.490Z</time>
      </trkpt>
      <trkpt lat="44.17845" lon="5.27318">
        <ele>1606</ele>
        <time>2014-02-09T13:39:34.490Z</time>
      </trkpt>
      <trkpt lat="44.17838" lon="5.27322">
        <ele>1608</ele>
        <time>2014-02-09T13:39:47.490Z</time>
      </trkpt>
      <trkpt lat="44.1783" lon="5.27326">
        <ele>1610</ele>
        <time>2014-02-09T13:39:58.490Z</time>
      </trkpt>
      <trkpt lat="44.17821" lon="5.27332">
        <ele>1614</ele>
        <time>2014-02-09T13:40:15.490Z</time>
      </trkpt>
      <trkpt lat="44.17814" lon="5.27338">
        <ele>1616.4908944925</ele>
        <time>2014-02-09T13:40:30.490Z</time>
      </trkpt>
      <trkpt lat="44.17807" lon="5.27342">
        <ele>1620</ele>
        <time>2014-02-09T13:40:44.490Z</time>
      </trkpt>
      <trkpt lat="44.17799" lon="5.27345">
        <ele>1622</ele>
        <time>2014-02-09T13:40:56.490Z</time>
      </trkpt>
      <trkpt lat="44.17791" lon="5.27346">
        <ele>1624</ele>
        <time>2014-02-09T13:41:09.590Z</time>
      </trkpt>
      <trkpt lat="44.17784" lon="5.2735">
        <ele>1628</ele>
        <time>2014-02-09T13:41:24.590Z</time>
      </trkpt>
      <trkpt lat="44.17776" lon="5.27354">
        <ele>1630</ele>
        <time>2014-02-09T13:41:37.590Z</time>
      </trkpt>
      <trkpt lat="44.17769" lon="5.27356">
        <ele>1632</ele>
        <time>2014-02-09T13:41:48.500Z</time>
      </trkpt>
      <trkpt lat="44.17762" lon="5.27359">
        <ele>1634</ele>
        <time>2014-02-09T13:41:59.590Z</time>
      </trkpt>
      <trkpt lat="44.17755" lon="5.27357">
        <ele>1637</ele>
        <time>2014-02-09T13:42:08.590Z</time>
      </trkpt>
      <trkpt lat="44.17747" lon="5.27358">
        <ele>1639</ele>
        <time>2014-02-09T13:42:17.590Z</time>
      </trkpt>
      <trkpt lat="44.17739" lon="5.27358">
        <ele>1641</ele>
        <time>2014-02-09T13:42:27.580Z</time>
      </trkpt>
      <trkpt lat="44.17732" lon="5.27357">
        <ele>1643</ele>
        <time>2014-02-09T13:42:34.590Z</time>
      </trkpt>
      <trkpt lat="44.17729" lon="5.27356">
        <ele>1643.6299904</ele>
        <time>2014-02-09T13:42:40.520Z</time>
      </trkpt>
      <trkpt lat="44.17724" lon="5.27355">
        <ele>1648</ele>
        <time>2014-02-09T13:42:46.590Z</time>
      </trkpt>
      <trkpt lat="44.1772" lon="5.27356">
        <ele>1649</ele>
        <time>2014-02-09T13:42:52.590Z</time>
      </trkpt>
      <trkpt lat="44.17716" lon="5.27354">
        <ele>1651</ele>
        <time>2014-02-09T13:42:58.590Z</time>
      </trkpt>
      <trkpt lat="44.17712" lon="5.27353">
        <ele>1651</ele>
        <time>2014-02-09T13:43:05.590Z</time>
      </trkpt>
      <trkpt lat="44.17708" lon="5.27351">
        <ele>1651.84</ele>
        <time>2014-02-09T13:43:10.590Z</time>
      </trkpt>
      <trkpt lat="44.17707" lon="5.27337">
        <ele>1656</ele>
        <time>2014-02-09T13:43:20.590Z</time>
      </trkpt>
      <trkpt lat="44.17709" lon="5.27329">
        <ele>1656</ele>
        <time>2014-02-09T13:43:27.590Z</time>
      </trkpt>
      <trkpt lat="44.1771" lon="5.27318">
        <ele>1657.28</ele>
        <time>2014-02-09T13:43:40.590Z</time>
      </trkpt>
      <trkpt lat="44.17713" lon="5.27307">
        <ele>1658</ele>
        <time>2014-02-09T13:43:48.460Z</time>
      </trkpt>
      <trkpt lat="44.17719" lon="5.27297">
        <ele>1661</ele>
        <time>2014-02-09T13:44:02.590Z</time>
      </trkpt>
      <trkpt lat="44.17726" lon="5.27289">
        <ele>1662</ele>
        <time>2014-02-09T13:44:11.590Z</time>
      </trkpt>
      <trkpt lat="44.17732" lon="5.27278">
        <ele>1664</ele>
        <time>2014-02-09T13:44:22.520Z</time>
      </trkpt>
      <trkpt lat="44.17736" lon="5.27265">
        <ele>1666</ele>
        <time>2014-02-09T13:44:33.480Z</time>
      </trkpt>
      <trkpt lat="44.17737" lon="5.27256">
        <ele>1667</ele>
        <time>2014-02-09T13:44:41.490Z</time>
      </trkpt>
      <trkpt lat="44.17736" lon="5.27245">
        <ele>1666.6200064</ele>
        <time>2014-02-09T13:44:48.690Z</time>
      </trkpt>
      <trkpt lat="44.17737" lon="5.27235">
        <ele>1668</ele>
        <time>2014-02-09T13:44:56.420Z</time>
      </trkpt>
      <trkpt lat="44.17736" lon="5.27221">
        <ele>1669</ele>
        <time>2014-02-09T13:45:07.490Z</time>
      </trkpt>
      <trkpt lat="44.17733" lon="5.27208">
        <ele>1671</ele>
        <time>2014-02-09T13:45:18.490Z</time>
      </trkpt>
      <trkpt lat="44.17729" lon="5.27199">
        <ele>1676</ele>
        <time>2014-02-09T13:45:33.490Z</time>
      </trkpt>
      <trkpt lat="44.17728" lon="5.27192">
        <ele>1675</ele>
        <time>2014-02-09T13:55:47.490Z</time>
      </trkpt>
      <trkpt lat="44.17728" lon="5.27183">
        <ele>1674</ele>
        <time>2014-02-09T13:56:03.490Z</time>
      </trkpt>
      <trkpt lat="44.1773" lon="5.27176">
        <ele>1674</ele>
        <time>2014-02-09T13:56:06.420Z</time>
      </trkpt>
      <trkpt lat="44.17731" lon="5.27166">
        <ele>1674</ele>
        <time>2014-02-09T13:56:09.490Z</time>
      </trkpt>
      <trkpt lat="44.17733" lon="5.27157">
        <ele>1674</ele>
        <time>2014-02-09T13:56:11.490Z</time>
      </trkpt>
      <trkpt lat="44.17735" lon="5.27147">
        <ele>1674</ele>
        <time>2014-02-09T13:56:13.490Z</time>
      </trkpt>
      <trkpt lat="44.17737" lon="5.27136">
        <ele>1674</ele>
        <time>2014-02-09T13:56:15.490Z</time>
      </trkpt>
      <trkpt lat="44.17739" lon="5.27122">
        <ele>1674</ele>
        <time>2014-02-09T13:56:17.490Z</time>
      </trkpt>
      <trkpt lat="44.17741" lon="5.27106">
        <ele>1674</ele>
        <time>2014-02-09T13:56:19.490Z</time>
      </trkpt>
      <trkpt lat="44.17744" lon="5.27089">
        <ele>1672</ele>
        <time>2014-02-09T13:56:21.500Z</time>
      </trkpt>
      <trkpt lat="44.17748" lon="5.2707">
        <ele>1672</ele>
        <time>2014-02-09T13:56:23.420Z</time>
      </trkpt>
      <trkpt lat="44.17753" lon="5.27053">
        <ele>1672</ele>
        <time>2014-02-09T13:56:25.490Z</time>
      </trkpt>
      <trkpt lat="44.17754" lon="5.27037">
        <ele>1672</ele>
        <time>2014-02-09T13:56:27.490Z</time>
      </trkpt>
      <trkpt lat="44.17756" lon="5.27024">
        <ele>1672</ele>
        <time>2014-02-09T13:56:29.500Z</time>
      </trkpt>
      <trkpt lat="44.17757" lon="5.27005">
        <ele>1663.8100096</ele>
        <time>2014-02-09T13:56:32.500Z</time>
      </trkpt>
      <trkpt lat="44.17758" lon="5.26991">
        <ele>1662</ele>
        <time>2014-02-09T13:56:36.700Z</time>
      </trkpt>
      <trkpt lat="44.1776" lon="5.26974">
        <ele>1661.8269292308</ele>
        <time>2014-02-09T13:56:39.490Z</time>
      </trkpt>
      <trkpt lat="44.1776" lon="5.26957">
        <ele>1661</ele>
        <time>2014-02-09T13:56:41.490Z</time>
      </trkpt>
      <trkpt lat="44.17761" lon="5.2694">
        <ele>1661</ele>
        <time>2014-02-09T13:56:43.490Z</time>
      </trkpt>
      <trkpt lat="44.17763" lon="5.26922">
        <ele>1660.4600192</ele>
        <time>2014-02-09T13:56:45.490Z</time>
      </trkpt>
      <trkpt lat="44.17765" lon="5.26904">
        <ele>1658</ele>
        <time>2014-02-09T13:56:47.490Z</time>
      </trkpt>
      <trkpt lat="44.17765" lon="5.26885">
        <ele>1658</ele>
        <time>2014-02-09T13:56:49.500Z</time>
      </trkpt>
      <trkpt lat="44.17764" lon="5.26865">
        <ele>1654.6199936</ele>
        <time>2014-02-09T13:56:51.500Z</time>
      </trkpt>
      <trkpt lat="44.17764" lon="5.26846">
        <ele>1652.8099968</ele>
        <time>2014-02-09T13:56:53.500Z</time>
      </trkpt>
      <trkpt lat="44.17765" lon="5.26826">
        <ele>1651.1900032</ele>
        <time>2014-02-09T13:56:55.500Z</time>
      </trkpt>
      <trkpt lat="44.17766" lon="5.26806">
        <ele>1651</ele>
        <time>2014-02-09T13:56:57.400Z</time>
      </trkpt>
      <trkpt lat="44.17765" lon="5.26786">
        <ele>1651</ele>
        <time>2014-02-09T13:56:59.500Z</time>
      </trkpt>
      <trkpt lat="44.17766" lon="5.26765">
        <ele>1650</ele>
        <time>2014-02-09T13:57:01.500Z</time>
      </trkpt>
      <trkpt lat="44.17768" lon="5.26745">
        <ele>1650</ele>
        <time>2014-02-09T13:57:03.490Z</time>
      </trkpt>
      <trkpt lat="44.17769" lon="5.26723">
        <ele>1649.6400128</ele>
        <time>2014-02-09T13:57:05.490Z</time>
      </trkpt>
      <trkpt lat="44.17769" lon="5.26702">
        <ele>1648</ele>
        <time>2014-02-09T13:57:07.400Z</time>
      </trkpt>
      <trkpt lat="44.17768" lon="5.26681">
        <ele>1648</ele>
        <time>2014-02-09T13:57:09.500Z</time>
      </trkpt>
      <trkpt lat="44.17767" lon="5.26661">
        <ele>1645</ele>
        <time>2014-02-09T13:57:11.500Z</time>
      </trkpt>
      <trkpt lat="44.17765" lon="5.26642">
        <ele>1645</ele>
        <time>2014-02-09T13:57:13.490Z</time>
      </trkpt>
      <trkpt lat="44.17763" lon="5.26622">
        <ele>1644.2800256</ele>
        <time>2014-02-09T13:57:15.490Z</time>
      </trkpt>
      <trkpt lat="44.17762" lon="5.26603">
        <ele>1641</ele>
        <time>2014-02-09T13:57:17.490Z</time>
      </trkpt>
      <trkpt lat="44.17765" lon="5.26585">
        <ele>1641</ele>
        <time>2014-02-09T13:57:19.480Z</time>
      </trkpt>
      <trkpt lat="44.1777" lon="5.26567">
        <ele>1636.6199936</ele>
        <time>2014-02-09T13:57:21.500Z</time>
      </trkpt>
      <trkpt lat="44.17775" lon="5.26549">
        <ele>1635</ele>
        <time>2014-02-09T13:57:23.500Z</time>
      </trkpt>
      <trkpt lat="44.17778" lon="5.26529">
        <ele>1633.8099968</ele>
        <time>2014-02-09T13:57:25.500Z</time>
      </trkpt>
      <trkpt lat="44.17782" lon="5.26509">
        <ele>1631.8099968</ele>
        <time>2014-02-09T13:57:27.500Z</time>
      </trkpt>
      <trkpt lat="44.17784" lon="5.26488">
        <ele>1629.8099968</ele>
        <time>2014-02-09T13:57:29.500Z</time>
      </trkpt>
      <trkpt lat="44.17786" lon="5.26466">
        <ele>1628</ele>
        <time>2014-02-09T13:57:31.420Z</time>
      </trkpt>
      <trkpt lat="44.17788" lon="5.26444">
        <ele>1626.8300032</ele>
        <time>2014-02-09T13:57:33.480Z</time>
      </trkpt>
      <trkpt lat="44.17788" lon="5.26421">
        <ele>1626</ele>
        <time>2014-02-09T13:57:35.500Z</time>
      </trkpt>
      <trkpt lat="44.17788" lon="5.264">
        <ele>1624.1900032</ele>
        <time>2014-02-09T13:57:37.500Z</time>
      </trkpt>
      <trkpt lat="44.17788" lon="5.26378">
        <ele>1622.8099968</ele>
        <time>2014-02-09T13:57:39.500Z</time>
      </trkpt>
      <trkpt lat="44.17789" lon="5.26367">
        <ele>1621.4300288</ele>
        <time>2014-02-09T13:57:40.500Z</time>
      </trkpt>
      <trkpt lat="44.1779" lon="5.26344">
        <ele>1616.8100096</ele>
        <time>2014-02-09T13:57:42.500Z</time>
      </trkpt>
      <trkpt lat="44.17789" lon="5.26319">
        <ele>1614.8100096</ele>
        <time>2014-02-09T13:57:44.500Z</time>
      </trkpt>
      <trkpt lat="44.17788" lon="5.26294">
        <ele>1613</ele>
        <time>2014-02-09T13:57:46.500Z</time>
      </trkpt>
      <trkpt lat="44.17786" lon="5.26267">
        <ele>1614</ele>
        <time>2014-02-09T13:57:48.430Z</time>
      </trkpt>
      <trkpt lat="44.17786" lon="5.2624">
        <ele>1613.8100096</ele>
        <time>2014-02-09T13:57:50.500Z</time>
      </trkpt>
      <trkpt lat="44.17784" lon="5.26214">
        <ele>1611.8100096</ele>
        <time>2014-02-09T13:57:52.500Z</time>
      </trkpt>
      <trkpt lat="44.17782" lon="5.26188">
        <ele>1610.8100096</ele>
        <time>2014-02-09T13:57:54.500Z</time>
      </trkpt>
      <trkpt lat="44.17782" lon="5.26162">
        <ele>1608.6200192</ele>
        <time>2014-02-09T13:57:56.500Z</time>
      </trkpt>
      <trkpt lat="44.17785" lon="5.26136">
        <ele>1605.7800192</ele>
        <time>2014-02-09T13:57:58.420Z</time>
      </trkpt>
      <trkpt lat="44.17787" lon="5.2611">
        <ele>1602.8100096</ele>
        <time>2014-02-09T13:58:00.500Z</time>
      </trkpt>
      <trkpt lat="44.17788" lon="5.26085">
        <ele>1602</ele>
        <time>2014-02-09T13:58:02.490Z</time>
      </trkpt>
      <trkpt lat="44.17789" lon="5.2606">
        <ele>1600.8272804496</ele>
        <time>2014-02-09T13:58:04.500Z</time>
      </trkpt>
      <trkpt lat="44.17789" lon="5.26034">
        <ele>1598.8100096</ele>
        <time>2014-02-09T13:58:06.500Z</time>
      </trkpt>
      <trkpt lat="44.17787" lon="5.26008">
        <ele>1597.8100096</ele>
        <time>2014-02-09T13:58:08.500Z</time>
      </trkpt>
      <trkpt lat="44.17785" lon="5.25983">
        <ele>1595.8100096</ele>
        <time>2014-02-09T13:58:10.500Z</time>
      </trkpt>
      <trkpt lat="44.17784" lon="5.25959">
        <ele>1592.8100096</ele>
        <time>2014-02-09T13:58:12.500Z</time>
      </trkpt>
      <trkpt lat="44.1778" lon="5.25937">
        <ele>1590.8100096</ele>
        <time>2014-02-09T13:58:14.500Z</time>
      </trkpt>
      <trkpt lat="44.17772" lon="5.25916">
        <ele>1590.8100096</ele>
        <time>2014-02-09T13:58:16.500Z</time>
      </trkpt>
      <trkpt lat="44.17769" lon="5.25898">
        <ele>1588.4300288</ele>
        <time>2014-02-09T13:58:18.500Z</time>
      </trkpt>
      <trkpt lat="44.17774" lon="5.25879">
        <ele>1584.6200192</ele>
        <time>2014-02-09T13:58:20.500Z</time>
      </trkpt>
      <trkpt lat="44.17781" lon="5.2586">
        <ele>1584</ele>
        <time>2014-02-09T13:58:22.430Z</time>
      </trkpt>
      <trkpt lat="44.17787" lon="5.2584">
        <ele>1582.8100096</ele>
        <time>2014-02-09T13:58:24.500Z</time>
      </trkpt>
      <trkpt lat="44.17792" lon="5.25819">
        <ele>1581.8100096</ele>
        <time>2014-02-09T13:58:26.500Z</time>
      </trkpt>
      <trkpt lat="44.17798" lon="5.25797">
        <ele>1579.8100096</ele>
        <time>2014-02-09T13:58:28.500Z</time>
      </trkpt>
      <trkpt lat="44.178" lon="5.25777">
        <ele>1578.1899904</ele>
        <time>2014-02-09T13:58:30.500Z</time>
      </trkpt>
      <trkpt lat="44.17802" lon="5.25756">
        <ele>1579</ele>
        <time>2014-02-09T13:58:32.420Z</time>
      </trkpt>
      <trkpt lat="44.17804" lon="5.25737">
        <ele>1579</ele>
        <time>2014-02-09T13:58:34.480Z</time>
      </trkpt>
      <trkpt lat="44.17804" lon="5.25719">
        <ele>1577</ele>
        <time>2014-02-09T13:58:36.500Z</time>
      </trkpt>
      <trkpt lat="44.17803" lon="5.25701">
        <ele>1577</ele>
        <time>2014-02-09T13:58:38.490Z</time>
      </trkpt>
      <trkpt lat="44.17802" lon="5.25683">
        <ele>1576.2400384</ele>
        <time>2014-02-09T13:58:40.500Z</time>
      </trkpt>
      <trkpt lat="44.178" lon="5.25665">
        <ele>1571</ele>
        <time>2014-02-09T13:58:42.500Z</time>
      </trkpt>
      <trkpt lat="44.17798" lon="5.25648">
        <ele>1570.8100096</ele>
        <time>2014-02-09T13:58:44.500Z</time>
      </trkpt>
      <trkpt lat="44.17797" lon="5.25632">
        <ele>1569</ele>
        <time>2014-02-09T13:58:46.480Z</time>
      </trkpt>
      <trkpt lat="44.17793" lon="5.25616">
        <ele>1565.8100096</ele>
        <time>2014-02-09T13:58:48.500Z</time>
      </trkpt>
      <trkpt lat="44.17787" lon="5.25601">
        <ele>1565.5399808</ele>
        <time>2014-02-09T13:58:50.490Z</time>
      </trkpt>
      <trkpt lat="44.17783" lon="5.25587">
        <ele>1568</ele>
        <time>2014-02-09T13:58:52.490Z</time>
      </trkpt>
      <trkpt lat="44.1778" lon="5.25576">
        <ele>1568</ele>
        <time>2014-02-09T13:58:54.500Z</time>
      </trkpt>
      <trkpt lat="44.17775" lon="5.25565">
        <ele>1567</ele>
        <time>2014-02-09T13:58:56.420Z</time>
      </trkpt>
      <trkpt lat="44.17771" lon="5.25555">
        <ele>1567</ele>
        <time>2014-02-09T13:58:58.490Z</time>
      </trkpt>
      <trkpt lat="44.17773" lon="5.25542">
        <ele>1565</ele>
        <time>2014-02-09T13:59:24.490Z</time>
      </trkpt>
      <trkpt lat="44.17769" lon="5.25529">
        <ele>1565</ele>
        <time>2014-02-09T13:59:28.480Z</time>
      </trkpt>
      <trkpt lat="44.1777" lon="5.2551">
        <ele>1564</ele>
        <time>2014-02-09T13:59:32.490Z</time>
      </trkpt>
      <trkpt lat="44.17773" lon="5.25494">
        <ele>1564</ele>
        <time>2014-02-09T13:59:35.490Z</time>
      </trkpt>
      <trkpt lat="44.17775" lon="5.25475">
        <ele>1564</ele>
        <time>2014-02-09T13:59:38.490Z</time>
      </trkpt>
      <trkpt lat="44.17777" lon="5.25462">
        <ele>1563.7800192</ele>
        <time>2014-02-09T13:59:40.420Z</time>
      </trkpt>
      <trkpt lat="44.17777" lon="5.25444">
        <ele>1562</ele>
        <time>2014-02-09T13:59:43.490Z</time>
      </trkpt>
      <trkpt lat="44.17776" lon="5.25424">
        <ele>1562</ele>
        <time>2014-02-09T13:59:46.490Z</time>
      </trkpt>
      <trkpt lat="44.17776" lon="5.2541">
        <ele>1562</ele>
        <time>2014-02-09T13:59:48.490Z</time>
      </trkpt>
      <trkpt lat="44.17775" lon="5.25396">
        <ele>1561.4600192</ele>
        <time>2014-02-09T13:59:50.490Z</time>
      </trkpt>
      <trkpt lat="44.17774" lon="5.25382">
        <ele>1559</ele>
        <time>2014-02-09T13:59:52.490Z</time>
      </trkpt>
      <trkpt lat="44.17772" lon="5.25367">
        <ele>1559</ele>
        <time>2014-02-09T13:59:54.480Z</time>
      </trkpt>
      <trkpt lat="44.17771" lon="5.25353">
        <ele>1558</ele>
        <time>2014-02-09T13:59:56.500Z</time>
      </trkpt>
      <trkpt lat="44.17771" lon="5.25333">
        <ele>1558</ele>
        <time>2014-02-09T13:59:59.490Z</time>
      </trkpt>
      <trkpt lat="44.17771" lon="5.25313">
        <ele>1555</ele>
        <time>2014-02-09T14:00:02.490Z</time>
      </trkpt>
      <trkpt lat="44.1777" lon="5.25299">
        <ele>1555</ele>
        <time>2014-02-09T14:00:04.430Z</time>
      </trkpt>
      <trkpt lat="44.17767" lon="5.25284">
        <ele>1554</ele>
        <time>2014-02-09T14:00:06.480Z</time>
      </trkpt>
      <trkpt lat="44.17764" lon="5.25268">
        <ele>1554</ele>
        <time>2014-02-09T14:00:08.490Z</time>
      </trkpt>
      <trkpt lat="44.17761" lon="5.25253">
        <ele>1553.8200064</ele>
        <time>2014-02-09T14:00:10.490Z</time>
      </trkpt>
      <trkpt lat="44.1776" lon="5.25238">
        <ele>1553</ele>
        <time>2014-02-09T14:00:12.490Z</time>
      </trkpt>
      <trkpt lat="44.17758" lon="5.25217">
        <ele>1553</ele>
        <time>2014-02-09T14:00:15.490Z</time>
      </trkpt>
      <trkpt lat="44.17756" lon="5.25203">
        <ele>1553</ele>
        <time>2014-02-09T14:00:17.690Z</time>
      </trkpt>
      <trkpt lat="44.17755" lon="5.25188">
        <ele>1553</ele>
        <time>2014-02-09T14:00:19.480Z</time>
      </trkpt>
      <trkpt lat="44.17754" lon="5.25174">
        <ele>1552</ele>
        <time>2014-02-09T14:00:21.420Z</time>
      </trkpt>
      <trkpt lat="44.17754" lon="5.25159">
        <ele>1552</ele>
        <time>2014-02-09T14:00:23.490Z</time>
      </trkpt>
      <trkpt lat="44.17753" lon="5.25145">
        <ele>1552</ele>
        <time>2014-02-09T14:00:25.490Z</time>
      </trkpt>
      <trkpt lat="44.17752" lon="5.25125">
        <ele>1552</ele>
        <time>2014-02-09T14:00:28.490Z</time>
      </trkpt>
      <trkpt lat="44.17753" lon="5.25108">
        <ele>1549</ele>
        <time>2014-02-09T14:00:31.350Z</time>
      </trkpt>
      <trkpt lat="44.17754" lon="5.25093">
        <ele>1549</ele>
        <time>2014-02-09T14:00:33.490Z</time>
      </trkpt>
      <trkpt lat="44.17754" lon="5.25076">
        <ele>1548.6400128</ele>
        <time>2014-02-09T14:00:35.490Z</time>
      </trkpt>
      <trkpt lat="44.17751" lon="5.25058">
        <ele>1547</ele>
        <time>2014-02-09T14:00:37.490Z</time>
      </trkpt>
      <trkpt lat="44.17749" lon="5.25038">
        <ele>1547</ele>
        <time>2014-02-09T14:00:39.490Z</time>
      </trkpt>
      <trkpt lat="44.17747" lon="5.25018">
        <ele>1546</ele>
        <time>2014-02-09T14:00:41.500Z</time>
      </trkpt>
      <trkpt lat="44.17744" lon="5.24998">
        <ele>1546</ele>
        <time>2014-02-09T14:00:43.490Z</time>
      </trkpt>
      <trkpt lat="44.17741" lon="5.24979">
        <ele>1545.8200064</ele>
        <time>2014-02-09T14:00:45.490Z</time>
      </trkpt>
      <trkpt lat="44.17739" lon="5.24959">
        <ele>1545</ele>
        <time>2014-02-09T14:00:47.490Z</time>
      </trkpt>
      <trkpt lat="44.17736" lon="5.24939">
        <ele>1545</ele>
        <time>2014-02-09T14:00:49.490Z</time>
      </trkpt>
      <trkpt lat="44.17732" lon="5.24919">
        <ele>1541</ele>
        <time>2014-02-09T14:00:51.500Z</time>
      </trkpt>
      <trkpt lat="44.17729" lon="5.24899">
        <ele>1541</ele>
        <time>2014-02-09T14:00:53.490Z</time>
      </trkpt>
      <trkpt lat="44.17724" lon="5.2488">
        <ele>1540.85416</ele>
        <time>2014-02-09T14:00:55.420Z</time>
      </trkpt>
      <trkpt lat="44.17719" lon="5.24861">
        <ele>1539</ele>
        <time>2014-02-09T14:00:57.490Z</time>
      </trkpt>
      <trkpt lat="44.17714" lon="5.24843">
        <ele>1539</ele>
        <time>2014-02-09T14:00:59.500Z</time>
      </trkpt>
      <trkpt lat="44.17709" lon="5.24825">
        <ele>1534.1900032</ele>
        <time>2014-02-09T14:01:01.500Z</time>
      </trkpt>
      <trkpt lat="44.17704" lon="5.24806">
        <ele>1534.8099968</ele>
        <time>2014-02-09T14:01:03.500Z</time>
      </trkpt>
      <trkpt lat="44.17699" lon="5.24788">
        <ele>1533.8899968</ele>
        <time>2014-02-09T14:01:05.420Z</time>
      </trkpt>
      <trkpt lat="44.17694" lon="5.24769">
        <ele>1531.6100096</ele>
        <time>2014-02-09T14:01:07.700Z</time>
      </trkpt>
      <trkpt lat="44.17691" lon="5.2475">
        <ele>1530</ele>
        <time>2014-02-09T14:01:09.500Z</time>
      </trkpt>
      <trkpt lat="44.17684" lon="5.24729">
        <ele>1530</ele>
        <time>2014-02-09T14:01:11.490Z</time>
      </trkpt>
      <trkpt lat="44.17676" lon="5.24711">
        <ele>1530</ele>
        <time>2014-02-09T14:01:13.590Z</time>
      </trkpt>
      <trkpt lat="44.17667" lon="5.24694">
        <ele>1529.16</ele>
        <time>2014-02-09T14:01:15.590Z</time>
      </trkpt>
      <trkpt lat="44.17662" lon="5.24675">
        <ele>1527</ele>
        <time>2014-02-09T14:01:17.590Z</time>
      </trkpt>
      <trkpt lat="44.17664" lon="5.24661">
        <ele>1527</ele>
        <time>2014-02-09T14:01:19.590Z</time>
      </trkpt>
      <trkpt lat="44.17677" lon="5.24665">
        <ele>1522.797980451</ele>
        <time>2014-02-09T14:01:22.520Z</time>
      </trkpt>
      <trkpt lat="44.17684" lon="5.24677">
        <ele>1521</ele>
        <time>2014-02-09T14:01:24.590Z</time>
      </trkpt>
      <trkpt lat="44.17689" lon="5.2469">
        <ele>1521</ele>
        <time>2014-02-09T14:01:26.590Z</time>
      </trkpt>
      <trkpt lat="44.17696" lon="5.24704">
        <ele>1519.7307692308</ele>
        <time>2014-02-09T14:01:28.590Z</time>
      </trkpt>
      <trkpt lat="44.17705" lon="5.24718">
        <ele>1518</ele>
        <time>2014-02-09T14:01:30.590Z</time>
      </trkpt>
      <trkpt lat="44.17715" lon="5.24733">
        <ele>1517</ele>
        <time>2014-02-09T14:01:32.590Z</time>
      </trkpt>
      <trkpt lat="44.17721" lon="5.24741">
        <ele>1516.72</ele>
        <time>2014-02-09T14:01:33.590Z</time>
      </trkpt>
      <trkpt lat="44.17727" lon="5.24749">
        <ele>1515.72</ele>
        <time>2014-02-09T14:01:34.590Z</time>
      </trkpt>
      <trkpt lat="44.17733" lon="5.24758">
        <ele>1514.72</ele>
        <time>2014-02-09T14:01:35.590Z</time>
      </trkpt>
      <trkpt lat="44.17739" lon="5.24767">
        <ele>1514</ele>
        <time>2014-02-09T14:01:36.590Z</time>
      </trkpt>
      <trkpt lat="44.17745" lon="5.24776">
        <ele>1513.72</ele>
        <time>2014-02-09T14:01:37.590Z</time>
      </trkpt>
      <trkpt lat="44.17752" lon="5.24785">
        <ele>1512.4455427978</ele>
        <time>2014-02-09T14:01:38.590Z</time>
      </trkpt>
      <trkpt lat="44.17758" lon="5.24795">
        <ele>1510.797980451</ele>
        <time>2014-02-09T14:01:39.520Z</time>
      </trkpt>
      <trkpt lat="44.17764" lon="5.24805">
        <ele>1509.72</ele>
        <time>2014-02-09T14:01:40.590Z</time>
      </trkpt>
      <trkpt lat="44.1777" lon="5.24816">
        <ele>1508.72</ele>
        <time>2014-02-09T14:01:41.590Z</time>
      </trkpt>
      <trkpt lat="44.17777" lon="5.24826">
        <ele>1507.72</ele>
        <time>2014-02-09T14:01:42.590Z</time>
      </trkpt>
      <trkpt lat="44.17783" lon="5.24837">
        <ele>1506.72</ele>
        <time>2014-02-09T14:01:43.590Z</time>
      </trkpt>
      <trkpt lat="44.17789" lon="5.24848">
        <ele>1504.6</ele>
        <time>2014-02-09T14:01:44.590Z</time>
      </trkpt>
      <trkpt lat="44.17795" lon="5.2486">
        <ele>1500.2429839462</ele>
        <time>2014-02-09T14:01:45.580Z</time>
      </trkpt>
      <trkpt lat="44.17801" lon="5.24871">
        <ele>1498.0280642151</ele>
        <time>2014-02-09T14:01:46.370Z</time>
      </trkpt>
      <trkpt lat="44.17808" lon="5.24881">
        <ele>1497.6199936</ele>
        <time>2014-02-09T14:01:47.500Z</time>
      </trkpt>
      <trkpt lat="44.17816" lon="5.24893">
        <ele>1495.6200192</ele>
        <time>2014-02-09T14:01:48.500Z</time>
      </trkpt>
      <trkpt lat="44.17823" lon="5.24904">
        <ele>1493.8099968</ele>
        <time>2014-02-09T14:01:49.500Z</time>
      </trkpt>
      <trkpt lat="44.17831" lon="5.24916">
        <ele>1492.6200192</ele>
        <time>2014-02-09T14:01:50.500Z</time>
      </trkpt>
      <trkpt lat="44.17837" lon="5.2493">
        <ele>1490.8099968</ele>
        <time>2014-02-09T14:01:51.500Z</time>
      </trkpt>
      <trkpt lat="44.17843" lon="5.24945">
        <ele>1489.6200192</ele>
        <time>2014-02-09T14:01:52.500Z</time>
      </trkpt>
      <trkpt lat="44.1785" lon="5.24959">
        <ele>1487.6199936</ele>
        <time>2014-02-09T14:01:53.500Z</time>
      </trkpt>
      <trkpt lat="44.17854" lon="5.24973">
        <ele>1485.8100096</ele>
        <time>2014-02-09T14:01:54.500Z</time>
      </trkpt>
      <trkpt lat="44.17858" lon="5.24989">
        <ele>1484.8099968</ele>
        <time>2014-02-09T14:01:55.500Z</time>
      </trkpt>
      <trkpt lat="44.17863" lon="5.25004">
        <ele>1483.6600064</ele>
        <time>2014-02-09T14:01:56.480Z</time>
      </trkpt>
      <trkpt lat="44.17866" lon="5.2502">
        <ele>1481.6100096</ele>
        <time>2014-02-09T14:01:57.700Z</time>
      </trkpt>
      <trkpt lat="44.1787" lon="5.25035">
        <ele>1480.6099968</ele>
        <time>2014-02-09T14:01:58.700Z</time>
      </trkpt>
      <trkpt lat="44.17878" lon="5.25065">
        <ele>1477.4300288</ele>
        <time>2014-02-09T14:02:00.500Z</time>
      </trkpt>
      <trkpt lat="44.1788" lon="5.25082">
        <ele>1475</ele>
        <time>2014-02-09T14:02:01.500Z</time>
      </trkpt>
      <trkpt lat="44.17882" lon="5.251">
        <ele>1474.6346338462</ele>
        <time>2014-02-09T14:02:02.500Z</time>
      </trkpt>
      <trkpt lat="44.17884" lon="5.25118">
        <ele>1473</ele>
        <time>2014-02-09T14:02:03.420Z</time>
      </trkpt>
      <trkpt lat="44.17885" lon="5.25136">
        <ele>1472.8100096</ele>
        <time>2014-02-09T14:02:04.500Z</time>
      </trkpt>
      <trkpt lat="44.17886" lon="5.25153">
        <ele>1471.8099968</ele>
        <time>2014-02-09T14:02:05.500Z</time>
      </trkpt>
      <trkpt lat="44.17887" lon="5.2517">
        <ele>1470.6600064</ele>
        <time>2014-02-09T14:02:06.480Z</time>
      </trkpt>
      <trkpt lat="44.17887" lon="5.25187">
        <ele>1468.2399872</ele>
        <time>2014-02-09T14:02:07.500Z</time>
      </trkpt>
      <trkpt lat="44.17889" lon="5.25204">
        <ele>1464.4300288</ele>
        <time>2014-02-09T14:02:08.500Z</time>
      </trkpt>
      <trkpt lat="44.17889" lon="5.25219">
        <ele>1462</ele>
        <time>2014-02-09T14:02:09.500Z</time>
      </trkpt>
      <trkpt lat="44.1789" lon="5.25234">
        <ele>1462.1899904</ele>
        <time>2014-02-09T14:02:10.500Z</time>
      </trkpt>
      <trkpt lat="44.17892" lon="5.25249">
        <ele>1463</ele>
        <time>2014-02-09T14:02:11.500Z</time>
      </trkpt>
      <trkpt lat="44.17895" lon="5.25264">
        <ele>1462.8100096</ele>
        <time>2014-02-09T14:02:12.500Z</time>
      </trkpt>
      <trkpt lat="44.17899" lon="5.25279">
        <ele>1461.4299904</ele>
        <time>2014-02-09T14:02:13.500Z</time>
      </trkpt>
      <trkpt lat="44.17903" lon="5.25295">
        <ele>1458.6200192</ele>
        <time>2014-02-09T14:02:14.500Z</time>
      </trkpt>
      <trkpt lat="44.17906" lon="5.25311">
        <ele>1456.6199936</ele>
        <time>2014-02-09T14:02:15.500Z</time>
      </trkpt>
      <trkpt lat="44.1791" lon="5.25327">
        <ele>1454.8300032</ele>
        <time>2014-02-09T14:02:16.480Z</time>
      </trkpt>
      <trkpt lat="44.17914" lon="5.25343">
        <ele>1453.8099968</ele>
        <time>2014-02-09T14:02:17.500Z</time>
      </trkpt>
      <trkpt lat="44.17919" lon="5.25359">
        <ele>1452.6200192</ele>
        <time>2014-02-09T14:02:18.500Z</time>
      </trkpt>
      <trkpt lat="44.17923" lon="5.25376">
        <ele>1450.4519138462</ele>
        <time>2014-02-09T14:02:19.500Z</time>
      </trkpt>
      <trkpt lat="44.17927" lon="5.25392">
        <ele>1447.9270933333</ele>
        <time>2014-02-09T14:02:20.420Z</time>
      </trkpt>
      <trkpt lat="44.17933" lon="5.25407">
        <ele>1447</ele>
        <time>2014-02-09T14:02:21.500Z</time>
      </trkpt>
      <trkpt lat="44.17938" lon="5.25422">
        <ele>1446.8100096</ele>
        <time>2014-02-09T14:02:22.500Z</time>
      </trkpt>
      <trkpt lat="44.17942" lon="5.25439">
        <ele>1445.8099968</ele>
        <time>2014-02-09T14:02:23.500Z</time>
      </trkpt>
      <trkpt lat="44.17947" lon="5.25454">
        <ele>1444.6200192</ele>
        <time>2014-02-09T14:02:24.500Z</time>
      </trkpt>
      <trkpt lat="44.17954" lon="5.25471">
        <ele>1442.8099968</ele>
        <time>2014-02-09T14:02:25.500Z</time>
      </trkpt>
      <trkpt lat="44.17963" lon="5.25484">
        <ele>1441.8499968</ele>
        <time>2014-02-09T14:02:26.460Z</time>
      </trkpt>
      <trkpt lat="44.17973" lon="5.25498">
        <ele>1440.8099968</ele>
        <time>2014-02-09T14:02:27.500Z</time>
      </trkpt>
      <trkpt lat="44.17982" lon="5.25509">
        <ele>1439.6200192</ele>
        <time>2014-02-09T14:02:28.500Z</time>
      </trkpt>
      <trkpt lat="44.17991" lon="5.25519">
        <ele>1437.8099968</ele>
        <time>2014-02-09T14:02:29.500Z</time>
      </trkpt>
      <trkpt lat="44.18004" lon="5.25525">
        <ele>1438.5600128</ele>
        <time>2014-02-09T14:02:30.700Z</time>
      </trkpt>
      <trkpt lat="44.18031" lon="5.25538">
        <ele>1440.6200192</ele>
        <time>2014-02-09T14:02:32.500Z</time>
      </trkpt>
      <trkpt lat="44.18043" lon="5.25545">
        <ele>1439</ele>
        <time>2014-02-09T14:02:33.700Z</time>
      </trkpt>
      <trkpt lat="44.18063" lon="5.2556">
        <ele>1434.6199936</ele>
        <time>2014-02-09T14:02:35.500Z</time>
      </trkpt>
      <trkpt lat="44.18067" lon="5.25569">
        <ele>1432.4519507692</ele>
        <time>2014-02-09T14:02:36.500Z</time>
      </trkpt>
      <trkpt lat="44.18071" lon="5.25578">
        <ele>1429</ele>
        <time>2014-02-09T14:02:39.490Z</time>
      </trkpt>
      <trkpt lat="44.18077" lon="5.25586">
        <ele>1429</ele>
        <time>2014-02-09T14:02:42.500Z</time>
      </trkpt>
      <trkpt lat="44.18081" lon="5.25594">
        <ele>1427.8100096</ele>
        <time>2014-02-09T14:02:44.500Z</time>
      </trkpt>
      <trkpt lat="44.18086" lon="5.25608">
        <ele>1428</ele>
        <time>2014-02-09T14:02:47.500Z</time>
      </trkpt>
      <trkpt lat="44.18088" lon="5.2562">
        <ele>1427</ele>
        <time>2014-02-09T14:02:50.490Z</time>
      </trkpt>
      <trkpt lat="44.1809" lon="5.25626">
        <ele>1428</ele>
        <time>2014-02-09T14:03:02.490Z</time>
      </trkpt>
      <trkpt lat="44.1809" lon="5.25624">
        <ele>1430</ele>
        <time>2014-02-09T14:04:58.210Z</time>
      </trkpt>
    </trkseg>
  </trk>
</gpx>